OS463 / OE-LWL 7700 Squawk Report (14th of July, 2019)

Aircraft E195 Reg No. OE-LWL Age N/A
Model Emb-195 Jet engines 2 First flight N/A
Registered 06-16 Rollout N/A Delivered 20-04-12
Construction No. 19000532 Line No. N/A Series 200LR
ADSHEX 440828 Airline name Austrian Airlines Owner N/A
Airfield based Vienna-Schwechat~Vienna~OE First tracked 2017-07-13 06:06:00

Flight history for OE-LWL

Route Flight No Date Playback
Salzburg (SZG) - Frankfurt Main (FRA) OS263 2019-08-20 09:36:00
Frankfurt Main (FRA) - Salzburg (SZG) OS262 2019-08-20 08:45:00
Salzburg (SZG) - Frankfurt Main (FRA) OS261 2019-08-20 07:01:00
Frankfurt Main (FRA) - Salzburg (SZG) OS270 2019-08-20 05:08:00
Salzburg (SZG) - Frankfurt Main (FRA) OS269 2019-08-19 17:50:00
Frankfurt Main (FRA) - Salzburg (SZG) OS266 2019-08-19 17:02:00
Salzburg (SZG) - Frankfurt Main (FRA) OS265 2019-08-19 13:39:00
Frankfurt Main (FRA) - Salzburg (SZG) OS264 2019-08-19 12:51:00
Salzburg (SZG) - Frankfurt Main (FRA) OS263 2019-08-19 09:44:00
Frankfurt Main (FRA) - Salzburg (SZG) OS262 2019-08-19 08:49:00
Salzburg (SZG) - Frankfurt Main (FRA) OS261 2019-08-19 07:11:00
Frankfurt Main (FRA) - Salzburg (SZG) OS270 2019-08-19 05:12:00
Salzburg (SZG) - Frankfurt Main (FRA) OS269 2019-08-18 19:51:00
Frankfurt Main (FRA) - Salzburg (SZG) OS266 2019-08-18 18:22:00
Salzburg (SZG) - Frankfurt Main (FRA) OS265 2019-08-18 14:53:00
Frankfurt Main (FRA) - Salzburg (SZG) OS264 2019-08-18 12:43:00
Salzburg (SZG) - Frankfurt Main (FRA) OS263 2019-08-18 11:03:00
Frankfurt Main (FRA) - Salzburg (SZG) OS262 2019-08-18 09:02:00
Salzburg (SZG) - Frankfurt Main (FRA) OS261 2019-08-18 07:14:00
Frankfurt Main (FRA) - Salzburg (SZG) OS270 2019-08-18 05:14:00
Time Lat Lon Altitude Heading Speed Vertical Rate
2019-07-14 14:18:15 GMT 53.358292 -2.276553 0 5 7 0
2019-07-14 14:17:44 GMT 53.357452 -2.276492 0 340 6 0
2019-07-14 14:17:33 GMT 53.357185 -2.276328 0 340 6 0
2019-07-14 14:17:14 GMT 53.356812 -2.275806 0 275 6 0
2019-07-14 14:17:05 GMT 53.356838 -2.275422 0 244 7 0
2019-07-14 14:17:02 GMT 53.356888 -2.275249 0 233 7 0
2019-07-14 14:16:47 GMT 53.357174 -2.274680 0 230 7 0
2019-07-14 14:16:40 GMT 53.357300 -2.274386 0 230 7 0
2019-07-14 14:16:29 GMT 53.357529 -2.273935 0 230 7 0
2019-07-14 14:16:20 GMT 53.357719 -2.273544 0 230 7 0
2019-07-14 14:16:07 GMT 53.357952 -2.273071 0 230 7 0
2019-07-14 14:15:56 GMT 53.358170 -2.272620 0 244 7 0
2019-07-14 14:15:41 GMT 53.358196 -2.271948 0 300 6 0
2019-07-14 14:15:28 GMT 53.358013 -2.271484 0 289 6 0
2019-07-14 14:15:25 GMT 53.357990 -2.271383 0 281 6 0
2019-07-14 14:15:18 GMT 53.357979 -2.271040 0 255 7 0
2019-07-14 14:15:11 GMT 53.358055 -2.270697 0 239 7 0
2019-07-14 14:15:05 GMT 53.358124 -2.270482 0 239 7 0
2019-07-14 14:15:00 GMT 53.358212 -2.270232 0 241 7 0
2019-07-14 14:14:55 GMT 53.358280 -2.270010 0 239 7 0
2019-07-14 14:14:50 GMT 53.358376 -2.269756 0 236 7 0
2019-07-14 14:14:39 GMT 53.358559 -2.269323 0 233 7 0
2019-07-14 14:14:29 GMT 53.358707 -2.268991 0 230 0 0
2019-07-14 14:14:22 GMT 53.358776 -2.268853 0 230 1 0
2019-07-14 14:14:14 GMT 53.358780 -2.268838 0 230 0 0
2019-07-14 14:14:08 GMT 53.358776 -2.268834 0 230 0 0
2019-07-14 14:14:03 GMT 53.358780 -2.268838 0 230 0 0
2019-07-14 14:13:53 GMT 53.358791 -2.268798 0 244 6 0
2019-07-14 14:13:49 GMT 53.358826 -2.268737 0 230 4 0
2019-07-14 14:13:41 GMT 53.358948 -2.268461 0 233 7 0
2019-07-14 14:13:30 GMT 53.359108 -2.268069 0 244 6 0
2019-07-14 14:13:24 GMT 53.359165 -2.267774 0 270 6 0
2019-07-14 14:13:20 GMT 53.359165 -2.267606 0 284 6 0
2019-07-14 14:13:14 GMT 53.359104 -2.267344 0 306 6 0
2019-07-14 14:13:08 GMT 53.359001 -2.267142 0 326 7 0
2019-07-14 14:13:00 GMT 53.358791 -2.266980 0 351 7 0
2019-07-14 14:12:52 GMT 53.358524 -2.266911 0 351 8 0
2019-07-14 14:12:47 GMT 53.358326 -2.266859 0 351 8 0
2019-07-14 14:12:43 GMT 53.358150 -2.266799 0 351 8 0
2019-07-14 14:12:38 GMT 53.358002 -2.266758 0 351 8 0
2019-07-14 14:12:31 GMT 53.357769 -2.266698 0 351 8 0
2019-07-14 14:12:21 GMT 53.357395 -2.266576 0 351 9 0
2019-07-14 14:12:17 GMT 53.357254 -2.266538 0 351 8 0
2019-07-14 14:12:11 GMT 53.357037 -2.266479 0 351 7 0
2019-07-14 14:12:07 GMT 53.356941 -2.266455 0 351 7 0
2019-07-14 14:11:58 GMT 53.356663 -2.266374 0 351 7 0
2019-07-14 14:11:55 GMT 53.356583 -2.266354 0 351 7 0
2019-07-14 14:11:49 GMT 53.356407 -2.266314 0 351 7 0
2019-07-14 14:11:44 GMT 53.356270 -2.266283 0 357 5 0
2019-07-14 14:11:40 GMT 53.356178 -2.266264 0 2 4 0
2019-07-14 14:11:22 GMT 53.355965 -2.266314 0 14 0 0
2019-07-14 14:11:08 GMT 53.355961 -2.266303 0 14 0 0
2019-07-14 14:10:57 GMT 53.355965 -2.266314 0 14 0 0
2019-07-14 14:10:47 GMT 53.355953 -2.266314 0 14 0 0
2019-07-14 14:10:27 GMT 53.355961 -2.266303 0 14 0 0
2019-07-14 14:10:22 GMT 53.355953 -2.266314 0 14 0 0
2019-07-14 14:10:17 GMT 53.355961 -2.266303 0 14 0 0
2019-07-14 14:10:07 GMT 53.355953 -2.266314 0 14 0 0
2019-07-14 14:09:56 GMT 53.355949 -2.266303 0 14 0 0
2019-07-14 14:09:46 GMT 53.355953 -2.266314 0 14 0 0
2019-07-14 14:09:40 GMT 53.355949 -2.266303 0 14 0 0
2019-07-14 14:09:36 GMT 53.355953 -2.266314 0 14 0 0
2019-07-14 14:09:29 GMT 53.355915 -2.266323 0 16 3 0
2019-07-14 14:09:25 GMT 53.355869 -2.266354 0 19 4 0
2019-07-14 14:09:20 GMT 53.355766 -2.266415 0 28 5 0
2019-07-14 14:09:16 GMT 53.355686 -2.266479 0 33 4 0
2019-07-14 14:09:09 GMT 53.355595 -2.266578 0 39 4 0
2019-07-14 14:09:05 GMT 53.355537 -2.266656 0 42 4 0
2019-07-14 14:08:55 GMT 53.355412 -2.266872 0 47 4 0
2019-07-14 14:08:48 GMT 53.355343 -2.266990 0 50 4 0
2019-07-14 14:08:44 GMT 53.355309 -2.267068 0 50 4 0
2019-07-14 14:08:37 GMT 53.355251 -2.267205 0 50 3 0
2019-07-14 14:08:22 GMT 53.355171 -2.267362 0 50 0 0
2019-07-14 14:08:12 GMT 53.355160 -2.267362 0 50 0 0
2019-07-14 14:08:02 GMT 53.355160 -2.267362 0 50 0 0
2019-07-14 14:07:52 GMT 53.355160 -2.267362 0 50 0 0
2019-07-14 14:07:42 GMT 53.355160 -2.267382 0 50 0 0
2019-07-14 14:07:21 GMT 53.355160 -2.267364 0 50 0 0
2019-07-14 14:07:17 GMT 53.355160 -2.267382 0 50 0 0
2019-07-14 14:07:07 GMT 53.355160 -2.267384 0 50 0 0
2019-07-14 14:06:16 GMT 53.355160 -2.267382 0 50 0 0
2019-07-14 14:06:00 GMT 53.355160 -2.267364 0 50 0 0
2019-07-14 14:05:42 GMT 53.355160 -2.267382 0 50 0 0
2019-07-14 14:05:31 GMT 53.355160 -2.267364 0 50 0 0
2019-07-14 14:05:16 GMT 53.355160 -2.267382 0 50 0 0
2019-07-14 14:05:00 GMT 53.355160 -2.267364 0 50 0 0
2019-07-14 14:04:31 GMT 53.355160 -2.267382 0 50 0 0
2019-07-14 14:04:20 GMT 53.355160 -2.267364 0 50 0 0
2019-07-14 14:03:50 GMT 53.355160 -2.267382 0 50 0 0
2019-07-14 14:03:40 GMT 53.355160 -2.267364 0 50 0 0
2019-07-14 14:03:10 GMT 53.355160 -2.267382 0 50 0 0
2019-07-14 14:02:55 GMT 53.355160 -2.267364 0 50 0 0
2019-07-14 14:02:40 GMT 53.355160 -2.267382 0 50 0 0
2019-07-14 14:02:14 GMT 53.355160 -2.267364 0 50 0 0
2019-07-14 14:02:09 GMT 53.355160 -2.267384 0 50 0 0
2019-07-14 14:01:44 GMT 53.355160 -2.267382 0 50 0 0
2019-07-14 14:01:14 GMT 53.355160 -2.267364 0 50 0 0
2019-07-14 14:01:09 GMT 53.355160 -2.267362 0 50 0 0
2019-07-14 14:01:05 GMT 53.355171 -2.267362 0 50 0 0
2019-07-14 14:00:40 GMT 53.355160 -2.267364 0 50 0 0
2019-07-14 14:00:29 GMT 53.355160 -2.267362 0 50 0 0
2019-07-14 14:00:08 GMT 53.355160 -2.267364 0 50 0 0
2019-07-14 13:59:18 GMT 53.355160 -2.267362 0 50 0 0
2019-07-14 13:59:08 GMT 53.355160 -2.267364 0 50 0 0
2019-07-14 13:58:58 GMT 53.355160 -2.267362 0 50 0 0
2019-07-14 13:58:53 GMT 53.355160 -2.267364 0 50 0 0
2019-07-14 13:58:47 GMT 53.355160 -2.267362 0 50 2 0
2019-07-14 13:58:41 GMT 53.355148 -2.267402 0 50 4 0
2019-07-14 13:58:37 GMT 53.355091 -2.267505 0 50 5 0
2019-07-14 13:58:32 GMT 53.355022 -2.267676 0 50 5 0
2019-07-14 13:58:27 GMT 53.354965 -2.267794 0 50 5 0
2019-07-14 13:58:21 GMT 53.354874 -2.267970 0 50 5 0
2019-07-14 13:58:16 GMT 53.354805 -2.268108 0 50 6 0
2019-07-14 13:58:09 GMT 53.354679 -2.268363 0 50 6 0
2019-07-14 13:58:04 GMT 53.354603 -2.268515 0 50 6 0
2019-07-14 13:57:59 GMT 53.354530 -2.268677 0 50 5 0
2019-07-14 13:57:53 GMT 53.354427 -2.268893 0 50 7 0
2019-07-14 13:57:45 GMT 53.354313 -2.269128 0 50 4 0
2019-07-14 13:57:37 GMT 53.354240 -2.269283 0 50 3 0
2019-07-14 13:57:32 GMT 53.354187 -2.269383 0 50 5 0
2019-07-14 13:57:27 GMT 53.354107 -2.269560 0 50 8 0
2019-07-14 13:57:23 GMT 53.354004 -2.269775 0 50 11 0
2019-07-14 13:57:18 GMT 53.353844 -2.270109 0 50 12 0
2019-07-14 13:57:11 GMT 53.353626 -2.270575 0 50 12 0
2019-07-14 13:57:02 GMT 53.353317 -2.271208 0 50 11 0
2019-07-14 13:56:50 GMT 53.352951 -2.271953 0 50 11 0
2019-07-14 13:56:45 GMT 53.352791 -2.272287 0 50 11 0
2019-07-14 13:56:38 GMT 53.352585 -2.272738 0 50 11 0
2019-07-14 13:56:35 GMT 53.352459 -2.272973 0 50 11 0
2019-07-14 13:56:28 GMT 53.352264 -2.273382 0 50 10 0
2019-07-14 13:56:25 GMT 53.352150 -2.273601 0 50 10 0
2019-07-14 13:56:20 GMT 53.352036 -2.273856 0 50 11 0
2019-07-14 13:55:58 GMT 53.351357 -2.275281 0 53 12 0
2019-07-14 13:55:41 GMT 53.350807 -2.276412 0 50 11 0
2019-07-14 13:55:29 GMT 53.350437 -2.277159 0 50 11 0
2019-07-14 13:55:26 GMT 53.350330 -2.277381 0 50 11 0
2019-07-14 13:55:13 GMT 53.349884 -2.278270 0 50 10 0
2019-07-14 13:55:07 GMT 53.349747 -2.278564 0 50 8 0
2019-07-14 13:55:04 GMT 53.349667 -2.278734 0 50 8 0
2019-07-14 13:54:56 GMT 53.349506 -2.279057 0 50 7 0
2019-07-14 13:54:43 GMT 53.349266 -2.279565 0 53 7 0
2019-07-14 13:54:33 GMT 53.349106 -2.279899 0 50 0 0
2019-07-14 13:51:36 GMT 53.347248 -2.283722 0 45 22 0
2019-07-14 13:51:25 GMT 53.346012 -2.284752 0 33 32 0
2019-07-14 13:51:18 GMT 53.345234 -2.285277 0 22 31 0
2019-07-14 13:51:07 GMT 53.343910 -2.286431 0 36 33 0
2019-07-14 13:50:21 GMT 53.335144 -2.304147 -125 50 128 -704
2019-07-14 13:50:11 GMT 53.331436 -2.311759 -50 50 128 -704
2019-07-14 13:50:08 GMT 53.330063 -2.314662 0 50 128 -640
2019-07-14 13:50:05 GMT 53.329010 -2.316781 25 50 128 -640
2019-07-14 13:50:01 GMT 53.327820 -2.319214 50 50 128 -704
2019-07-14 13:49:57 GMT 53.325989 -2.323059 100 50 130 -768
2019-07-14 13:49:54 GMT 53.324890 -2.325386 150 50 130 -896
2019-07-14 13:49:51 GMT 53.323959 -2.327244 175 51 128 -768
2019-07-14 13:49:47 GMT 53.322468 -2.330313 225 51 128 -768
2019-07-14 13:49:44 GMT 53.321228 -2.332947 275 50 128 -640
2019-07-14 13:49:41 GMT 53.320236 -2.334999 300 51 128 -576
2019-07-14 13:49:36 GMT 53.318325 -2.338957 325 51 129 -640
2019-07-14 13:49:33 GMT 53.317257 -2.341138 375 51 129 -640
2019-07-14 13:49:30 GMT 53.316284 -2.343148 400 50 128 -704
2019-07-14 13:49:27 GMT 53.313206 -2.349539 450 50 128 -576
2019-07-14 13:49:23 GMT 53.313721 -2.348485 475 51 129 -512
2019-07-14 13:49:20 GMT 53.312462 -2.351074 500 51 130 -640
2019-07-14 13:49:15 GMT 53.310318 -2.355517 600 51 131 -896
2019-07-14 13:49:12 GMT 53.309326 -2.357588 775 50 130 -1024
2019-07-14 13:49:09 GMT 53.308273 -2.359863 650 51 130 -704
2019-07-14 13:49:03 GMT 53.306030 -2.364493 750 50 130 -1024
2019-07-14 13:48:58 GMT 53.304127 -2.368362 850 51 130 -704
2019-07-14 13:48:53 GMT 53.301910 -2.372890 900 50 131 -768
2019-07-14 13:48:50 GMT 53.300636 -2.375632 1,000 50 131 -768
2019-07-14 13:48:47 GMT 53.299706 -2.377490 950 51 130 -576
2019-07-14 13:48:42 GMT 53.297981 -2.380963 1,000 51 131 -512
2019-07-14 13:48:37 GMT 53.296143 -2.384975 1,025 52 129 -576
2019-07-14 13:48:34 GMT 53.295052 -2.387264 1,050 50 130 -192
2019-07-14 13:48:30 GMT 53.293236 -2.390980 1,075 50 130 -256
2019-07-14 13:48:27 GMT 53.292351 -2.392838 1,100 50 131 -256
2019-07-14 13:48:21 GMT 53.289974 -2.397605 1,125 50 132 -576
2019-07-14 13:48:17 GMT 53.288578 -2.400432 1,200 51 131 -1024
2019-07-14 13:48:14 GMT 53.286850 -2.404122 1,250 52 132 -960
2019-07-14 13:48:10 GMT 53.285797 -2.406398 1,475 52 132 -896
2019-07-14 13:48:06 GMT 53.284286 -2.409616 1,325 52 131 -768
2019-07-14 13:48:03 GMT 53.283180 -2.412064 1,350 51 132 -832
2019-07-14 13:47:59 GMT 53.281319 -2.415861 1,450 50 133 -704
2019-07-14 13:47:56 GMT 53.279968 -2.418689 1,475 50 134 -704
2019-07-14 13:47:51 GMT 53.278290 -2.422015 1,525 49 133 -576
2019-07-14 13:47:46 GMT 53.276428 -2.425636 1,575 49 133 -640
2019-07-14 13:47:43 GMT 53.275406 -2.427743 1,600 50 134 -704
2019-07-14 13:47:40 GMT 53.274055 -2.430483 1,625 50 134 -640
2019-07-14 13:47:36 GMT 53.272472 -2.433714 1,675 50 134 -640
2019-07-14 13:47:33 GMT 53.271542 -2.435572 1,750 50 134 -576
2019-07-14 13:47:30 GMT 53.270096 -2.438572 1,750 50 133 -640
2019-07-14 13:47:27 GMT 53.268311 -2.442182 1,775 51 133 -512
2019-07-14 13:47:23 GMT 53.267395 -2.444066 1,800 50 134 -576
2019-07-14 13:47:19 GMT 53.265976 -2.446969 1,850 49 133 -832
2019-07-14 13:47:16 GMT 53.264420 -2.450108 1,925 50 135 -960
2019-07-14 13:47:13 GMT 53.263161 -2.452455 1,950 50 135 -896
2019-07-14 13:47:08 GMT 53.261490 -2.455837 2,025 50 135 -960
2019-07-14 13:47:05 GMT 53.260323 -2.458272 2,150 51 139 -832
2019-07-14 13:47:02 GMT 53.259109 -2.460781 2,150 51 138 -832
2019-07-14 13:46:59 GMT 53.257763 -2.463603 2,150 51 140 -768
2019-07-14 13:46:55 GMT 53.256088 -2.467137 2,225 51 139 -576
2019-07-14 13:46:51 GMT 53.254807 -2.469805 2,225 50 137 -448
2019-07-14 13:46:48 GMT 53.253525 -2.472473 2,250 51 133 -768
2019-07-14 13:46:42 GMT 53.251007 -2.477652 2,350 51 135 -640
2019-07-14 13:46:38 GMT 53.249634 -2.480556 2,375 51 136 -704
2019-07-14 13:46:31 GMT 53.246887 -2.486285 2,550 51 143 -832
2019-07-14 13:46:27 GMT 53.245148 -2.489938 2,525 50 149 -832
2019-07-14 13:46:24 GMT 53.243702 -2.492846 2,550 50 155 -768
2019-07-14 13:46:20 GMT 53.241806 -2.496800 2,650 50 161 -640
2019-07-14 13:46:17 GMT 53.240662 -2.499076 2,650 51 160 -576
2019-07-14 13:46:14 GMT 53.238785 -2.502921 2,700 50 161 -576
2019-07-14 13:46:11 GMT 53.237457 -2.505668 2,700 50 161 -128
2019-07-14 13:46:08 GMT 53.235809 -2.509042 2,700 50 161 -64
2019-07-14 13:46:05 GMT 53.235138 -2.510376 2,700 50 161 -64
2019-07-14 13:46:02 GMT 53.233181 -2.514334 2,700 51 162 -64
2019-07-14 13:45:59 GMT 53.231644 -2.517596 2,700 51 162 -64
2019-07-14 13:45:56 GMT 53.230576 -2.519747 2,700 51 162 128
2019-07-14 13:45:53 GMT 53.228760 -2.523481 2,700 50 163 64
2019-07-14 13:45:48 GMT 53.226570 -2.527986 2,700 50 163 64
2019-07-14 13:45:45 GMT 53.224850 -2.531460 2,700 51 162 -64
2019-07-14 13:45:41 GMT 53.221756 -2.537920 2,700 51 162 0
2019-07-14 13:45:38 GMT 53.220612 -2.540274 2,700 51 161 64
2019-07-14 13:45:32 GMT 53.219650 -2.542236 2,700 50 161 320
2019-07-14 13:45:28 GMT 53.217495 -2.546647 2,675 50 160 128
2019-07-14 13:45:24 GMT 53.215210 -2.551339 2,675 51 162 -64
2019-07-14 13:45:18 GMT 53.212559 -2.556826 2,700 51 169 -256
2019-07-14 13:45:15 GMT 53.210907 -2.560285 2,700 51 172 -64
2019-07-14 13:45:12 GMT 53.209675 -2.562884 2,700 52 174 -64
2019-07-14 13:45:09 GMT 53.208115 -2.566171 2,700 54 174 -64
2019-07-14 13:45:06 GMT 53.207016 -2.568839 2,700 54 174 128
2019-07-14 13:45:03 GMT 53.203251 -2.577748 2,700 55 171 128
2019-07-14 13:44:59 GMT 53.203251 -2.577748 2,700 54 172 -128
2019-07-14 13:44:56 GMT 53.202366 -2.579848 2,700 53 172 -64
2019-07-14 13:44:53 GMT 53.200562 -2.583984 2,700 52 172 -64
2019-07-14 13:44:50 GMT 53.199245 -2.586715 2,700 51 173 0
2019-07-14 13:44:46 GMT 53.196686 -2.591481 2,725 43 174 -128
2019-07-14 13:44:43 GMT 53.195290 -2.593581 2,700 37 175 128
2019-07-14 13:44:40 GMT 53.193939 -2.595358 2,700 36 176 128
2019-07-14 13:44:36 GMT 53.190170 -2.598894 2,700 19 178 -128
2019-07-14 13:44:33 GMT 53.187653 -2.600385 2,700 15 178 -192
2019-07-14 13:44:30 GMT 53.186050 -2.601170 2,700 14 178 -192
2019-07-14 13:44:27 GMT 53.183533 -2.602269 2,725 14 178 64
2019-07-14 13:44:24 GMT 53.180557 -2.603446 2,725 14 179 0
2019-07-14 13:44:16 GMT 53.175270 -2.605779 2,700 14 178 128
2019-07-14 13:44:13 GMT 53.170242 -2.608041 2,700 14 173 -192
2019-07-14 13:44:05 GMT 53.165588 -2.610142 2,675 15 171 -64
2019-07-14 13:43:59 GMT 53.161423 -2.612000 2,700 14 173 -192
2019-07-14 13:43:56 GMT 53.159073 -2.612969 2,700 14 179 64
2019-07-14 13:43:52 GMT 53.156342 -2.614197 2,700 14 179 64
2019-07-14 13:43:49 GMT 53.153580 -2.615392 2,700 14 179 256
2019-07-14 13:43:45 GMT 53.149761 -2.617008 2,700 14 175 0
2019-07-14 13:43:42 GMT 53.148178 -2.617735 2,700 13 171 -64
2019-07-14 13:43:39 GMT 53.143387 -2.619455 2,700 7 171 64
2019-07-14 13:43:36 GMT 53.141056 -2.619916 2,700 7 171 64
2019-07-14 13:43:33 GMT 53.137024 -2.619533 2,700 359 173 -192
2019-07-14 13:43:28 GMT 53.137024 -2.619533 2,700 332 176 320
2019-07-14 13:43:22 GMT 53.132351 -2.616766 2,675 326 178 256
2019-07-14 13:43:19 GMT 53.130020 -2.614197 2,675 320 178 0
2019-07-14 13:43:14 GMT 53.125973 -2.606345 2,675 307 186 128
2019-07-14 13:43:11 GMT 53.125973 -2.606345 2,675 302 190 0
2019-07-14 13:43:07 GMT 53.124111 -2.599882 2,700 266 203 -192
2019-07-14 13:43:04 GMT 53.123085 -2.592127 2,700 266 203 -192
2019-07-14 13:42:56 GMT 53.123413 -2.582756 2,725 244 209 -128
2019-07-14 13:42:53 GMT 53.123833 -2.579687 2,725 244 209 -128
2019-07-14 13:42:50 GMT 53.124802 -2.575195 2,700 248 208 -192
2019-07-14 13:42:46 GMT 53.126678 -2.569545 2,725 241 209 -64
2019-07-14 13:42:41 GMT 53.132538 -2.559653 2,700 210 214 128
2019-07-14 13:42:37 GMT 53.132538 -2.559653 2,700 217 215 128
2019-07-14 13:42:34 GMT 53.135056 -2.557146 2,700 207 214 128
2019-07-14 13:42:31 GMT 53.138718 -2.554557 2,700 196 214 64
2019-07-14 13:42:27 GMT 53.141987 -2.553271 2,700 182 215 -64
2019-07-14 13:42:23 GMT 53.146828 -2.552706 3,050 177 225 -640
2019-07-14 13:42:20 GMT 53.151997 -2.552786 2,700 178 217 -192
2019-07-14 13:42:17 GMT 53.151997 -2.552786 2,700 178 217 -192
2019-07-14 13:42:14 GMT 53.155533 -2.552948 2,725 178 218 -384
2019-07-14 13:42:11 GMT 53.157440 -2.552987 2,725 178 219 -512
2019-07-14 13:42:07 GMT 53.165176 -2.553380 2,800 177 222 -576
2019-07-14 13:42:04 GMT 53.165176 -2.553380 2,800 177 222 -576
2019-07-14 13:42:00 GMT 53.169296 -2.553693 2,850 177 225 -832
2019-07-14 13:41:56 GMT 53.173462 -2.553929 2,925 177 226 -896
2019-07-14 13:41:53 GMT 53.176575 -2.554160 3,050 177 234 -1280
2019-07-14 13:41:50 GMT 53.179089 -2.554402 3,025 177 228 -896
2019-07-14 13:41:47 GMT 53.182251 -2.554635 3,025 177 229 -832
2019-07-14 13:41:44 GMT 53.187332 -2.555028 3,050 177 230 -832
2019-07-14 13:41:41 GMT 53.189026 -2.555106 3,100 177 234 -1280
2019-07-14 13:41:38 GMT 53.192459 -2.555341 3,150 177 232 -832
2019-07-14 13:41:35 GMT 53.196079 -2.555614 3,225 177 233 -832
2019-07-14 13:41:32 GMT 53.198868 -2.555734 3,250 177 234 -960
2019-07-14 13:41:29 GMT 53.203014 -2.556018 3,300 177 234 -1152
2019-07-14 13:41:26 GMT 53.204739 -2.556098 3,375 177 234 -1216
2019-07-14 13:41:23 GMT 53.208603 -2.556422 3,425 177 234 -1088
2019-07-14 13:41:20 GMT 53.211868 -2.556676 3,475 177 234 -1216
2019-07-14 13:41:17 GMT 53.215538 -2.556987 3,600 176 233 -1216
2019-07-14 13:41:14 GMT 53.218323 -2.557225 3,650 176 233 -1216
2019-07-14 13:41:11 GMT 53.220886 -2.557460 3,675 176 233 -1216
2019-07-14 13:41:08 GMT 53.225407 -2.557876 3,725 176 233 -1216
2019-07-14 13:41:05 GMT 53.227551 -2.558118 3,800 176 233 -1408
2019-07-14 13:41:02 GMT 53.231880 -2.558522 3,925 175 233 -1280
2019-07-14 13:40:56 GMT 53.241840 -2.559895 4,000 172 233 -1024
2019-07-14 13:40:53 GMT 53.241840 -2.559895 4,050 171 232 -1088
2019-07-14 13:40:50 GMT 53.243980 -2.560461 4,075 169 232 -1088
2019-07-14 13:40:47 GMT 53.247070 -2.561541 4,200 160 232 -1216
2019-07-14 13:40:44 GMT 53.249756 -2.563046 4,225 156 232 -1216
2019-07-14 13:40:41 GMT 53.253292 -2.565792 4,275 150 232 -1152
2019-07-14 13:40:38 GMT 53.255852 -2.568539 4,325 142 233 -1024
2019-07-14 13:40:34 GMT 53.259159 -2.573305 4,625 122 235 -1216
2019-07-14 13:40:31 GMT 53.261673 -2.578152 4,500 124 233 -1216
2019-07-14 13:40:28 GMT 53.263550 -2.582572 4,525 122 233 -1152
2019-07-14 13:40:25 GMT 53.267166 -2.592046 4,625 122 233 -1280
2019-07-14 13:40:22 GMT 53.267166 -2.592046 4,650 122 233 -1216
2019-07-14 13:40:16 GMT 53.270508 -2.600856 4,775 122 235 -1216
2019-07-14 13:40:12 GMT 53.272842 -2.606977 4,850 122 235 -1216
2019-07-14 13:40:09 GMT 53.274799 -2.612161 4,900 122 235 -1088
2019-07-14 13:40:06 GMT 53.275963 -2.615231 4,975 122 235 -1216
2019-07-14 13:40:03 GMT 53.277649 -2.619847 5,025 122 235 -1216
2019-07-14 13:40:00 GMT 53.279526 -2.624869 5,050 122 235 -1216
2019-07-14 13:39:57 GMT 53.281586 -2.630441 5,150 121 236 -1216
2019-07-14 13:39:53 GMT 53.283417 -2.635385 5,175 121 236 -1152
2019-07-14 13:39:49 GMT 53.286018 -2.642616 5,300 120 237 -1280
2019-07-14 13:39:46 GMT 53.288498 -2.649902 5,350 118 236 -1280
2019-07-14 13:39:43 GMT 53.288498 -2.649902 5,400 118 237 -1216
2019-07-14 13:39:40 GMT 53.290604 -2.656965 5,475 113 234 -1024
2019-07-14 13:39:37 GMT 53.291374 -2.660145 5,525 104 229 -1152
2019-07-14 13:39:34 GMT 53.292397 -2.666285 5,675 40 229 -576
2019-07-14 13:39:31 GMT 53.292908 -2.677352 5,650 88 224 -576
2019-07-14 13:39:28 GMT 53.292908 -2.677352 6,050 72 222 -640
2019-07-14 13:39:24 GMT 53.292488 -2.683491 5,675 40 229 -576
2019-07-14 13:39:21 GMT 53.290489 -2.693185 5,750 64 223 -640
2019-07-14 13:39:15 GMT 53.288910 -2.697693 6,050 3 240 -448
2019-07-14 13:39:12 GMT 53.286667 -2.702637 5,875 47 227 -640
2019-07-14 13:39:09 GMT 53.284763 -2.705787 5,850 39 230 -576
2019-07-14 13:39:06 GMT 53.282715 -2.708615 5,900 25 234 -704
2019-07-14 13:39:03 GMT 53.279617 -2.711897 5,925 12 238 -640
2019-07-14 13:39:00 GMT 53.275871 -2.714673 5,925 20 236 -704
2019-07-14 13:38:57 GMT 53.273777 -2.715804 5,925 16 237 -576
2019-07-14 13:38:54 GMT 53.266327 -2.717581 6,000 5 239 -512
2019-07-14 13:38:51 GMT 53.266327 -2.717581 6,000 1 240 -384
2019-07-14 13:38:48 GMT 53.263206 -2.717339 6,000 353 241 64
2019-07-14 13:38:45 GMT 53.260345 -2.716684 6,000 349 242 192
2019-07-14 13:38:42 GMT 53.257202 -2.715400 6,000 345 241 320
2019-07-14 13:38:38 GMT 53.251804 -2.711604 6,000 332 245 -320
2019-07-14 13:38:35 GMT 53.249222 -2.709229 6,000 330 245 -384
2019-07-14 13:38:32 GMT 53.247009 -2.707080 6,050 330 238 -896
2019-07-14 13:38:28 GMT 53.240570 -2.700832 6,100 330 241 -960
2019-07-14 13:38:21 GMT 53.236904 -2.697305 6,275 330 238 -960
2019-07-14 13:38:18 GMT 53.233089 -2.693670 6,275 330 239 -960
2019-07-14 13:38:15 GMT 53.230728 -2.691336 6,300 330 239 -1024
2019-07-14 13:38:11 GMT 53.227036 -2.687773 6,350 331 240 -960
2019-07-14 13:38:08 GMT 53.223591 -2.684461 6,350 331 241 -960
2019-07-14 13:38:05 GMT 53.220978 -2.682077 6,500 331 241 -1024
2019-07-14 13:38:02 GMT 53.218098 -2.679372 6,725 331 241 -1024
2019-07-14 13:37:59 GMT 53.214752 -2.676270 7,950 331 242 -1024
2019-07-14 13:37:55 GMT 53.210815 -2.672581 6,625 332 243 -1088
2019-07-14 13:37:52 GMT 53.208279 -2.670243 6,700 331 245 -1024
2019-07-14 13:37:49 GMT 53.205780 -2.667951 6,725 331 244 -960
2019-07-14 13:37:46 GMT 53.202457 -2.664831 7,000 330 275 -1600
2019-07-14 13:37:43 GMT 53.199051 -2.661673 6,800 331 246 -1024
2019-07-14 13:37:40 GMT 53.196499 -2.659257 6,875 331 248 -1024
2019-07-14 13:37:37 GMT 53.193985 -2.656914 6,925 331 248 -1024
2019-07-14 13:37:34 GMT 53.189804 -2.652963 7,000 331 248 -1024
2019-07-14 13:37:31 GMT 53.187607 -2.650856 7,100 331 249 -1024
2019-07-14 13:37:28 GMT 53.184998 -2.648411 7,150 331 250 -1024
2019-07-14 13:37:25 GMT 53.181061 -2.644645 7,150 331 251 -1024
2019-07-14 13:37:21 GMT 53.176941 -2.640799 7,200 331 251 -1024
2019-07-14 13:37:18 GMT 53.174515 -2.638445 7,250 331 253 -1024
2019-07-14 13:37:15 GMT 53.171219 -2.635385 7,400 331 255 -1024
2019-07-14 13:37:11 GMT 53.166939 -2.631387 7,400 331 255 -1024
2019-07-14 13:37:08 GMT 53.164051 -2.628721 7,450 331 270 -1024
2019-07-14 13:37:04 GMT 53.160328 -2.625248 7,475 331 256 -1024
2019-07-14 13:37:01 GMT 53.156799 -2.621966 7,525 331 258 -1024
2019-07-14 13:36:58 GMT 53.153671 -2.619028 7,625 331 259 -1024
2019-07-14 13:36:55 GMT 53.150116 -2.615766 7,650 331 260 -1024
2019-07-14 13:36:52 GMT 53.147385 -2.613211 7,700 331 260 -1024
2019-07-14 13:36:49 GMT 53.143990 -2.610061 7,750 331 262 -1024
2019-07-14 13:36:46 GMT 53.139954 -2.606349 7,775 331 263 -1024
2019-07-14 13:36:43 GMT 53.137848 -2.604388 7,800 331 263 -1024
2019-07-14 13:36:40 GMT 53.130249 -2.597325 7,925 331 266 -960
2019-07-14 13:36:36 GMT 53.130249 -2.597325 7,975 331 268 -1024
2019-07-14 13:36:33 GMT 53.127789 -2.595035 8,025 331 267 -1024
2019-07-14 13:36:30 GMT 53.123878 -2.591400 8,075 331 269 -1088
2019-07-14 13:36:27 GMT 53.120728 -2.588457 8,100 331 270 -1024
2019-07-14 13:36:24 GMT 53.116894 -2.584857 8,150 331 271 -960
2019-07-14 13:36:20 GMT 53.109283 -2.577628 8,250 331 274 -1024
2019-07-14 13:36:17 GMT 53.109283 -2.577628 8,275 331 274 -1088
2019-07-14 13:36:13 GMT 53.105068 -2.573709 8,400 331 275 -1600
2019-07-14 13:36:10 GMT 53.102142 -2.570958 8,450 331 275 -1600
2019-07-14 13:36:07 GMT 53.098740 -2.567731 8,500 331 275 -1600
2019-07-14 13:36:03 GMT 53.094318 -2.563581 8,700 331 275 -1600
2019-07-14 13:36:00 GMT 53.086533 -2.556229 8,725 331 275 -1600
2019-07-14 13:35:57 GMT 53.086533 -2.556229 8,800 331 275 -1600
2019-07-14 13:35:54 GMT 53.083878 -2.553711 8,900 331 275 -1600
2019-07-14 13:35:51 GMT 53.081001 -2.550947 8,925 330 275 -1600
2019-07-14 13:35:48 GMT 53.077045 -2.547180 9,025 330 275 -1600
2019-07-14 13:35:45 GMT 53.073601 -2.543806 9,100 330 275 -1600
2019-07-14 13:35:42 GMT 53.070648 -2.541046 9,150 330 275 -1600
2019-07-14 13:35:39 GMT 53.067993 -2.538452 9,250 330 275 -1600
2019-07-14 13:35:36 GMT 53.065224 -2.535801 9,375 325 273 -1024
2019-07-14 13:35:33 GMT 53.061356 -2.532120 9,475 330 276 -1600
2019-07-14 13:35:30 GMT 53.058289 -2.529068 9,475 330 275 -1600
2019-07-14 13:35:27 GMT 53.055313 -2.526169 9,550 330 275 -1664
2019-07-14 13:35:24 GMT 53.050232 -2.521048 9,750 327 274 -1280
2019-07-14 13:35:21 GMT 53.048264 -2.518997 9,750 327 274 -1472
2019-07-14 13:35:18 GMT 53.045113 -2.515477 9,825 322 272 -1088
2019-07-14 13:35:15 GMT 53.042038 -2.511826 9,850 322 272 -1088
2019-07-14 13:35:12 GMT 53.038826 -2.507159 9,900 315 270 -1088
2019-07-14 13:35:08 GMT 53.034962 -2.499625 10,000 304 268 -448
2019-07-14 13:35:05 GMT 53.030773 -2.487462 10,000 297 268 -64
2019-07-14 13:35:01 GMT 53.030773 -2.487462 10,000 293 269 0
2019-07-14 13:34:58 GMT 53.029770 -2.483292 10,000 289 270 0
2019-07-14 13:34:55 GMT 53.028816 -2.477495 10,000 284 270 0
2019-07-14 13:34:52 GMT 53.027885 -2.465646 10,000 274 271 -64
2019-07-14 13:34:46 GMT 53.028534 -2.452621 10,000 263 272 0
2019-07-14 13:34:43 GMT 53.029423 -2.446577 10,000 255 272 64
2019-07-14 13:34:40 GMT 53.029423 -2.446577 10,000 231 274 0
2019-07-14 13:34:37 GMT 53.030685 -2.440491 10,000 245 273 128
2019-07-14 13:34:34 GMT 53.032310 -2.434884 10,000 239 273 0
2019-07-14 13:34:31 GMT 53.034302 -2.429504 10,000 236 273 -64
2019-07-14 13:34:28 GMT 53.037003 -2.423477 10,000 231 274 64
2019-07-14 13:34:25 GMT 53.038605 -2.420044 10,000 231 271 64
2019-07-14 13:34:22 GMT 53.040970 -2.415187 10,000 232 270 64
2019-07-14 13:34:19 GMT 53.043484 -2.410008 10,000 232 270 0
2019-07-14 13:34:16 GMT 53.045998 -2.404907 10,000 231 273 0
2019-07-14 13:34:13 GMT 53.048370 -2.400120 10,000 231 276 0
2019-07-14 13:34:10 GMT 53.051193 -2.394562 10,000 231 277 -64
2019-07-14 13:34:07 GMT 53.053909 -2.388899 10,000 232 280 -128
2019-07-14 13:34:04 GMT 53.055038 -2.386551 10,000 232 281 64
2019-07-14 13:34:01 GMT 53.058655 -2.379074 10,000 232 283 0
2019-07-14 13:33:58 GMT 53.062958 -2.370148 10,000 232 282 -320
2019-07-14 13:33:52 GMT 53.065456 -2.365043 10,025 232 282 -320
2019-07-14 13:33:49 GMT 53.068268 -2.359161 10,050 232 281 -320
2019-07-14 13:33:46 GMT 53.070343 -2.354684 10,050 232 281 -128
2019-07-14 13:33:43 GMT 53.076813 -2.341108 10,025 232 281 192
2019-07-14 13:33:39 GMT 53.076813 -2.341108 10,025 232 281 128
2019-07-14 13:33:36 GMT 53.079140 -2.336243 10,025 232 281 128
2019-07-14 13:33:32 GMT 53.084244 -2.325516 10,000 232 281 64
2019-07-14 13:33:29 GMT 53.084244 -2.325516 10,000 232 282 64
2019-07-14 13:33:26 GMT 53.086262 -2.321176 10,000 232 282 64
2019-07-14 13:33:23 GMT 53.088543 -2.316467 10,000 232 282 64
2019-07-14 13:33:20 GMT 53.091019 -2.311325 10,000 232 283 64
2019-07-14 13:33:17 GMT 53.096695 -2.299595 10,000 232 282 64
2019-07-14 13:33:14 GMT 53.096695 -2.299595 10,000 232 282 0
2019-07-14 13:33:11 GMT 53.098553 -2.295819 10,000 232 282 -64
2019-07-14 13:33:08 GMT 53.101158 -2.290407 10,000 232 281 0
2019-07-14 13:33:05 GMT 53.103722 -2.285075 10,000 232 282 -64
2019-07-14 13:33:02 GMT 53.105721 -2.280956 10,000 232 281 0
2019-07-14 13:32:59 GMT 53.108982 -2.274170 10,000 232 281 0
2019-07-14 13:32:55 GMT 53.112717 -2.266479 10,000 232 281 64
2019-07-14 13:32:52 GMT 53.114365 -2.263027 10,000 232 281 0
2019-07-14 13:32:49 GMT 53.116524 -2.258579 10,000 232 281 -64
2019-07-14 13:32:46 GMT 53.119949 -2.251491 10,000 232 281 -64
2019-07-14 13:32:43 GMT 53.122063 -2.247108 10,000 232 281 0
2019-07-14 13:32:40 GMT 53.123692 -2.243715 10,000 232 281 -64
2019-07-14 13:32:37 GMT 53.126450 -2.237994 10,000 232 281 -64
2019-07-14 13:32:34 GMT 53.128738 -2.233207 10,000 232 281 -64
2019-07-14 13:32:31 GMT 53.133423 -2.223358 10,000 232 281 64
2019-07-14 13:32:25 GMT 53.136681 -2.216653 10,000 232 281 64
2019-07-14 13:32:22 GMT 53.138718 -2.212333 10,000 232 281 -64
2019-07-14 13:32:19 GMT 53.140823 -2.207929 10,000 232 280 -64
2019-07-14 13:32:15 GMT 53.147141 -2.194833 10,000 232 281 -64
2019-07-14 13:32:12 GMT 53.147141 -2.194833 10,000 232 280 -64
2019-07-14 13:32:09 GMT 53.151901 -2.184987 10,000 232 280 0
2019-07-14 13:32:06 GMT 53.151901 -2.184987 10,000 232 280 64
2019-07-14 13:32:03 GMT 53.157349 -2.173645 10,000 232 280 64
2019-07-14 13:32:00 GMT 53.157349 -2.173645 10,000 232 280 0
2019-07-14 13:31:57 GMT 53.158512 -2.171254 10,000 232 280 0
2019-07-14 13:31:54 GMT 53.161446 -2.165195 10,000 232 280 0
2019-07-14 13:31:51 GMT 53.164612 -2.158490 10,000 232 279 64
2019-07-14 13:31:48 GMT 53.166939 -2.153643 10,000 232 279 -64
2019-07-14 13:31:45 GMT 53.169022 -2.149240 10,000 232 279 -64
2019-07-14 13:31:42 GMT 53.171455 -2.144192 10,000 232 279 -64
2019-07-14 13:31:39 GMT 53.174294 -2.138295 10,000 232 280 64
2019-07-14 13:31:36 GMT 53.178314 -2.129935 10,000 232 279 0
2019-07-14 13:31:33 GMT 53.178314 -2.129935 10,000 232 279 -64
2019-07-14 13:31:30 GMT 53.180813 -2.124724 10,000 232 279 64
2019-07-14 13:31:27 GMT 53.183533 -2.119027 10,000 232 279 0
2019-07-14 13:31:24 GMT 53.186302 -2.113333 10,000 232 279 64
2019-07-14 13:31:21 GMT 53.188385 -2.108983 10,000 232 278 64
2019-07-14 13:31:18 GMT 53.191097 -2.103316 10,000 232 278 0
2019-07-14 13:31:15 GMT 53.193054 -2.099277 10,000 232 278 0
2019-07-14 13:31:12 GMT 53.195435 -2.094230 10,000 232 278 64
2019-07-14 13:31:09 GMT 53.197952 -2.089050 10,000 232 278 64
2019-07-14 13:31:06 GMT 53.200455 -2.083848 10,000 232 278 -64
2019-07-14 13:31:03 GMT 53.202438 -2.079633 10,000 232 278 64
2019-07-14 13:31:00 GMT 53.204926 -2.074477 10,000 232 278 0
2019-07-14 13:30:57 GMT 53.207291 -2.069589 10,000 232 277 64
2019-07-14 13:30:54 GMT 53.209579 -2.064802 10,000 232 277 64
2019-07-14 13:30:51 GMT 53.214020 -2.055542 10,000 232 278 -64
2019-07-14 13:30:45 GMT 53.216469 -2.050404 10,000 232 278 -64
2019-07-14 13:30:42 GMT 53.219513 -2.044006 10,000 232 278 0
2019-07-14 13:30:38 GMT 53.222523 -2.037802 10,000 232 280 64
2019-07-14 13:30:35 GMT 53.224525 -2.033602 10,000 232 280 0
2019-07-14 13:30:32 GMT 53.227737 -2.026816 10,000 232 281 -64
2019-07-14 13:30:29 GMT 53.229736 -2.022696 10,000 232 281 -64
2019-07-14 13:30:26 GMT 53.231693 -2.018657 10,000 232 281 -64
2019-07-14 13:30:23 GMT 53.234116 -2.013559 10,000 232 281 0
2019-07-14 13:30:20 GMT 53.237930 -2.005651 10,000 232 283 64
2019-07-14 13:30:17 GMT 53.239838 -2.001693 10,000 232 283 -64
2019-07-14 13:30:13 GMT 53.242035 -1.997158 10,000 232 283 0
2019-07-14 13:30:09 GMT 53.245796 -1.989252 10,000 232 284 0
2019-07-14 13:30:05 GMT 53.252197 -1.975970 10,000 232 283 0
2019-07-14 13:30:02 GMT 53.252197 -1.975970 10,000 232 284 0
2019-07-14 13:29:59 GMT 53.254642 -1.970834 10,000 232 284 0
2019-07-14 13:29:56 GMT 53.257141 -1.965690 10,000 232 284 64
2019-07-14 13:29:53 GMT 53.259430 -1.960903 10,000 232 285 0
2019-07-14 13:29:50 GMT 53.261532 -1.956455 10,000 232 284 0
2019-07-14 13:29:47 GMT 53.263733 -1.951878 10,000 232 285 -64
2019-07-14 13:29:44 GMT 53.266617 -1.945914 10,000 232 284 -64
2019-07-14 13:29:41 GMT 53.271606 -1.935477 10,000 232 285 -64
2019-07-14 13:29:35 GMT 53.274170 -1.930141 10,000 232 283 64
2019-07-14 13:29:31 GMT 53.280945 -1.915983 10,000 232 283 0
2019-07-14 13:29:27 GMT 53.280945 -1.915983 10,000 232 283 0
2019-07-14 13:29:23 GMT 53.284576 -1.908471 10,000 232 283 -64
2019-07-14 13:29:20 GMT 53.288158 -1.900958 10,000 232 281 -64
2019-07-14 13:29:13 GMT 53.291565 -1.893808 10,000 232 281 -64
2019-07-14 13:29:10 GMT 53.297192 -1.882055 10,000 232 281 64
2019-07-14 13:29:04 GMT 53.301708 -1.872523 10,000 232 279 -64
2019-07-14 13:29:01 GMT 53.304108 -1.867440 10,000 233 278 -64
2019-07-14 13:28:58 GMT 53.304108 -1.867440 10,000 233 278 -64
2019-07-14 13:28:54 GMT 53.307312 -1.860535 10,000 233 278 -64
2019-07-14 13:28:51 GMT 53.309250 -1.856286 10,000 234 276 -64
2019-07-14 13:28:48 GMT 53.311615 -1.850961 10,000 235 276 64
2019-07-14 13:28:45 GMT 53.314323 -1.844330 10,000 238 276 128
2019-07-14 13:28:39 GMT 53.317768 -1.833909 10,000 246 275 -64
2019-07-14 13:28:34 GMT 53.320282 -1.823488 10,000 251 275 0
2019-07-14 13:28:31 GMT 53.321732 -1.816589 10,000 251 275 -64
2019-07-14 13:28:27 GMT 53.324890 -1.801365 10,000 251 274 0
2019-07-14 13:28:23 GMT 53.324890 -1.801365 10,000 251 274 64
2019-07-14 13:28:20 GMT 53.327271 -1.790144 10,000 251 274 64
2019-07-14 13:28:17 GMT 53.327271 -1.790144 10,000 251 274 64
2019-07-14 13:28:14 GMT 53.329971 -1.777352 10,000 251 275 64
2019-07-14 13:28:11 GMT 53.329971 -1.777352 10,000 251 275 64
2019-07-14 13:28:07 GMT 53.333130 -1.762498 10,000 251 279 -64
2019-07-14 13:28:03 GMT 53.333130 -1.762498 10,000 251 278 -64
2019-07-14 13:28:00 GMT 53.334480 -1.756035 10,000 251 279 -64
2019-07-14 13:27:57 GMT 53.335876 -1.749492 10,000 251 281 0
2019-07-14 13:27:54 GMT 53.337227 -1.743029 10,000 251 283 0
2019-07-14 13:27:51 GMT 53.339584 -1.731602 10,000 251 288 64
2019-07-14 13:27:48 GMT 53.339584 -1.731602 10,000 251 288 -64
2019-07-14 13:27:45 GMT 53.340958 -1.725089 10,000 251 288 -64
2019-07-14 13:27:41 GMT 53.342972 -1.715672 10,000 251 288 -64
2019-07-14 13:27:37 GMT 53.344814 -1.706839 10,000 251 288 64
2019-07-14 13:27:31 GMT 53.347046 -1.696289 10,000 251 288 0
2019-07-14 13:27:28 GMT 53.348911 -1.687532 10,000 251 288 -64
2019-07-14 13:27:25 GMT 53.349701 -1.683733 10,000 251 288 0
2019-07-14 13:27:22 GMT 53.351517 -1.675092 10,000 251 286 0
2019-07-14 13:27:19 GMT 53.352589 -1.669922 10,000 251 285 64
2019-07-14 13:27:16 GMT 53.353867 -1.663644 10,000 251 282 -64
2019-07-14 13:27:13 GMT 53.355103 -1.657724 10,000 251 282 -64
2019-07-14 13:27:10 GMT 53.356174 -1.652554 10,000 251 282 -64
2019-07-14 13:27:07 GMT 53.357483 -1.646380 10,000 251 281 -64
2019-07-14 13:27:04 GMT 53.358967 -1.639467 10,000 251 280 64
2019-07-14 13:27:01 GMT 53.360413 -1.632490 10,000 251 280 64
2019-07-14 13:26:58 GMT 53.361053 -1.629351 10,000 251 280 64
2019-07-14 13:26:55 GMT 53.362839 -1.621033 10,000 251 280 -64
2019-07-14 13:26:52 GMT 53.364349 -1.613656 10,000 251 280 0
2019-07-14 13:26:49 GMT 53.365219 -1.609576 10,000 251 280 0
2019-07-14 13:26:46 GMT 53.366695 -1.602631 10,000 251 279 0
2019-07-14 13:26:43 GMT 53.367966 -1.596470 10,000 251 279 0
2019-07-14 13:26:39 GMT 53.369659 -1.588309 10,000 251 279 64
2019-07-14 13:26:36 GMT 53.371071 -1.581385 10,000 252 277 0
2019-07-14 13:26:33 GMT 53.372498 -1.574655 10,000 252 277 0
2019-07-14 13:26:30 GMT 53.373322 -1.570417 10,000 252 277 0
2019-07-14 13:26:27 GMT 53.374466 -1.564924 10,000 252 277 -64
2019-07-14 13:26:24 GMT 53.376003 -1.556989 10,000 254 275 -128
2019-07-14 13:26:20 GMT 53.377258 -1.550092 10,000 255 275 -128
2019-07-14 13:26:17 GMT 53.378147 -1.544710 10,000 259 274 0
2019-07-14 13:26:14 GMT 53.379078 -1.538086 10,000 285 273 0
2019-07-14 13:26:11 GMT 53.379635 -1.529765 10,000 275 272 64
2019-07-14 13:26:08 GMT 53.379635 -1.522010 10,000 276 273 0
2019-07-14 13:26:03 GMT 53.379044 -1.514858 10,000 285 273 64
2019-07-14 13:26:00 GMT 53.377945 -1.506696 10,000 285 273 64
2019-07-14 13:25:57 GMT 53.377121 -1.501596 10,000 286 273 -64
2019-07-14 13:25:53 GMT 53.375977 -1.494376 10,000 285 274 0
2019-07-14 13:25:50 GMT 53.375198 -1.489432 10,000 285 275 64
2019-07-14 13:25:47 GMT 53.372746 -1.474268 10,000 285 276 64
2019-07-14 13:25:43 GMT 53.372746 -1.474268 10,000 285 276 0
2019-07-14 13:25:40 GMT 53.371490 -1.466204 10,000 285 276 -64
2019-07-14 13:25:37 GMT 53.370163 -1.457964 10,000 285 276 -128
2019-07-14 13:25:33 GMT 53.368469 -1.447213 10,000 285 277 -64
2019-07-14 13:25:30 GMT 53.368469 -1.447213 10,000 285 277 0
2019-07-14 13:25:27 GMT 53.367142 -1.438974 10,000 285 276 64
2019-07-14 13:25:24 GMT 53.366226 -1.433167 10,000 285 276 64
2019-07-14 13:25:21 GMT 53.365250 -1.426930 10,000 285 276 64
2019-07-14 13:25:17 GMT 53.364086 -1.419498 10,000 285 276 0
2019-07-14 13:25:14 GMT 53.363014 -1.412874 10,000 285 276 -64
2019-07-14 13:25:11 GMT 53.362225 -1.407785 10,000 285 275 -64
2019-07-14 13:25:08 GMT 53.361008 -1.400129 10,000 285 275 0
2019-07-14 13:25:04 GMT 53.359680 -1.391732 10,000 285 275 0
2019-07-14 13:25:01 GMT 53.358902 -1.386789 10,000 285 274 0
2019-07-14 13:24:58 GMT 53.358036 -1.381450 10,000 285 274 64
2019-07-14 13:24:55 GMT 53.357162 -1.376116 10,000 285 274 128
2019-07-14 13:24:52 GMT 53.355942 -1.368444 10,000 285 274 64
2019-07-14 13:24:49 GMT 53.355148 -1.363597 10,000 285 274 -64
2019-07-14 13:24:46 GMT 53.353729 -1.354850 10,000 285 274 0
2019-07-14 13:24:43 GMT 53.352585 -1.347630 10,000 285 274 0
2019-07-14 13:24:39 GMT 53.351845 -1.342917 10,000 285 274 0
2019-07-14 13:24:36 GMT 53.350773 -1.336374 10,000 285 274 0
2019-07-14 13:24:33 GMT 53.349701 -1.329581 10,000 285 274 0
2019-07-14 13:24:30 GMT 53.348820 -1.324176 10,000 285 274 64
2019-07-14 13:24:27 GMT 53.347824 -1.318045 10,000 285 275 64
2019-07-14 13:24:24 GMT 53.346542 -1.309806 10,000 285 275 64
2019-07-14 13:24:21 GMT 53.345421 -1.302849 10,000 270 304 128
2019-07-14 13:24:17 GMT 53.344536 -1.297114 10,000 285 275 -64
2019-07-14 13:24:14 GMT 53.343372 -1.289682 10,000 285 276 64
2019-07-14 13:24:11 GMT 53.342442 -1.283946 10,000 285 277 -64
2019-07-14 13:24:05 GMT 53.340343 -1.270698 10,000 286 277 64
2019-07-14 13:24:02 GMT 53.339413 -1.264882 10,000 286 277 0
2019-07-14 13:23:58 GMT 53.338062 -1.256642 10,000 286 277 64
2019-07-14 13:23:55 GMT 53.337273 -1.251634 10,000 286 277 64
2019-07-14 13:23:52 GMT 53.336288 -1.245457 10,000 285 278 0
2019-07-14 13:23:49 GMT 53.335464 -1.240513 10,000 285 278 -64
2019-07-14 13:23:45 GMT 53.334000 -1.231332 10,000 285 279 -64
2019-07-14 13:23:40 GMT 53.331894 -1.217991 10,000 285 279 0
2019-07-14 13:23:34 GMT 53.330292 -1.208025 10,000 285 279 0
2019-07-14 13:23:31 GMT 53.329102 -1.200492 10,000 285 280 0
2019-07-14 13:23:28 GMT 53.328278 -1.195469 10,000 285 280 -64
2019-07-14 13:23:25 GMT 53.326893 -1.186766 10,000 285 280 0
2019-07-14 13:23:22 GMT 53.326382 -1.183535 10,000 285 280 64
2019-07-14 13:23:19 GMT 53.325031 -1.174891 10,000 285 280 64
2019-07-14 13:23:15 GMT 53.323959 -1.168186 10,000 285 279 0
2019-07-14 13:23:12 GMT 53.322968 -1.161961 10,000 285 279 0
2019-07-14 13:23:09 GMT 53.320908 -1.148699 10,000 285 278 0
2019-07-14 13:23:06 GMT 53.320908 -1.148699 10,000 285 277 -64
2019-07-14 13:23:02 GMT 53.319630 -1.140639 10,000 285 277 -64
2019-07-14 13:22:59 GMT 53.318699 -1.134742 10,000 285 277 -64
2019-07-14 13:22:56 GMT 53.317749 -1.128688 10,000 285 276 -64
2019-07-14 13:22:53 GMT 53.316883 -1.123271 10,000 285 276 64
2019-07-14 13:22:50 GMT 53.314926 -1.110992 10,000 285 276 64
2019-07-14 13:22:44 GMT 53.313995 -1.105095 10,000 285 278 -64
2019-07-14 13:22:41 GMT 53.312973 -1.098552 10,000 285 278 -64
2019-07-14 13:22:38 GMT 53.311951 -1.091766 10,000 285 278 -64
2019-07-14 13:22:34 GMT 53.310646 -1.083446 10,000 270 304 128
2019-07-14 13:22:31 GMT 53.309555 -1.076268 10,000 283 283 0
2019-07-14 13:22:28 GMT 53.308643 -1.070198 10,000 283 283 0
2019-07-14 13:22:25 GMT 53.307854 -1.064866 10,000 284 282 -64
2019-07-14 13:22:22 GMT 53.306717 -1.056806 10,000 279 286 128
2019-07-14 13:22:19 GMT 53.305756 -1.049116 10,000 281 284 128
2019-07-14 13:22:16 GMT 53.305199 -1.043459 10,000 278 287 64
2019-07-14 13:22:09 GMT 53.304474 -1.029890 10,000 270 294 0
2019-07-14 13:22:06 GMT 53.304428 -1.023533 10,000 270 293 0
2019-07-14 13:22:03 GMT 53.304455 -1.016558 10,000 270 294 0
2019-07-14 13:22:00 GMT 53.304428 -1.006740 10,000 270 297 0
2019-07-14 13:21:57 GMT 53.304428 -1.000227 10,000 270 302 -128
2019-07-14 13:21:54 GMT 53.304405 -0.995071 10,000 270 304 -64
2019-07-14 13:21:51 GMT 53.304428 -0.988063 10,000 270 304 -64
2019-07-14 13:21:48 GMT 53.304405 -0.981984 10,000 270 304 128
2019-07-14 13:21:44 GMT 53.304428 -0.969308 10,000 270 304 64
2019-07-14 13:21:41 GMT 53.304405 -0.963242 10,000 270 303 64
2019-07-14 13:21:38 GMT 53.304405 -0.957588 10,000 270 302 64
2019-07-14 13:21:35 GMT 53.304382 -0.950553 10,000 270 303 64
2019-07-14 13:21:32 GMT 53.304405 -0.944420 10,000 270 304 -64
2019-07-14 13:21:29 GMT 53.304382 -0.937526 10,000 270 303 64
2019-07-14 13:21:26 GMT 53.304405 -0.928506 10,000 270 303 64
2019-07-14 13:21:23 GMT 53.304428 -0.914062 10,000 270 303 64
2019-07-14 13:21:20 GMT 53.304428 -0.914062 10,000 270 303 64
2019-07-14 13:21:17 GMT 53.304405 -0.906938 10,000 270 302 0
2019-07-14 13:21:13 GMT 53.304455 -0.900475 10,000 270 302 0
2019-07-14 13:21:10 GMT 53.304474 -0.894366 10,000 269 302 -64
2019-07-14 13:21:07 GMT 53.304520 -0.885027 10,000 256 302 -64
2019-07-14 13:21:04 GMT 53.304611 -0.878514 10,000 269 302 -64
2019-07-14 13:21:00 GMT 53.304840 -0.869411 10,000 266 301 64
2019-07-14 13:20:57 GMT 53.305244 -0.860569 10,000 264 302 64
2019-07-14 13:20:54 GMT 53.305664 -0.854672 10,000 262 302 64
2019-07-14 13:20:51 GMT 53.306305 -0.848694 10,000 260 302 64
2019-07-14 13:20:48 GMT 53.307037 -0.843044 10,000 256 302 -64
2019-07-14 13:20:45 GMT 53.308037 -0.836253 10,000 256 302 -64
2019-07-14 13:20:42 GMT 53.309574 -0.826398 10,000 256 301 0
2019-07-14 13:20:39 GMT 53.310471 -0.820600 10,000 256 301 0
2019-07-14 13:20:36 GMT 53.311386 -0.814950 10,000 256 301 0
2019-07-14 13:20:33 GMT 53.312740 -0.806445 10,000 256 301 64
2019-07-14 13:20:27 GMT 53.314556 -0.794812 10,000 256 300 64
2019-07-14 13:20:24 GMT 53.315781 -0.787170 10,000 256 300 0
2019-07-14 13:20:20 GMT 53.317070 -0.778818 10,000 256 300 -64
2019-07-14 13:20:17 GMT 53.318420 -0.770497 10,000 256 299 -64
2019-07-14 13:20:11 GMT 53.320175 -0.759312 10,000 256 298 0
2019-07-14 13:20:07 GMT 53.321777 -0.749425 10,000 256 298 0
2019-07-14 13:20:04 GMT 53.323196 -0.740479 10,000 255 297 -64
2019-07-14 13:20:01 GMT 53.323792 -0.736947 10,000 255 297 0
2019-07-14 13:19:54 GMT 53.326286 -0.721382 10,000 255 297 -64
2019-07-14 13:19:51 GMT 53.327682 -0.712496 10,000 255 297 -64
2019-07-14 13:19:48 GMT 53.328323 -0.708461 10,000 256 298 64
2019-07-14 13:19:44 GMT 53.329964 -0.698278 10,000 255 297 128
2019-07-14 13:19:40 GMT 53.331482 -0.689000 10,000 256 298 64
2019-07-14 13:19:37 GMT 53.332031 -0.685390 10,000 256 300 64
2019-07-14 13:19:34 GMT 53.333691 -0.675174 10,000 256 299 -64
2019-07-14 13:19:30 GMT 53.334946 -0.667177 10,000 256 299 0
2019-07-14 13:19:27 GMT 53.335831 -0.661765 10,000 256 299 64
2019-07-14 13:19:23 GMT 53.337227 -0.652879 10,000 256 300 0
2019-07-14 13:19:19 GMT 53.338810 -0.643023 10,000 256 301 -64
2019-07-14 13:19:16 GMT 53.340820 -0.629987 10,000 256 300 64
2019-07-14 13:19:13 GMT 53.340820 -0.629987 10,000 256 301 64
2019-07-14 13:19:10 GMT 53.341827 -0.623710 10,000 256 301 64
2019-07-14 13:19:07 GMT 53.342857 -0.616931 10,000 256 304 -64
2019-07-14 13:19:03 GMT 53.344666 -0.605582 10,000 256 304 -64
2019-07-14 13:19:00 GMT 53.345558 -0.599805 10,000 256 309 0
2019-07-14 13:18:57 GMT 53.348122 -0.583164 10,000 256 309 0
2019-07-14 13:18:53 GMT 53.348122 -0.583164 10,000 256 309 0
2019-07-14 13:18:50 GMT 53.349422 -0.575005 10,000 256 309 0
2019-07-14 13:18:47 GMT 53.350067 -0.570661 10,000 256 309 0
2019-07-14 13:18:43 GMT 53.351612 -0.560787 10,000 256 310 0
2019-07-14 13:18:40 GMT 53.352634 -0.554244 10,000 256 311 0
2019-07-14 13:18:37 GMT 53.355606 -0.534877 10,000 256 315 64
2019-07-14 13:18:32 GMT 53.355606 -0.534877 10,000 256 315 64
2019-07-14 13:18:29 GMT 53.358810 -0.514082 10,000 256 316 -64
2019-07-14 13:18:23 GMT 53.358810 -0.514082 10,000 256 317 64
2019-07-14 13:18:20 GMT 53.359863 -0.507490 10,000 256 317 64
2019-07-14 13:18:13 GMT 53.363525 -0.483791 10,000 256 317 0
2019-07-14 13:18:07 GMT 53.364395 -0.478062 10,000 256 317 -64
2019-07-14 13:18:03 GMT 53.366230 -0.466192 10,000 256 317 -64
2019-07-14 13:18:00 GMT 53.367462 -0.458130 10,000 256 317 -64
2019-07-14 13:17:57 GMT 53.368511 -0.451086 10,000 256 316 0
2019-07-14 13:17:53 GMT 53.369751 -0.443063 10,000 256 315 64
2019-07-14 13:17:49 GMT 53.371258 -0.432991 10,000 256 314 64
2019-07-14 13:17:44 GMT 53.372978 -0.421600 10,000 256 315 -64
2019-07-14 13:17:41 GMT 53.374142 -0.414007 10,000 256 315 0
2019-07-14 13:17:38 GMT 53.375027 -0.408352 10,000 256 314 64
2019-07-14 13:17:34 GMT 53.376797 -0.396235 10,000 257 315 0
2019-07-14 13:17:30 GMT 53.378128 -0.387111 10,000 257 315 0
2019-07-14 13:17:27 GMT 53.378952 -0.381383 10,000 257 314 0
2019-07-14 13:17:24 GMT 53.379822 -0.375732 10,000 256 313 0
2019-07-14 13:17:21 GMT 53.382477 -0.357840 10,000 256 314 64
2019-07-14 13:17:17 GMT 53.382477 -0.357840 10,000 256 313 64
2019-07-14 13:17:14 GMT 53.383575 -0.350542 10,000 257 310 0
2019-07-14 13:17:10 GMT 53.384941 -0.341384 10,000 257 312 0
2019-07-14 13:17:07 GMT 53.385956 -0.334377 10,000 257 311 -64
2019-07-14 13:17:03 GMT 53.387329 -0.325038 10,000 257 309 64
2019-07-14 13:17:00 GMT 53.388618 -0.316180 10,000 257 309 64
2019-07-14 13:16:56 GMT 53.389549 -0.309718 10,000 257 311 -64
2019-07-14 13:16:53 GMT 53.390949 -0.300347 10,000 257 311 64
2019-07-14 13:16:50 GMT 53.391998 -0.293413 10,000 257 311 -64
2019-07-14 13:16:46 GMT 53.393372 -0.284075 10,000 257 310 64
2019-07-14 13:16:41 GMT 53.394882 -0.273795 10,000 257 311 64
2019-07-14 13:16:38 GMT 53.395649 -0.268600 10,000 257 311 64
2019-07-14 13:16:35 GMT 53.396667 -0.261632 10,000 256 311 -64
2019-07-14 13:16:31 GMT 53.399933 -0.239599 10,000 256 310 -64
2019-07-14 13:16:27 GMT 53.399933 -0.239599 10,000 257 311 0
2019-07-14 13:16:24 GMT 53.400833 -0.233459 10,000 257 311 -64
2019-07-14 13:16:21 GMT 53.401794 -0.227320 10,000 256 311 -64
2019-07-14 13:16:17 GMT 53.403214 -0.217529 10,000 256 311 0
2019-07-14 13:16:13 GMT 53.404770 -0.207171 10,000 256 311 64
2019-07-14 13:16:10 GMT 53.405502 -0.202462 10,000 256 311 0
2019-07-14 13:16:07 GMT 53.406601 -0.195164 10,000 256 311 -64
2019-07-14 13:16:04 GMT 53.407661 -0.187979 10,000 256 311 0
2019-07-14 13:16:01 GMT 53.408497 -0.182405 10,000 283 305 -320
2019-07-14 13:15:58 GMT 53.410950 -0.166051 10,000 256 311 64
2019-07-14 13:15:55 GMT 53.410950 -0.166051 10,000 256 310 0
2019-07-14 13:15:52 GMT 53.412186 -0.157732 10,000 256 310 0
2019-07-14 13:15:49 GMT 53.412735 -0.153966 10,000 256 309 -64
2019-07-14 13:15:46 GMT 53.414017 -0.145647 10,000 256 309 0
2019-07-14 13:15:43 GMT 53.414841 -0.140233 10,000 256 310 64
2019-07-14 13:15:39 GMT 53.416737 -0.127635 10,000 257 310 64
2019-07-14 13:15:36 GMT 53.418503 -0.115827 10,000 256 310 0
2019-07-14 13:15:29 GMT 53.420059 -0.105547 10,000 256 310 64
2019-07-14 13:15:26 GMT 53.421253 -0.097584 10,000 256 310 0
2019-07-14 13:15:23 GMT 53.422371 -0.090153 10,000 281 310 -512
2019-07-14 13:15:19 GMT 53.424683 -0.075021 10,000 256 310 0
2019-07-14 13:15:16 GMT 53.424683 -0.075021 10,000 256 310 0
2019-07-14 13:15:10 GMT 53.426655 -0.062202 10,000 256 311 64
2019-07-14 13:15:07 GMT 53.427887 -0.054304 9,850 257 312 256
2019-07-14 13:15:04 GMT 53.429073 -0.046369 10,000 256 311 -64
2019-07-14 13:15:00 GMT 53.430313 -0.038374 10,000 256 311 -64
2019-07-14 13:14:56 GMT 53.431774 -0.028516 10,000 256 312 128
2019-07-14 13:14:53 GMT 53.433105 -0.019618 10,000 285 287 64
2019-07-14 13:14:49 GMT 53.434055 -0.012521 10,025 261 312 -704
2019-07-14 13:14:44 GMT 53.435360 -0.001131 10,025 262 311 -704
2019-07-14 13:14:38 GMT 53.436058 0.012925 10,000 270 307 1344
2019-07-14 13:14:34 GMT 53.435825 0.024638 9,875 276 309 1472
2019-07-14 13:14:29 GMT 53.435165 0.034685 9,800 280 311 64
2019-07-14 13:14:26 GMT 53.434433 0.042219 9,775 281 310 -512
2019-07-14 13:14:23 GMT 53.433357 0.052427 9,800 282 308 -448
2019-07-14 13:14:19 GMT 53.431541 0.067372 9,850 289 296 -576
2019-07-14 13:14:16 GMT 53.431541 0.067372 9,825 283 305 -256
2019-07-14 13:14:12 GMT 53.430283 0.076500 9,850 284 303 -128
2019-07-14 13:14:09 GMT 53.429672 0.080593 9,850 287 300 -256
2019-07-14 13:14:06 GMT 53.428375 0.088214 9,850 287 299 -384
2019-07-14 13:14:03 GMT 53.426605 0.097464 9,900 289 295 -576
2019-07-14 13:14:00 GMT 53.424179 0.109549 9,925 289 293 -576
2019-07-14 13:13:57 GMT 53.424179 0.109549 10,000 285 287 -128
2019-07-14 13:13:51 GMT 53.421432 0.123204 9,850 289 289 -448
2019-07-14 13:13:48 GMT 53.420563 0.127520 10,025 288 285 64
2019-07-14 13:13:44 GMT 53.419159 0.134744 10,000 288 286 -256
2019-07-14 13:13:40 GMT 53.417358 0.144313 9,925 288 285 -64
2019-07-14 13:13:36 GMT 53.415756 0.152945 10,025 287 285 384
2019-07-14 13:13:33 GMT 53.414597 0.159221 9,975 287 285 832
2019-07-14 13:13:26 GMT 53.412270 0.172550 9,925 287 286 832
2019-07-14 13:13:22 GMT 53.410583 0.182687 9,850 286 289 128
2019-07-14 13:13:18 GMT 53.409149 0.191534 9,875 286 288 -320
2019-07-14 13:13:15 GMT 53.408173 0.197754 9,875 285 288 -128
2019-07-14 13:13:12 GMT 53.405869 0.212821 9,875 285 287 64
2019-07-14 13:13:08 GMT 53.405228 0.217137 9,875 285 287 64
2019-07-14 13:13:05 GMT 53.405228 0.217137 9,875 285 287 64
2019-07-14 13:13:02 GMT 53.404129 0.223964 9,875 285 287 64
2019-07-14 13:12:59 GMT 53.403099 0.230471 9,925 285 288 -256
2019-07-14 13:12:53 GMT 53.400604 0.246408 9,925 285 289 -192
2019-07-14 13:12:47 GMT 53.399002 0.256845 9,800 285 297 768
2019-07-14 13:12:44 GMT 53.397583 0.265712 9,775 285 299 512
2019-07-14 13:12:41 GMT 53.396896 0.270185 9,750 285 305 512
2019-07-14 13:12:37 GMT 53.395523 0.279210 9,750 285 307 704
2019-07-14 13:12:33 GMT 53.394253 0.287906 9,700 283 372 -5632
2019-07-14 13:12:30 GMT 53.392914 0.296552 9,700 285 312 64
2019-07-14 13:12:27 GMT 53.390533 0.312012 9,800 285 324 -1216
2019-07-14 13:12:24 GMT 53.390533 0.312012 9,850 284 327 -1024
2019-07-14 13:12:21 GMT 53.389599 0.318361 9,850 284 333 -960
2019-07-14 13:12:18 GMT 53.388714 0.324339 10,050 284 337 -1152
2019-07-14 13:12:13 GMT 53.386665 0.338637 10,000 284 346 -1280
2019-07-14 13:12:10 GMT 53.385727 0.345128 11,150 284 355 -1024
2019-07-14 13:12:06 GMT 53.384338 0.355440 10,100 283 365 -2496
2019-07-14 13:12:01 GMT 53.382195 0.371031 10,350 283 369 -3776
2019-07-14 13:11:55 GMT 53.380188 0.386091 17,225 286 382 -5952
2019-07-14 13:11:50 GMT 53.378265 0.400452 11,500 286 381 -5952
2019-07-14 13:11:47 GMT 53.376663 0.411752 12,500 285 378 -4672
2019-07-14 13:11:44 GMT 53.375793 0.417480 11,775 285 379 -4608
2019-07-14 13:11:41 GMT 53.374653 0.425074 11,975 285 380 -4928
2019-07-14 13:11:38 GMT 53.373138 0.434588 12,275 286 381 -5952
2019-07-14 13:11:31 GMT 53.369888 0.454206 12,950 286 381 -6016
2019-07-14 13:11:27 GMT 53.367207 0.469585 13,700 287 381 -6080
2019-07-14 13:11:24 GMT 53.366413 0.473947 17,225 286 411 -4864
2019-07-14 13:11:21 GMT 53.364441 0.484811 14,000 287 386 -5120
2019-07-14 13:11:18 GMT 53.361668 0.500363 15,000 285 439 -6336
2019-07-14 13:11:11 GMT 53.359524 0.512076 14,825 289 397 -5440
2019-07-14 13:11:08 GMT 53.357990 0.520154 15,025 288 394 -4928
2019-07-14 13:11:05 GMT 53.356174 0.529444 15,225 289 397 -5440
2019-07-14 13:11:01 GMT 53.353821 0.541391 17,150 288 400 -5696
2019-07-14 13:10:58 GMT 53.351944 0.551043 16,175 288 402 -5632
2019-07-14 13:10:55 GMT 53.350494 0.558687 16,275 288 400 -5440
2019-07-14 13:10:52 GMT 53.348602 0.568778 16,950 287 404 -6080
2019-07-14 13:10:48 GMT 53.346539 0.580094 17,050 287 403 -6080
2019-07-14 13:10:45 GMT 53.344940 0.589024 18,775 287 418 -5440
2019-07-14 13:10:41 GMT 53.342720 0.601663 17,600 286 408 -5376
2019-07-14 13:10:38 GMT 53.341415 0.609584 17,800 286 410 -5056
2019-07-14 13:10:35 GMT 53.339413 0.621131 18,125 287 413 -4800
2019-07-14 13:10:32 GMT 53.337616 0.631557 19,050 287 416 -4928
2019-07-14 13:10:26 GMT 53.334805 0.647062 18,825 287 419 -5696
2019-07-14 13:10:23 GMT 53.333176 0.656041 20,575 286 421 -6528
2019-07-14 13:10:18 GMT 53.330616 0.670651 21,675 286 421 -6720
2019-07-14 13:10:14 GMT 53.328476 0.683172 20,750 286 428 -5440
2019-07-14 13:10:11 GMT 53.326145 0.696986 20,525 286 428 -5440
2019-07-14 13:10:08 GMT 53.325356 0.701832 20,675 286 431 -5760
2019-07-14 13:10:05 GMT 53.321770 0.723724 21,425 285 432 -6080
2019-07-14 13:10:01 GMT 53.321770 0.723724 21,325 285 432 -6144
2019-07-14 13:09:58 GMT 53.319946 0.734907 22,000 285 433 -6144
2019-07-14 13:09:54 GMT 53.318001 0.747313 21,950 285 435 -6016
2019-07-14 13:09:50 GMT 53.315781 0.761117 22,200 285 437 -5952
2019-07-14 13:09:47 GMT 53.314178 0.771633 22,900 285 441 -6656
2019-07-14 13:09:43 GMT 53.312275 0.784068 23,100 285 441 -6656
2019-07-14 13:09:40 GMT 53.310505 0.795863 24,225 284 443 -6592
2019-07-14 13:09:37 GMT 53.309341 0.803941 24,075 284 445 -6336
2019-07-14 13:09:34 GMT 53.308090 0.812674 24,125 284 448 -5632
2019-07-14 13:09:31 GMT 53.306129 0.826802 25,525 284 458 -4608
2019-07-14 13:09:26 GMT 53.304245 0.839983 24,725 284 458 -4608
2019-07-14 13:09:22 GMT 53.302231 0.853559 25,075 285 463 -4608
2019-07-14 13:09:19 GMT 53.300720 0.863133 25,525 286 478 -3520
2019-07-14 13:09:15 GMT 53.298309 0.877695 25,525 286 472 -4032
2019-07-14 13:09:12 GMT 53.296188 0.890050 25,775 286 478 -3520
2019-07-14 13:09:05 GMT 53.291611 0.917123 26,275 286 481 -5056
2019-07-14 13:09:02 GMT 53.288269 0.936663 26,800 286 476 -6208
2019-07-14 13:08:59 GMT 53.288269 0.936663 26,850 286 471 -6848
2019-07-14 13:08:55 GMT 53.285507 0.952822 27,150 286 471 -6848
2019-07-14 13:08:52 GMT 53.283833 0.962515 27,825 286 461 -7232
2019-07-14 13:08:46 GMT 53.278839 0.991830 28,500 286 450 -5696
2019-07-14 13:08:39 GMT 53.277081 1.002099 29,125 286 451 -1344
2019-07-14 13:08:36 GMT 53.274567 1.016720 29,425 286 446 -3328
2019-07-14 13:08:33 GMT 53.273495 1.023263 29,500 286 446 -3840
2019-07-14 13:08:30 GMT 53.271790 1.033264 29,975 286 446 -2880
2019-07-14 13:08:27 GMT 53.269318 1.047939 29,900 286 447 -2560
2019-07-14 13:08:23 GMT 53.268097 1.055334 30,125 286 450 -1600
2019-07-14 13:08:20 GMT 53.266094 1.067289 30,100 286 453 -1152
2019-07-14 13:08:17 GMT 53.264511 1.076660 30,550 286 470 -3456
2019-07-14 13:08:14 GMT 53.262817 1.086862 30,175 286 457 -960
2019-07-14 13:08:10 GMT 53.260601 1.099925 30,225 286 461 -1024
2019-07-14 13:08:06 GMT 53.258011 1.115426 31,025 286 465 -1344
2019-07-14 13:08:03 GMT 53.256546 1.124058 30,400 286 467 -1664
2019-07-14 13:08:00 GMT 53.254784 1.134419 31,725 286 468 -2176
2019-07-14 13:07:56 GMT 53.251942 1.151141 30,700 286 470 -2944
2019-07-14 13:07:53 GMT 53.250778 1.158088 30,750 286 470 -3264
2019-07-14 13:07:50 GMT 53.249222 1.167140 31,275 286 470 -3456
2019-07-14 13:07:47 GMT 53.247116 1.179696 31,550 286 470 -3456
2019-07-14 13:07:44 GMT 53.245331 1.190159 32,600 286 470 -3392
2019-07-14 13:07:41 GMT 53.242958 1.204053 31,575 286 470 -3264
2019-07-14 13:07:38 GMT 53.242073 1.209304 31,650 286 469 -3072
2019-07-14 13:07:35 GMT 53.240250 1.220032 31,775 286 469 -3072
2019-07-14 13:07:32 GMT 53.238209 1.231923 32,100 286 464 -2432
2019-07-14 13:07:29 GMT 53.236347 1.242909 32,125 286 466 -2816
2019-07-14 13:07:25 GMT 53.233887 1.257464 32,400 286 465 -2496
2019-07-14 13:07:22 GMT 53.232239 1.267116 32,400 286 464 -2432
2019-07-14 13:07:19 GMT 53.228436 1.289439 33,150 286 464 -2432
2019-07-14 13:07:15 GMT 53.228436 1.289439 32,775 286 463 -2432
2019-07-14 13:07:12 GMT 53.226246 1.302203 33,150 286 449 -1152
2019-07-14 13:07:09 GMT 53.224731 1.311061 33,200 286 461 -1920
2019-07-14 13:07:06 GMT 53.222488 1.324480 33,525 286 461 -1920
2019-07-14 13:07:03 GMT 53.221298 1.331621 33,275 286 459 -1984
2019-07-14 13:07:00 GMT 53.219650 1.341274 33,725 286 459 -1984
2019-07-14 13:06:53 GMT 53.215485 1.365914 33,550 286 455 -1920
2019-07-14 13:06:50 GMT 53.213196 1.379255 33,725 286 454 -1920
2019-07-14 13:06:47 GMT 53.210140 1.397606 34,000 282 460 -64
2019-07-14 13:06:44 GMT 53.210140 1.397606 33,800 286 451 -1984
2019-07-14 13:06:39 GMT 53.207020 1.416348 33,975 286 449 -896
2019-07-14 13:06:35 GMT 53.204727 1.430498 34,000 282 460 -64
2019-07-14 13:06:32 GMT 53.203903 1.435521 34,000 285 449 0
2019-07-14 13:06:29 GMT 53.201572 1.449872 34,000 285 450 64
2019-07-14 13:06:26 GMT 53.200012 1.459848 34,000 285 452 -64
2019-07-14 13:06:23 GMT 53.198502 1.469343 34,000 285 452 -64
2019-07-14 13:06:16 GMT 53.195389 1.489432 34,000 282 472 -64
2019-07-14 13:06:11 GMT 53.192734 1.507010 34,000 284 455 64
2019-07-14 13:06:07 GMT 53.190765 1.520586 34,000 284 457 0
2019-07-14 13:06:04 GMT 53.188797 1.534476 34,000 294 464 -64
2019-07-14 13:06:00 GMT 53.187420 1.544791 34,000 281 463 0
2019-07-14 13:05:56 GMT 53.185684 1.557861 34,000 281 463 0
2019-07-14 13:05:53 GMT 53.184349 1.568298 34,000 281 463 0
2019-07-14 13:05:50 GMT 53.183121 1.578657 34,000 281 463 0
2019-07-14 13:05:46 GMT 53.181381 1.594116 34,000 278 471 -64
2019-07-14 13:05:43 GMT 53.180298 1.604731 34,000 278 470 64
2019-07-14 13:05:40 GMT 53.179230 1.616121 34,000 277 472 -64
2019-07-14 13:05:36 GMT 53.178062 1.630177 34,000 277 472 -64
2019-07-14 13:05:33 GMT 53.177124 1.642613 34,000 294 464 -64
2019-07-14 13:05:30 GMT 53.176620 1.649754 34,000 278 473 0
2019-07-14 13:05:23 GMT 53.173222 1.686644 34,000 281 472 -64
2019-07-14 13:05:20 GMT 53.173222 1.686644 34,000 283 471 -64
2019-07-14 13:05:14 GMT 53.170151 1.707728 34,000 295 467 -128
2019-07-14 13:05:11 GMT 53.165405 1.733093 34,000 295 464 64
2019-07-14 13:05:07 GMT 53.165405 1.733093 34,000 295 467 0
2019-07-14 13:05:04 GMT 53.162518 1.745534 34,000 292 465 64
2019-07-14 13:05:00 GMT 53.160141 1.754985 34,000 294 464 -64
2019-07-14 13:04:57 GMT 53.157898 1.763306 34,000 295 468 64
2019-07-14 13:04:54 GMT 53.154327 1.776489 34,000 295 467 -128
2019-07-14 13:04:51 GMT 53.152134 1.784713 34,000 295 467 64
2019-07-14 13:04:48 GMT 53.149853 1.793033 34,000 295 464 -64
2019-07-14 13:04:45 GMT 53.146133 1.806780 34,000 295 467 64
2019-07-14 13:04:42 GMT 53.144669 1.812116 34,000 295 467 0
2019-07-14 13:04:39 GMT 53.137329 1.838998 34,000 295 465 0
2019-07-14 13:04:32 GMT 53.135563 1.845542 34,000 295 464 -64
2019-07-14 13:04:29 GMT 53.132023 1.858547 34,000 295 462 0
2019-07-14 13:04:25 GMT 53.129509 1.867676 34,000 295 462 0
2019-07-14 13:04:22 GMT 53.126347 1.879308 34,000 295 462 0
2019-07-14 13:04:19 GMT 53.124069 1.887687 34,000 295 457 0
2019-07-14 13:04:15 GMT 53.119686 1.903785 34,000 295 437 128
2019-07-14 13:04:12 GMT 53.117020 1.913426 34,000 295 457 0
2019-07-14 13:04:08 GMT 53.114594 1.922450 34,000 295 455 64
2019-07-14 13:04:05 GMT 53.111801 1.932652 34,000 295 456 64
2019-07-14 13:04:02 GMT 53.105896 1.954311 34,000 295 452 0
2019-07-14 13:03:56 GMT 53.104156 1.960589 34,000 295 453 64
2019-07-14 13:03:52 GMT 53.100880 1.972692 34,000 295 451 -64
2019-07-14 13:03:49 GMT 53.097977 1.983425 34,000 295 451 0
2019-07-14 13:03:46 GMT 53.095715 1.991595 34,000 295 448 64
2019-07-14 13:03:42 GMT 53.092072 2.005081 34,000 295 448 64
2019-07-14 13:03:39 GMT 53.088272 2.018967 34,000 295 442 -64
2019-07-14 13:03:36 GMT 53.087101 2.023368 34,000 295 439 128
2019-07-14 13:03:32 GMT 53.083702 2.035845 34,000 295 430 -128
2019-07-14 13:03:29 GMT 53.080677 2.047067 34,000 295 444 -64
2019-07-14 13:03:26 GMT 53.078522 2.054977 34,000 295 441 0
2019-07-14 13:03:22 GMT 53.074127 2.071152 34,000 295 440 64
2019-07-14 13:03:19 GMT 53.072479 2.077179 34,000 295 436 128
2019-07-14 13:03:15 GMT 53.067921 2.093994 34,000 295 437 128
2019-07-14 13:03:12 GMT 53.066528 2.099228 34,000 295 437 128
2019-07-14 13:03:09 GMT 53.061264 2.118399 33,975 295 435 128
2019-07-14 13:03:06 GMT 53.061264 2.118399 33,975 295 434 64
2019-07-14 13:03:03 GMT 53.059216 2.125776 34,000 295 433 -256
2019-07-14 13:03:00 GMT 53.056641 2.135086 34,000 295 430 -256
2019-07-14 13:02:57 GMT 53.051010 2.155533 34,000 295 430 -128
2019-07-14 13:02:53 GMT 53.051010 2.155533 34,000 295 429 0
2019-07-14 13:02:50 GMT 53.048557 2.164542 34,000 295 428 192
2019-07-14 13:02:47 GMT 53.045151 2.177048 34,000 295 426 -64
2019-07-14 13:02:42 GMT 53.039433 2.197972 34,000 295 427 -64
2019-07-14 13:02:39 GMT 53.039433 2.197972 34,000 295 426 64
2019-07-14 13:02:36 GMT 53.037151 2.206290 34,000 295 427 -64
2019-07-14 13:02:33 GMT 53.034592 2.215628 34,000 295 429 64
2019-07-14 13:02:30 GMT 53.032589 2.223005 34,000 295 429 64
2019-07-14 13:02:27 GMT 53.026291 2.246094 34,000 295 428 0
2019-07-14 13:02:23 GMT 53.026291 2.246094 34,000 295 428 0
2019-07-14 13:02:19 GMT 53.023270 2.257004 34,000 295 428 -64
2019-07-14 13:02:16 GMT 53.020340 2.267761 34,000 295 428 -64
2019-07-14 13:02:13 GMT 53.017506 2.278015 34,000 295 428 0
2019-07-14 13:02:10 GMT 53.013474 2.292786 34,000 295 430 -64
2019-07-14 13:02:07 GMT 53.013474 2.292786 34,000 295 429 64
2019-07-14 13:02:04 GMT 53.010895 2.302028 34,000 295 429 0
2019-07-14 13:02:00 GMT 53.007545 2.314192 34,000 295 429 0
2019-07-14 13:01:57 GMT 53.005096 2.323151 34,000 296 431 64
2019-07-14 13:01:54 GMT 53.003128 2.330322 34,000 295 430 -64
2019-07-14 13:01:50 GMT 52.999352 2.344090 34,000 295 430 -64
2019-07-14 13:01:46 GMT 52.994041 2.363238 34,000 295 430 64
2019-07-14 13:01:40 GMT 52.990692 2.375244 34,000 295 429 0
2019-07-14 13:01:37 GMT 52.989017 2.381287 34,000 295 430 0
2019-07-14 13:01:34 GMT 52.985458 2.393875 34,000 296 430 0
2019-07-14 13:01:30 GMT 52.982964 2.402867 34,000 296 430 0
2019-07-14 13:01:27 GMT 52.980103 2.413025 34,000 296 430 -64
2019-07-14 13:01:24 GMT 52.977192 2.423192 34,000 296 430 0
2019-07-14 13:01:19 GMT 52.973236 2.436981 34,000 296 430 0
2019-07-14 13:01:16 GMT 52.971325 2.443673 34,000 296 430 0
2019-07-14 13:01:13 GMT 52.968430 2.453842 34,000 296 430 -64
2019-07-14 13:01:10 GMT 52.964809 2.466352 34,000 296 431 64
2019-07-14 13:01:03 GMT 52.960014 2.482989 34,000 296 431 64
2019-07-14 13:01:00 GMT 52.954521 2.501979 34,000 296 430 64
2019-07-14 13:00:54 GMT 52.951172 2.513428 34,000 296 430 0
2019-07-14 13:00:48 GMT 52.946320 2.530136 34,000 296 432 0
2019-07-14 13:00:44 GMT 52.943394 2.540274 34,000 296 432 64
2019-07-14 13:00:40 GMT 52.940186 2.551270 34,000 296 432 0
2019-07-14 13:00:37 GMT 52.936615 2.563400 34,000 296 432 0
2019-07-14 13:00:34 GMT 52.934364 2.571115 34,000 296 431 64
2019-07-14 13:00:30 GMT 52.930637 2.583906 34,000 296 431 64
2019-07-14 13:00:27 GMT 52.928497 2.591282 34,000 296 431 0
2019-07-14 13:00:23 GMT 52.925472 2.601719 34,000 296 431 0
2019-07-14 13:00:20 GMT 52.922630 2.611529 34,000 296 431 0
2019-07-14 13:00:17 GMT 52.920586 2.618670 34,000 286 428 0
2019-07-14 13:00:14 GMT 52.916767 2.631853 34,000 296 429 0
2019-07-14 13:00:08 GMT 52.912251 2.647470 34,000 294 429 -64
2019-07-14 13:00:05 GMT 52.908852 2.659398 34,000 291 432 64
2019-07-14 13:00:00 GMT 52.904984 2.673035 34,000 295 429 -64
2019-07-14 12:59:57 GMT 52.899078 2.694550 34,000 293 431 -64
2019-07-14 12:59:53 GMT 52.899078 2.694550 34,000 294 430 -64
2019-07-14 12:59:49 GMT 52.896748 2.703578 34,000 291 432 64
2019-07-14 12:59:44 GMT 52.892838 2.720686 34,000 291 433 128
2019-07-14 12:59:41 GMT 52.891254 2.728455 34,000 288 435 -64
2019-07-14 12:59:38 GMT 52.889420 2.737961 34,000 285 436 0
2019-07-14 12:59:34 GMT 52.886627 2.754669 34,000 285 436 -64
2019-07-14 12:59:31 GMT 52.885715 2.760393 34,000 285 436 0
2019-07-14 12:59:28 GMT 52.884338 2.768784 34,000 285 436 0
2019-07-14 12:59:25 GMT 52.882324 2.781448 34,000 286 428 0
2019-07-14 12:59:22 GMT 52.878845 2.803192 34,000 285 433 0
2019-07-14 12:59:18 GMT 52.878845 2.803192 34,000 285 434 -64
2019-07-14 12:59:14 GMT 52.876968 2.814865 34,000 285 429 0
2019-07-14 12:59:11 GMT 52.875195 2.825762 34,000 285 434 -64
2019-07-14 12:59:08 GMT 52.873444 2.836761 34,000 285 434 64
2019-07-14 12:59:05 GMT 52.872162 2.844620 34,000 285 433 64
2019-07-14 12:59:02 GMT 52.870399 2.855504 34,000 285 429 0
2019-07-14 12:58:58 GMT 52.868118 2.869550 34,000 285 432 64
2019-07-14 12:58:55 GMT 52.867096 2.875907 34,000 286 431 64
2019-07-14 12:58:51 GMT 52.864628 2.891209 34,000 285 429 0
2019-07-14 12:58:46 GMT 52.860809 2.914734 34,000 285 430 64
2019-07-14 12:58:43 GMT 52.860809 2.914734 34,000 285 429 0
2019-07-14 12:58:38 GMT 52.858528 2.929034 34,000 286 428 0
2019-07-14 12:58:34 GMT 52.856201 2.943237 34,000 286 428 -64
2019-07-14 12:58:29 GMT 52.853550 2.959638 34,000 286 428 0
2019-07-14 12:58:26 GMT 52.852104 2.968506 34,000 286 428 0
2019-07-14 12:58:23 GMT 52.849033 2.987418 34,000 286 428 0
2019-07-14 12:58:17 GMT 52.847775 2.994952 34,000 286 428 0
2019-07-14 12:58:14 GMT 52.843449 3.021476 34,000 286 439 -128
2019-07-14 12:58:10 GMT 52.843449 3.021476 34,000 286 428 0
2019-07-14 12:58:05 GMT 52.841309 3.034744 34,000 286 429 0
2019-07-14 12:58:01 GMT 52.839249 3.047333 34,000 286 430 0
2019-07-14 12:57:55 GMT 52.835541 3.069916 34,000 286 429 -64
2019-07-14 12:57:51 GMT 52.833950 3.079546 34,000 286 429 0
2019-07-14 12:57:48 GMT 52.830460 3.101127 34,000 286 430 0
2019-07-14 12:57:44 GMT 52.830460 3.101127 34,000 286 430 0
2019-07-14 12:57:41 GMT 52.829132 3.109055 34,000 286 430 0
2019-07-14 12:57:37 GMT 52.826687 3.123884 34,000 285 432 64
2019-07-14 12:57:34 GMT 52.825333 3.132172 34,000 285 432 64
2019-07-14 12:57:31 GMT 52.823662 3.142718 34,000 286 433 -64
2019-07-14 12:57:27 GMT 52.821625 3.155136 34,000 286 445 0
2019-07-14 12:57:24 GMT 52.820030 3.164769 34,000 286 439 -128
2019-07-14 12:57:21 GMT 52.817936 3.177638 34,000 286 440 -64
2019-07-14 12:57:14 GMT 52.814621 3.197784 34,000 286 445 0
2019-07-14 12:57:11 GMT 52.812515 3.210831 34,000 286 445 0
2019-07-14 12:57:07 GMT 52.809265 3.230438 34,000 286 445 0
2019-07-14 12:57:04 GMT 52.809265 3.230438 34,000 286 445 -64
2019-07-14 12:57:01 GMT 52.807114 3.243637 34,000 286 444 0
2019-07-14 12:56:58 GMT 52.806347 3.248186 34,000 286 445 64
2019-07-14 12:56:54 GMT 52.804276 3.260651 34,000 286 445 0
2019-07-14 12:56:51 GMT 52.800060 3.286168 34,000 286 445 0
2019-07-14 12:56:48 GMT 52.798988 3.292603 34,000 286 445 0
2019-07-14 12:56:42 GMT 52.797359 3.302647 34,000 286 445 -64
2019-07-14 12:56:39 GMT 52.796196 3.309631 34,000 286 446 0
2019-07-14 12:56:35 GMT 52.793839 3.323593 34,000 286 445 0
2019-07-14 12:56:32 GMT 52.792099 3.334045 34,000 286 445 0
2019-07-14 12:56:29 GMT 52.789818 3.347848 34,000 286 445 64
2019-07-14 12:56:26 GMT 52.788563 3.355539 34,000 286 445 -64
2019-07-14 12:56:22 GMT 52.786652 3.366776 34,000 286 445 0
2019-07-14 12:56:18 GMT 52.784454 3.379974 34,000 286 441 64
2019-07-14 12:56:15 GMT 52.782898 3.389359 34,000 286 445 -64
2019-07-14 12:56:12 GMT 52.781387 3.398514 34,000 286 445 -64
2019-07-14 12:56:09 GMT 52.779694 3.408737 34,000 286 444 -64
2019-07-14 12:56:06 GMT 52.777908 3.419495 34,000 286 445 0
2019-07-14 12:56:02 GMT 52.774967 3.436994 34,000 286 445 0
2019-07-14 12:55:56 GMT 52.772736 3.450178 34,000 286 442 0
2019-07-14 12:55:52 GMT 52.769806 3.467865 34,000 286 444 0
2019-07-14 12:55:49 GMT 52.767941 3.479056 34,000 286 441 64
2019-07-14 12:55:46 GMT 52.767101 3.483922 34,000 286 444 0
2019-07-14 12:55:43 GMT 52.764771 3.498001 34,000 286 444 64
2019-07-14 12:55:40 GMT 52.763214 3.507156 34,000 286 443 64
2019-07-14 12:55:37 GMT 52.761932 3.514938 34,000 286 443 0
2019-07-14 12:55:34 GMT 52.760193 3.525391 34,000 286 443 0
2019-07-14 12:55:30 GMT 52.758118 3.537755 34,000 286 443 -64
2019-07-14 12:55:27 GMT 52.755974 3.550467 34,000 286 443 0
2019-07-14 12:55:24 GMT 52.754810 3.557216 34,000 286 443 64
2019-07-14 12:55:21 GMT 52.753189 3.566971 34,000 286 443 0
2019-07-14 12:55:18 GMT 52.751633 3.576050 34,000 286 443 0
2019-07-14 12:55:15 GMT 52.749893 3.586502 34,000 286 442 0
2019-07-14 12:55:12 GMT 52.748714 3.593628 34,000 286 443 64
2019-07-14 12:55:08 GMT 52.746185 3.608551 34,000 286 442 -64
2019-07-14 12:55:05 GMT 52.744617 3.617955 34,000 286 442 -64
2019-07-14 12:55:02 GMT 52.743034 3.627372 34,000 286 442 -64
2019-07-14 12:54:58 GMT 52.740845 3.640320 34,000 286 442 0
2019-07-14 12:54:55 GMT 52.738659 3.653268 34,000 286 441 0
2019-07-14 12:54:52 GMT 52.737442 3.660431 34,000 286 441 -64
2019-07-14 12:54:47 GMT 52.734833 3.675766 34,000 286 441 64
2019-07-14 12:54:42 GMT 52.732048 3.692191 34,000 286 441 0
2019-07-14 12:54:38 GMT 52.729858 3.705139 34,000 286 441 -64
2019-07-14 12:54:35 GMT 52.727859 3.716753 34,000 286 441 0
2019-07-14 12:54:31 GMT 52.726044 3.727646 34,000 286 441 -64
2019-07-14 12:54:28 GMT 52.724133 3.738726 34,000 286 441 -64
2019-07-14 12:54:25 GMT 52.722519 3.748474 34,000 286 442 0
2019-07-14 12:54:22 GMT 52.720829 3.758187 34,000 286 442 0
2019-07-14 12:54:19 GMT 52.719292 3.767212 34,000 286 442 0
2019-07-14 12:54:16 GMT 52.717209 3.779526 34,000 286 442 0
2019-07-14 12:54:13 GMT 52.716454 3.784084 34,000 286 442 0
2019-07-14 12:54:09 GMT 52.713455 3.801575 34,000 286 441 -64
2019-07-14 12:54:06 GMT 52.712029 3.809980 34,000 286 442 -64
2019-07-14 12:54:03 GMT 52.710728 3.817749 34,000 286 442 -64
2019-07-14 12:54:00 GMT 52.709061 3.827438 34,000 286 441 -64
2019-07-14 12:53:56 GMT 52.706680 3.841400 34,000 286 441 64
2019-07-14 12:53:53 GMT 52.705002 3.851179 34,000 286 441 64
2019-07-14 12:53:50 GMT 52.703419 3.860439 34,000 286 441 -64
2019-07-14 12:53:47 GMT 52.699997 3.880463 34,000 286 441 0
2019-07-14 12:53:41 GMT 52.696712 3.899440 34,000 286 442 -64
2019-07-14 12:53:34 GMT 52.693954 3.915558 34,000 286 441 0
2019-07-14 12:53:31 GMT 52.692902 3.921890 34,000 286 442 -64
2019-07-14 12:53:28 GMT 52.691528 3.929749 34,000 286 441 0
2019-07-14 12:53:25 GMT 52.689102 3.943939 34,000 286 442 -64
2019-07-14 12:53:21 GMT 52.687218 3.955000 34,000 286 443 64
2019-07-14 12:53:18 GMT 52.685543 3.964652 34,000 286 442 0
2019-07-14 12:53:14 GMT 52.682877 3.980179 34,000 286 442 0
2019-07-14 12:53:10 GMT 52.680634 3.993149 34,000 286 442 -64
2019-07-14 12:53:07 GMT 52.679863 3.997689 34,000 286 442 -64
2019-07-14 12:53:04 GMT 52.677860 4.009304 34,000 286 443 0
2019-07-14 12:53:01 GMT 52.676090 4.019427 34,000 286 443 0
2019-07-14 12:52:58 GMT 52.674694 4.027431 34,000 286 443 0
2019-07-14 12:52:55 GMT 52.672806 4.038467 34,000 286 443 0
2019-07-14 12:52:52 GMT 52.671112 4.048226 34,000 286 443 0
2019-07-14 12:52:48 GMT 52.668922 4.060939 34,000 286 443 0
2019-07-14 12:52:45 GMT 52.667107 4.071612 34,000 286 442 64
2019-07-14 12:52:42 GMT 52.665390 4.081345 34,000 286 443 64
2019-07-14 12:52:39 GMT 52.663834 4.090424 34,000 286 443 0
2019-07-14 12:52:36 GMT 52.662357 4.098764 34,000 286 443 0
2019-07-14 12:52:33 GMT 52.659889 4.113046 34,000 286 443 64
2019-07-14 12:52:30 GMT 52.658249 4.122391 34,000 287 445 0
2019-07-14 12:52:27 GMT 52.655365 4.139252 34,000 286 443 0
2019-07-14 12:52:21 GMT 52.653606 4.149222 34,000 286 443 -64
2019-07-14 12:52:18 GMT 52.651703 4.160233 34,000 286 443 -64
2019-07-14 12:52:15 GMT 52.650330 4.168015 34,000 286 446 -64
2019-07-14 12:52:12 GMT 52.648087 4.180908 34,000 286 443 64
2019-07-14 12:52:09 GMT 52.646942 4.187393 34,000 287 445 0
2019-07-14 12:52:05 GMT 52.644810 4.199681 34,000 286 446 -64
2019-07-14 12:52:02 GMT 52.640759 4.222988 34,000 286 444 -64
2019-07-14 12:51:59 GMT 52.640759 4.222988 34,000 286 444 0
2019-07-14 12:51:55 GMT 52.639023 4.232712 34,000 286 445 64
2019-07-14 12:51:52 GMT 52.637009 4.244461 34,000 287 445 0
2019-07-14 12:51:49 GMT 52.635635 4.252243 34,000 287 448 64
2019-07-14 12:51:46 GMT 52.631680 4.274937 34,000 287 445 0
2019-07-14 12:51:43 GMT 52.631680 4.274937 34,000 286 446 -64
2019-07-14 12:51:39 GMT 52.629631 4.286630 34,000 286 446 0
2019-07-14 12:51:36 GMT 52.628128 4.295120 34,000 286 446 0
2019-07-14 12:51:33 GMT 52.626419 4.304914 34,000 287 446 64
2019-07-14 12:51:30 GMT 52.624840 4.314017 34,000 287 446 0
2019-07-14 12:51:27 GMT 52.623070 4.324140 34,000 287 446 0
2019-07-14 12:51:24 GMT 52.621078 4.335480 34,000 287 446 64
2019-07-14 12:51:21 GMT 52.619476 4.344559 34,000 287 446 64
2019-07-14 12:51:18 GMT 52.615665 4.366045 34,000 287 444 64
2019-07-14 12:51:15 GMT 52.615665 4.366045 34,000 287 445 0
2019-07-14 12:51:11 GMT 52.614319 4.373814 34,000 287 445 0
2019-07-14 12:51:08 GMT 52.610596 4.394913 34,000 287 444 64
2019-07-14 12:51:02 GMT 52.608261 4.408188 34,000 287 444 64
2019-07-14 12:50:58 GMT 52.606155 4.419937 34,000 287 444 64
2019-07-14 12:50:55 GMT 52.603146 4.437221 34,000 287 444 0
2019-07-14 12:50:49 GMT 52.600864 4.450169 34,000 287 444 64
2019-07-14 12:50:46 GMT 52.599236 4.459429 34,000 287 444 64
2019-07-14 12:50:43 GMT 52.598022 4.466178 34,000 287 443 0
2019-07-14 12:50:40 GMT 52.594624 4.485482 34,000 287 443 -64
2019-07-14 12:50:34 GMT 52.592194 4.499130 34,000 287 444 -64
2019-07-14 12:50:31 GMT 52.590435 4.508946 34,000 287 444 -64
2019-07-14 12:50:28 GMT 52.589085 4.516558 34,000 287 444 -64
2019-07-14 12:50:25 GMT 52.587616 4.524918 34,000 287 444 0
2019-07-14 12:50:22 GMT 52.585361 4.537510 34,000 287 444 0
2019-07-14 12:50:16 GMT 52.582150 4.555638 34,000 287 445 -64
2019-07-14 12:50:12 GMT 52.580055 4.567252 34,000 287 445 -64
2019-07-14 12:50:09 GMT 52.578472 4.576355 34,000 287 445 0
2019-07-14 12:50:05 GMT 52.576145 4.589382 34,000 287 445 0
2019-07-14 12:50:02 GMT 52.572235 4.611433 34,000 287 445 0
2019-07-14 12:49:59 GMT 52.572235 4.611433 34,000 287 445 -64
2019-07-14 12:49:56 GMT 52.570724 4.619980 34,000 287 446 0
2019-07-14 12:49:53 GMT 52.568848 4.630356 34,000 287 446 64
2019-07-14 12:49:50 GMT 52.566879 4.641331 34,000 287 447 0
2019-07-14 12:49:45 GMT 52.564598 4.654122 34,000 287 447 -64
2019-07-14 12:49:42 GMT 52.562531 4.665604 34,000 287 446 0
2019-07-14 12:49:39 GMT 52.560425 4.677353 34,000 287 447 -64
2019-07-14 12:49:35 GMT 52.558735 4.686925 34,000 287 447 64
2019-07-14 12:49:32 GMT 52.556946 4.696808 34,000 287 447 64
2019-07-14 12:49:29 GMT 52.555344 4.705887 34,000 287 447 0
2019-07-14 12:49:26 GMT 52.553844 4.714155 34,000 287 447 64
2019-07-14 12:49:23 GMT 52.549889 4.736128 34,000 287 447 -64
2019-07-14 12:49:17 GMT 52.547794 4.747977 34,000 287 447 0
2019-07-14 12:49:14 GMT 52.546509 4.755096 34,000 287 446 0
2019-07-14 12:49:11 GMT 52.544357 4.767075 34,000 287 446 0
2019-07-14 12:49:08 GMT 52.543045 4.774266 34,000 287 446 64
2019-07-14 12:49:05 GMT 52.541336 4.783936 34,000 287 446 0
2019-07-14 12:49:02 GMT 52.539276 4.795380 34,000 287 446 0
2019-07-14 12:48:58 GMT 52.537582 4.804688 34,000 287 446 0
2019-07-14 12:48:55 GMT 52.535019 4.818954 34,000 287 446 64
2019-07-14 12:48:52 GMT 52.533829 4.825439 34,000 287 446 0
2019-07-14 12:48:49 GMT 52.532104 4.835161 34,000 287 446 64
2019-07-14 12:48:46 GMT 52.530121 4.846115 34,000 287 446 0
2019-07-14 12:48:43 GMT 52.526779 4.864426 34,000 287 446 0
2019-07-14 12:48:37 GMT 52.524490 4.877319 34,000 287 448 -64
2019-07-14 12:48:34 GMT 52.521332 4.894562 34,000 287 447 0
2019-07-14 12:48:31 GMT 52.521332 4.894562 34,000 287 448 -64
2019-07-14 12:48:28 GMT 52.519585 4.904375 34,000 287 448 -64
2019-07-14 12:48:25 GMT 52.517807 4.914093 34,000 287 449 0
2019-07-14 12:48:22 GMT 52.515999 4.923837 34,000 287 448 -64
2019-07-14 12:48:19 GMT 52.512691 4.942121 34,000 287 448 -64
2019-07-14 12:48:16 GMT 52.510666 4.953232 34,000 287 448 0
2019-07-14 12:48:13 GMT 52.510666 4.953232 34,000 288 453 0
2019-07-14 12:48:10 GMT 52.508827 4.963388 34,000 287 448 64
2019-07-14 12:48:07 GMT 52.507141 4.972763 34,000 287 448 64
2019-07-14 12:48:04 GMT 52.505337 4.982535 34,000 287 448 64
2019-07-14 12:48:01 GMT 52.503525 4.992294 34,000 287 449 -64
2019-07-14 12:47:58 GMT 52.501755 5.002075 34,000 287 449 -64
2019-07-14 12:47:55 GMT 52.500076 5.011178 34,000 287 449 0
2019-07-14 12:47:52 GMT 52.497704 5.024205 34,000 287 449 0
2019-07-14 12:47:49 GMT 52.496384 5.031357 34,000 287 449 0
2019-07-14 12:47:46 GMT 52.494736 5.040512 34,000 287 449 0
2019-07-14 12:47:43 GMT 52.492256 5.054182 34,000 287 449 0
2019-07-14 12:47:39 GMT 52.490582 5.063363 34,000 288 453 0
2019-07-14 12:47:36 GMT 52.488209 5.076390 34,000 287 449 0
2019-07-14 12:47:33 GMT 52.487137 5.082245 34,000 287 449 0
2019-07-14 12:47:30 GMT 52.484756 5.095291 34,000 287 449 0
2019-07-14 12:47:27 GMT 52.482716 5.106367 34,000 287 450 64
2019-07-14 12:47:21 GMT 52.477798 5.132980 34,000 287 448 0
2019-07-14 12:47:18 GMT 52.477798 5.132980 34,000 287 448 0
2019-07-14 12:47:15 GMT 52.475777 5.144113 34,000 287 449 0
2019-07-14 12:47:12 GMT 52.474102 5.153216 34,000 287 448 64
2019-07-14 12:47:09 GMT 52.472473 5.161926 34,000 287 448 64
2019-07-14 12:47:06 GMT 52.470142 5.174639 34,000 287 449 0
2019-07-14 12:47:03 GMT 52.469009 5.180893 34,000 287 449 -64
2019-07-14 12:47:00 GMT 52.467167 5.190883 34,000 287 450 0
2019-07-14 12:46:57 GMT 52.464790 5.203910 34,000 287 449 0
2019-07-14 12:46:54 GMT 52.463196 5.212479 34,000 287 450 -64
2019-07-14 12:46:51 GMT 52.461391 5.222273 34,000 287 450 -64
2019-07-14 12:46:48 GMT 52.459949 5.230120 34,000 287 450 -64
2019-07-14 12:46:44 GMT 52.457481 5.243382 34,000 287 450 64
2019-07-14 12:46:41 GMT 52.455807 5.252485 34,000 287 450 64
2019-07-14 12:46:38 GMT 52.453617 5.264178 34,000 287 450 64
2019-07-14 12:46:35 GMT 52.452301 5.271378 34,000 287 450 64
2019-07-14 12:46:32 GMT 52.448078 5.294233 34,000 287 450 -64
2019-07-14 12:46:29 GMT 52.448078 5.294233 34,000 287 450 -64
2019-07-14 12:46:26 GMT 52.446171 5.304356 34,000 287 450 0
2019-07-14 12:46:23 GMT 52.444492 5.313538 34,000 287 450 0
2019-07-14 12:46:20 GMT 52.443237 5.320286 34,000 287 450 0
2019-07-14 12:46:17 GMT 52.440865 5.333078 34,000 287 450 64
2019-07-14 12:46:14 GMT 52.437103 5.353470 34,000 287 450 64
2019-07-14 12:46:11 GMT 52.437103 5.353470 34,000 287 451 64
2019-07-14 12:46:07 GMT 52.435509 5.361956 34,000 288 450 64
2019-07-14 12:46:04 GMT 52.433556 5.372393 34,000 287 451 -64
2019-07-14 12:46:01 GMT 52.431793 5.381927 34,000 288 452 0
2019-07-14 12:45:58 GMT 52.429878 5.392011 34,000 287 451 -64
2019-07-14 12:45:55 GMT 52.428085 5.401840 34,000 287 451 -64
2019-07-14 12:45:52 GMT 52.425659 5.414886 34,000 287 451 64
2019-07-14 12:45:49 GMT 52.423824 5.424656 34,000 287 451 0
2019-07-14 12:45:46 GMT 52.422104 5.433759 34,000 287 451 -64
2019-07-14 12:45:43 GMT 52.420624 5.441895 34,000 287 451 -64
2019-07-14 12:45:40 GMT 52.419067 5.450058 34,000 287 451 -64
2019-07-14 12:45:36 GMT 52.416412 5.464478 34,000 287 451 0
2019-07-14 12:45:32 GMT 52.413910 5.477783 34,000 287 451 -64
2019-07-14 12:45:29 GMT 52.412003 5.487985 34,000 287 452 0
2019-07-14 12:45:26 GMT 52.410095 5.498123 34,000 287 452 0
2019-07-14 12:45:23 GMT 52.408401 5.507202 34,000 288 454 0
2019-07-14 12:45:20 GMT 52.406277 5.518668 34,000 287 452 0
2019-07-14 12:45:16 GMT 52.403854 5.531695 34,000 288 452 64
2019-07-14 12:45:12 GMT 52.401993 5.541458 34,000 288 452 0
2019-07-14 12:45:09 GMT 52.399666 5.553824 34,000 288 452 0
2019-07-14 12:45:06 GMT 52.398056 5.562363 34,000 288 452 0
2019-07-14 12:45:03 GMT 52.396362 5.571518 34,000 288 452 0
2019-07-14 12:45:00 GMT 52.394623 5.580597 34,000 288 452 0
2019-07-14 12:44:57 GMT 52.392075 5.594160 34,000 288 452 0
2019-07-14 12:44:54 GMT 52.390274 5.603790 34,000 288 452 0
2019-07-14 12:44:50 GMT 52.387932 5.616289 34,000 288 453 0
2019-07-14 12:44:47 GMT 52.386017 5.626297 34,000 288 452 0
2019-07-14 12:44:44 GMT 52.384674 5.633475 34,000 288 452 0
2019-07-14 12:44:41 GMT 52.382812 5.643311 34,000 288 454 0
2019-07-14 12:44:38 GMT 52.381042 5.652858 34,000 288 453 0
2019-07-14 12:44:35 GMT 52.378876 5.664215 34,000 288 453 0
2019-07-14 12:44:32 GMT 52.377411 5.672073 34,000 288 453 0
2019-07-14 12:44:29 GMT 52.375397 5.682526 34,000 288 454 -64
2019-07-14 12:44:26 GMT 52.373131 5.694685 34,000 288 454 0
2019-07-14 12:44:22 GMT 52.370956 5.706100 34,000 288 454 0
2019-07-14 12:44:19 GMT 52.369080 5.715873 34,000 288 454 0
2019-07-14 12:44:16 GMT 52.367123 5.726388 34,000 288 454 0
2019-07-14 12:44:13 GMT 52.365635 5.734157 34,000 288 454 0
2019-07-14 12:44:10 GMT 52.363770 5.744095 34,000 288 454 0
2019-07-14 12:44:07 GMT 52.362144 5.752598 34,000 288 454 -64
2019-07-14 12:44:04 GMT 52.357773 5.775528 34,000 288 454 0
2019-07-14 12:44:01 GMT 52.355675 5.786577 34,000 288 454 0
2019-07-14 12:43:58 GMT 52.355675 5.786577 34,000 288 454 64
2019-07-14 12:43:55 GMT 52.353577 5.797721 34,000 288 453 0
2019-07-14 12:43:52 GMT 52.352325 5.804291 34,000 288 453 0
2019-07-14 12:43:49 GMT 52.350586 5.813446 34,000 288 453 0
2019-07-14 12:43:46 GMT 52.348801 5.822678 34,000 288 453 0
2019-07-14 12:43:43 GMT 52.347198 5.831229 34,000 288 453 0
2019-07-14 12:43:40 GMT 52.344452 5.845433 34,000 288 453 64
2019-07-14 12:43:37 GMT 52.342686 5.854850 34,000 288 453 0
2019-07-14 12:43:34 GMT 52.341194 5.862697 34,000 288 453 64
2019-07-14 12:43:31 GMT 52.339424 5.871800 34,000 288 453 0
2019-07-14 12:43:28 GMT 52.337540 5.881653 34,000 288 453 0
2019-07-14 12:43:25 GMT 52.335068 5.894699 34,000 288 453 64
2019-07-14 12:43:22 GMT 52.331932 5.911037 34,000 288 453 0
2019-07-14 12:43:19 GMT 52.331932 5.911037 34,000 288 453 -64
2019-07-14 12:43:16 GMT 52.329418 5.924064 34,000 288 453 -64
2019-07-14 12:43:13 GMT 52.327789 5.932541 34,000 288 453 64
2019-07-14 12:43:10 GMT 52.326157 5.941014 34,000 288 453 64
2019-07-14 12:43:07 GMT 52.324356 5.950470 34,000 288 453 0
2019-07-14 12:43:04 GMT 52.321922 5.963143 34,000 288 453 0
2019-07-14 12:43:01 GMT 52.320896 5.968401 34,000 288 453 0
2019-07-14 12:42:58 GMT 52.318588 5.980453 34,000 288 453 0
2019-07-14 12:42:55 GMT 52.315125 5.998143 34,000 288 454 0
2019-07-14 12:42:52 GMT 52.315125 5.998143 34,000 288 455 0
2019-07-14 12:42:49 GMT 52.312378 6.012503 34,000 288 455 0
2019-07-14 12:42:46 GMT 52.310440 6.022568 34,000 288 455 -64
2019-07-14 12:42:43 GMT 52.309120 6.029454 34,000 288 455 -64
2019-07-14 12:42:40 GMT 52.307144 6.039581 34,000 288 455 -64
2019-07-14 12:42:37 GMT 52.305359 6.048737 34,000 288 455 0
2019-07-14 12:42:34 GMT 52.303486 6.058568 34,000 288 455 -64
2019-07-14 12:42:31 GMT 52.301205 6.070339 34,000 288 455 0
2019-07-14 12:42:28 GMT 52.299438 6.079206 34,000 288 455 0
2019-07-14 12:42:25 GMT 52.297901 6.087132 34,000 288 455 0
2019-07-14 12:42:22 GMT 52.295929 6.097107 34,000 288 455 0
2019-07-14 12:42:19 GMT 52.294083 6.106672 34,000 288 455 0
2019-07-14 12:42:16 GMT 52.292500 6.114755 34,000 289 454 64
2019-07-14 12:42:13 GMT 52.290024 6.127167 34,000 288 456 64
2019-07-14 12:42:10 GMT 52.287964 6.137619 34,000 288 455 0
2019-07-14 12:42:07 GMT 52.285629 6.149368 34,000 289 455 0
2019-07-14 12:42:01 GMT 52.282398 6.165606 34,000 289 454 64
2019-07-14 12:41:58 GMT 52.280457 6.175385 34,000 289 454 0
2019-07-14 12:41:55 GMT 52.278488 6.185146 34,000 288 454 0
2019-07-14 12:41:52 GMT 52.275883 6.198094 34,000 288 454 0
2019-07-14 12:41:49 GMT 52.272438 6.216064 34,000 288 453 0
2019-07-14 12:41:46 GMT 52.272438 6.216064 34,000 289 453 0
2019-07-14 12:41:42 GMT 52.270248 6.227417 34,000 289 452 0
2019-07-14 12:41:39 GMT 52.265579 6.250839 34,000 289 453 0
2019-07-14 12:41:35 GMT 52.265579 6.250839 34,000 289 452 0
2019-07-14 12:41:32 GMT 52.263199 6.262207 34,000 290 452 0
2019-07-14 12:41:29 GMT 52.260799 6.273350 34,000 293 450 -64
2019-07-14 12:41:26 GMT 52.258659 6.282924 34,000 291 452 0
2019-07-14 12:41:23 GMT 52.257202 6.289368 34,000 291 452 0
2019-07-14 12:41:20 GMT 52.255260 6.297599 34,000 293 451 0
2019-07-14 12:41:17 GMT 52.252327 6.309998 34,000 292 451 -64
2019-07-14 12:41:14 GMT 52.250465 6.317531 34,000 295 450 64
2019-07-14 12:41:11 GMT 52.248047 6.327362 34,000 293 451 0
2019-07-14 12:41:07 GMT 52.242413 6.348921 34,000 294 450 64
2019-07-14 12:41:04 GMT 52.242413 6.348921 34,000 294 450 64
2019-07-14 12:41:01 GMT 52.239075 6.360855 34,000 296 449 0
2019-07-14 12:40:58 GMT 52.237289 6.366959 34,000 297 448 0
2019-07-14 12:40:55 GMT 52.233845 6.378505 34,000 297 448 0
2019-07-14 12:40:52 GMT 52.231934 6.384888 34,000 297 449 0
2019-07-14 12:40:49 GMT 52.228912 6.394806 34,000 297 448 0
2019-07-14 12:40:46 GMT 52.226166 6.403931 34,000 297 448 0
2019-07-14 12:40:43 GMT 52.222534 6.416016 34,000 297 449 0
2019-07-14 12:40:40 GMT 52.220718 6.422058 34,000 297 448 64
2019-07-14 12:40:37 GMT 52.217087 6.434065 34,000 297 448 0
2019-07-14 12:40:33 GMT 52.214355 6.443176 34,000 297 449 0
2019-07-14 12:40:30 GMT 52.209034 6.460824 34,000 297 449 0
2019-07-14 12:40:24 GMT 52.203541 6.478952 34,000 297 449 -64
2019-07-14 12:40:21 GMT 52.200073 6.490479 34,000 297 449 -64
2019-07-14 12:40:18 GMT 52.200073 6.490479 34,000 297 449 64
2019-07-14 12:40:15 GMT 52.197968 6.497498 34,000 297 451 0
2019-07-14 12:40:12 GMT 52.195206 6.506574 34,000 297 449 64
2019-07-14 12:40:09 GMT 52.191483 6.518973 34,000 297 450 0
2019-07-14 12:40:06 GMT 52.189621 6.525016 34,000 297 450 -64
2019-07-14 12:40:03 GMT 52.186523 6.535339 34,000 297 450 0
2019-07-14 12:40:00 GMT 52.184128 6.543300 34,000 297 450 0
2019-07-14 12:39:57 GMT 52.181892 6.550677 34,000 297 450 0
2019-07-14 12:39:54 GMT 52.179008 6.560172 34,000 297 451 0
2019-07-14 12:39:51 GMT 52.175858 6.570435 34,000 297 451 64
2019-07-14 12:39:48 GMT 52.172195 6.582489 34,000 297 452 -64
2019-07-14 12:39:45 GMT 52.169540 6.591339 34,000 297 453 0
2019-07-14 12:39:42 GMT 52.167664 6.597443 34,000 297 451 -64
2019-07-14 12:39:39 GMT 52.164902 6.606550 34,000 297 451 -64
2019-07-14 12:39:36 GMT 52.162216 6.615448 34,000 297 451 -64
2019-07-14 12:39:33 GMT 52.158615 6.627267 34,000 297 451 0
2019-07-14 12:39:30 GMT 52.155685 6.636998 34,000 297 451 0
2019-07-14 12:39:27 GMT 52.153748 6.643372 34,000 297 451 0
2019-07-14 12:39:24 GMT 52.151047 6.652145 34,000 297 451 0
2019-07-14 12:39:21 GMT 52.147705 6.663132 34,000 297 451 0
2019-07-14 12:39:15 GMT 52.142120 6.681442 34,000 297 452 -64
2019-07-14 12:39:12 GMT 52.139393 6.690438 34,000 297 444 0
2019-07-14 12:39:09 GMT 52.136993 6.698303 34,000 297 452 0
2019-07-14 12:39:06 GMT 52.133430 6.709978 34,000 297 452 0
2019-07-14 12:39:03 GMT 52.131618 6.715942 34,000 297 453 0
2019-07-14 12:39:00 GMT 52.128590 6.725830 34,000 297 453 0
2019-07-14 12:38:57 GMT 52.125824 6.734924 34,000 297 453 64
2019-07-14 12:38:54 GMT 52.123215 6.743469 34,000 297 453 64
2019-07-14 12:38:51 GMT 52.120445 6.752590 34,000 297 457 0
2019-07-14 12:38:48 GMT 52.117676 6.761627 34,000 297 453 64
2019-07-14 12:38:45 GMT 52.114334 6.772537 34,000 297 453 0
2019-07-14 12:38:42 GMT 52.112503 6.778488 34,000 297 452 -64
2019-07-14 12:38:39 GMT 52.108337 6.792145 34,000 297 452 -64
2019-07-14 12:38:36 GMT 52.106873 6.796951 34,000 297 452 0
2019-07-14 12:38:33 GMT 52.103119 6.809158 34,000 297 453 0
2019-07-14 12:38:30 GMT 52.100426 6.817958 34,000 297 452 0
2019-07-14 12:38:27 GMT 52.098099 6.825570 34,000 297 453 0
2019-07-14 12:38:23 GMT 52.094193 6.838303 34,000 297 452 0
2019-07-14 12:38:20 GMT 52.092361 6.844406 34,000 297 453 64
2019-07-14 12:38:17 GMT 52.088654 6.856384 34,000 297 452 0
2019-07-14 12:38:14 GMT 52.085670 6.866063 34,000 297 452 0
2019-07-14 12:38:11 GMT 52.083069 6.874619 34,000 297 452 64
2019-07-14 12:38:08 GMT 52.080593 6.882621 34,000 297 452 64
2019-07-14 12:38:05 GMT 52.077438 6.892929 34,000 297 452 64
2019-07-14 12:38:02 GMT 52.074051 6.903915 34,000 297 453 0
2019-07-14 12:37:59 GMT 52.071239 6.912990 34,000 297 453 0
2019-07-14 12:37:56 GMT 52.069424 6.919033 34,000 297 453 0
2019-07-14 12:37:53 GMT 52.066635 6.927948 34,000 297 453 0
2019-07-14 12:37:50 GMT 52.063419 6.938494 34,000 297 454 -64
2019-07-14 12:37:47 GMT 52.057983 6.956100 34,000 297 453 0
2019-07-14 12:37:44 GMT 52.054760 6.966509 34,000 297 453 0
2019-07-14 12:37:41 GMT 52.054760 6.966509 34,000 297 453 0
2019-07-14 12:37:38 GMT 52.051453 6.977260 34,000 297 461 0
2019-07-14 12:37:35 GMT 52.048756 6.985971 34,000 297 454 0
2019-07-14 12:37:32 GMT 52.047455 6.990204 34,000 297 453 -64
2019-07-14 12:37:29 GMT 52.043911 7.001744 34,000 297 454 -64
2019-07-14 12:37:26 GMT 52.040562 7.012573 34,000 297 455 -64
2019-07-14 12:37:20 GMT 52.032806 7.037735 34,000 297 456 -64
2019-07-14 12:37:17 GMT 52.032806 7.037735 34,000 297 455 0
2019-07-14 12:37:14 GMT 52.029419 7.048721 34,000 297 455 0
2019-07-14 12:37:11 GMT 52.026966 7.056597 34,000 297 455 -64
2019-07-14 12:37:08 GMT 52.023151 7.068839 34,000 297 456 0
2019-07-14 12:37:05 GMT 52.017517 7.087202 34,000 297 456 0
2019-07-14 12:37:02 GMT 52.017517 7.087202 34,000 297 456 64
2019-07-14 12:36:59 GMT 52.015503 7.093582 34,000 297 456 64
2019-07-14 12:36:56 GMT 52.012585 7.103054 34,000 297 456 64
2019-07-14 12:36:53 GMT 52.009930 7.111607 34,000 297 456 64
2019-07-14 12:36:50 GMT 52.007080 7.120743 34,000 297 457 0
2019-07-14 12:36:47 GMT 52.004250 7.129892 34,000 297 456 64
2019-07-14 12:36:44 GMT 52.001038 7.140274 34,000 297 456 64
2019-07-14 12:36:40 GMT 51.997406 7.151943 34,000 297 457 0
2019-07-14 12:36:37 GMT 51.994846 7.160182 34,000 297 457 64
2019-07-14 12:36:34 GMT 51.991928 7.169647 34,000 297 457 0
2019-07-14 12:36:31 GMT 51.988174 7.181625 34,000 297 457 0
2019-07-14 12:36:28 GMT 51.985722 7.189532 34,000 297 457 0
2019-07-14 12:36:24 GMT 51.979576 7.209385 34,000 297 457 0
2019-07-14 12:36:21 GMT 51.979576 7.209385 34,000 297 457 0
2019-07-14 12:36:18 GMT 51.975952 7.220917 34,000 297 457 64
2019-07-14 12:36:15 GMT 51.972317 7.232535 34,000 297 457 0
2019-07-14 12:36:12 GMT 51.970451 7.238656 34,000 297 457 0
2019-07-14 12:36:09 GMT 51.967754 7.247210 34,000 297 457 0
2019-07-14 12:36:06 GMT 51.965286 7.255173 34,000 297 457 0
2019-07-14 12:36:03 GMT 51.962074 7.265573 34,000 297 457 0
2019-07-14 12:36:00 GMT 51.956764 7.282445 34,000 297 457 64
2019-07-14 12:35:57 GMT 51.956764 7.282445 34,000 297 457 64
2019-07-14 12:35:53 GMT 51.952904 7.294843 34,000 297 457 64
2019-07-14 12:35:50 GMT 51.949459 7.305830 34,000 297 457 0
2019-07-14 12:35:46 GMT 51.946701 7.314682 34,000 297 457 0
2019-07-14 12:35:43 GMT 51.942986 7.326547 34,000 297 457 64
2019-07-14 12:35:39 GMT 51.938889 7.339652 34,000 297 456 64
2019-07-14 12:35:36 GMT 51.933815 7.355739 34,000 297 456 0
2019-07-14 12:35:33 GMT 51.933815 7.355739 34,000 297 456 -64
2019-07-14 12:35:30 GMT 51.930046 7.367902 34,000 297 456 0
2019-07-14 12:35:27 GMT 51.927155 7.377014 34,000 297 456 0
2019-07-14 12:35:24 GMT 51.925278 7.383118 34,000 297 456 0
2019-07-14 12:35:20 GMT 51.918594 7.404314 34,000 297 456 0
2019-07-14 12:35:17 GMT 51.915615 7.413810 34,000 297 456 0
2019-07-14 12:35:14 GMT 51.915615 7.413810 34,000 297 456 0
2019-07-14 12:35:11 GMT 51.912868 7.422599 34,000 297 456 0
2019-07-14 12:35:08 GMT 51.909515 7.433193 34,000 297 456 0
2019-07-14 12:35:05 GMT 51.904488 7.449280 34,000 297 456 0
2019-07-14 12:34:59 GMT 51.898342 7.468741 34,000 297 456 0
2019-07-14 12:34:56 GMT 51.898342 7.468741 34,000 297 456 0
2019-07-14 12:34:53 GMT 51.894943 7.479571 34,000 297 456 64
2019-07-14 12:34:50 GMT 51.892292 7.488022 34,000 298 457 0
2019-07-14 12:34:47 GMT 51.889915 7.495575 34,000 297 457 0
2019-07-14 12:34:44 GMT 51.886276 7.507151 34,000 298 457 0
2019-07-14 12:34:41 GMT 51.884399 7.513090 34,000 298 457 0
2019-07-14 12:34:38 GMT 51.878586 7.531499 34,000 298 458 0
2019-07-14 12:34:35 GMT 51.878586 7.531499 34,000 298 457 0
2019-07-14 12:34:32 GMT 51.875393 7.541733 34,000 298 457 64
2019-07-14 12:34:29 GMT 51.872818 7.549760 34,000 298 458 0
2019-07-14 12:34:26 GMT 51.869946 7.558899 34,000 298 458 0
2019-07-14 12:34:22 GMT 51.865540 7.572772 34,000 298 457 64
2019-07-14 12:34:19 GMT 51.862061 7.583758 34,000 298 457 64
2019-07-14 12:34:16 GMT 51.859238 7.592773 34,000 298 457 64
2019-07-14 12:34:12 GMT 51.855881 7.603430 34,000 298 457 0
2019-07-14 12:34:09 GMT 51.853134 7.612041 34,000 298 457 -64
2019-07-14 12:34:06 GMT 51.850674 7.619934 34,000 298 457 0
2019-07-14 12:34:03 GMT 51.847778 7.629040 34,000 298 457 0
2019-07-14 12:34:00 GMT 51.844902 7.638092 34,000 298 457 0
2019-07-14 12:33:57 GMT 51.841782 7.647858 34,000 298 457 0
2019-07-14 12:33:54 GMT 51.839310 7.655689 34,000 298 457 0
2019-07-14 12:33:50 GMT 51.834320 7.671426 34,000 298 457 0
2019-07-14 12:33:46 GMT 51.831402 7.680511 34,000 298 457 0
2019-07-14 12:33:43 GMT 51.828506 7.689687 34,000 298 457 0
2019-07-14 12:33:40 GMT 51.825806 7.698224 34,000 298 456 -64
2019-07-14 12:33:37 GMT 51.819435 7.718124 34,000 298 456 -64
2019-07-14 12:33:34 GMT 51.819435 7.718124 34,000 299 456 0
2019-07-14 12:33:28 GMT 51.812920 7.738571 34,000 298 456 0
2019-07-14 12:33:25 GMT 51.811523 7.742986 34,000 298 456 0
2019-07-14 12:33:22 GMT 51.804028 7.766342 34,000 298 455 64
2019-07-14 12:33:18 GMT 51.804028 7.766342 34,000 298 455 64
2019-07-14 12:33:15 GMT 51.801655 7.773743 34,000 298 455 64
2019-07-14 12:33:12 GMT 51.799164 7.781587 34,000 299 456 0
2019-07-14 12:33:08 GMT 51.794720 7.795334 34,000 298 455 0
2019-07-14 12:33:05 GMT 51.791428 7.805638 34,000 298 455 0
2019-07-14 12:33:00 GMT 51.785934 7.822563 34,000 298 455 -64
2019-07-14 12:32:57 GMT 51.783871 7.829056 34,000 298 455 -64
2019-07-14 12:32:54 GMT 51.781124 7.837524 34,000 298 455 0
2019-07-14 12:32:51 GMT 51.777214 7.849503 34,000 298 456 -64
2019-07-14 12:32:47 GMT 51.774422 7.858124 34,000 298 456 0
2019-07-14 12:32:44 GMT 51.770512 7.870102 34,000 298 455 0
2019-07-14 12:32:41 GMT 51.767120 7.880315 34,000 298 456 0
2019-07-14 12:32:38 GMT 51.764553 7.888107 34,000 298 456 0
2019-07-14 12:32:35 GMT 51.762405 7.894716 34,000 299 456 0
2019-07-14 12:32:32 GMT 51.758640 7.906113 34,000 299 455 64
2019-07-14 12:32:29 GMT 51.757057 7.910843 34,000 299 455 64
2019-07-14 12:32:26 GMT 51.754074 7.919806 34,000 297 456 0
2019-07-14 12:32:23 GMT 51.749680 7.933020 34,000 298 455 64
2019-07-14 12:32:19 GMT 51.746445 7.943039 34,000 298 456 0
2019-07-14 12:32:16 GMT 51.743744 7.951431 34,000 298 457 0
2019-07-14 12:32:13 GMT 51.739834 7.963791 34,000 298 456 0
2019-07-14 12:32:10 GMT 51.738018 7.969589 34,000 298 456 64
2019-07-14 12:32:07 GMT 51.735226 7.978287 34,000 303 456 0
2019-07-14 12:32:04 GMT 51.729538 7.995746 34,000 299 456 -64
2019-07-14 12:32:01 GMT 51.729538 7.995746 34,000 299 455 -64
2019-07-14 12:31:58 GMT 51.726192 8.005905 34,000 299 455 -64
2019-07-14 12:31:55 GMT 51.722282 8.017578 34,000 300 455 0
2019-07-14 12:31:52 GMT 51.720280 8.023529 34,000 299 455 64
2019-07-14 12:31:49 GMT 51.717178 8.032713 34,000 299 455 64
2019-07-14 12:31:46 GMT 51.714294 8.041027 34,000 300 455 0
2019-07-14 12:31:43 GMT 51.711044 8.050455 34,000 300 455 -64
2019-07-14 12:31:40 GMT 51.707428 8.060773 34,000 300 455 0
2019-07-14 12:31:37 GMT 51.703754 8.071060 34,000 302 455 0
2019-07-14 12:31:34 GMT 51.701706 8.076630 34,000 301 456 64
2019-07-14 12:31:31 GMT 51.698456 8.085344 34,000 302 455 0
2019-07-14 12:31:28 GMT 51.691883 8.102188 34,000 303 455 64
2019-07-14 12:31:25 GMT 51.687607 8.113032 34,000 303 455 0
2019-07-14 12:31:19 GMT 51.683990 8.122163 34,000 303 455 0
2019-07-14 12:31:16 GMT 51.681084 8.129654 34,000 303 456 0
2019-07-14 12:31:10 GMT 51.674847 8.145370 34,000 303 456 -64
2019-07-14 12:31:07 GMT 51.671448 8.154008 34,000 303 457 -64
2019-07-14 12:31:04 GMT 51.668198 8.162248 34,000 303 457 128
2019-07-14 12:31:01 GMT 51.664581 8.171453 34,000 303 457 64
2019-07-14 12:30:58 GMT 51.661057 8.180435 33,975 303 456 256
2019-07-14 12:30:55 GMT 51.657898 8.188378 33,975 303 456 448
2019-07-14 12:30:52 GMT 51.654503 8.196945 33,950 303 456 896
2019-07-14 12:30:49 GMT 51.651123 8.205451 33,925 303 460 896
2019-07-14 12:30:45 GMT 51.646683 8.216553 33,875 303 455 960
2019-07-14 12:30:42 GMT 51.641701 8.229065 33,800 303 455 960
2019-07-14 12:30:38 GMT 51.637390 8.239895 33,750 303 455 960
2019-07-14 12:30:35 GMT 51.634689 8.246724 33,325 303 457 960
2019-07-14 12:30:32 GMT 51.630707 8.256745 33,050 303 455 960
2019-07-14 12:30:28 GMT 51.627224 8.265610 33,600 303 455 960
2019-07-14 12:30:24 GMT 51.622925 8.276491 33,475 303 456 896
2019-07-14 12:30:21 GMT 51.615494 8.295364 33,400 303 457 960
2019-07-14 12:30:18 GMT 51.615494 8.295364 33,400 303 456 896
2019-07-14 12:30:13 GMT 51.611206 8.306258 33,225 303 457 960
2019-07-14 12:30:10 GMT 51.607635 8.315314 33,275 303 457 960
2019-07-14 12:30:07 GMT 51.603760 8.325119 33,275 303 457 960
2019-07-14 12:30:04 GMT 51.600128 8.334274 33,050 303 457 960
2019-07-14 12:30:01 GMT 51.596695 8.342854 33,175 303 457 960
2019-07-14 12:29:58 GMT 51.592403 8.353729 33,125 303 456 960
2019-07-14 12:29:55 GMT 51.590122 8.359451 32,800 303 456 960
2019-07-14 12:29:52 GMT 51.586117 8.369522 33,000 303 456 960
2019-07-14 12:29:49 GMT 51.582184 8.379376 32,975 303 456 960
2019-07-14 12:29:46 GMT 51.580204 8.384323 32,925 303 456 960
2019-07-14 12:29:43 GMT 51.575550 8.395996 32,875 303 456 960
2019-07-14 12:29:39 GMT 51.571289 8.406842 32,825 303 456 960
2019-07-14 12:29:36 GMT 51.568382 8.414154 32,700 303 456 960
2019-07-14 12:29:31 GMT 51.561813 8.430819 32,700 303 456 960
2019-07-14 12:29:28 GMT 51.558929 8.438110 32,650 303 456 960
2019-07-14 12:29:25 GMT 51.553951 8.450851 32,475 303 456 960
2019-07-14 12:29:22 GMT 51.551716 8.456497 32,525 303 455 960
2019-07-14 12:29:19 GMT 51.546875 8.468857 32,375 299 455 0
2019-07-14 12:29:13 GMT 51.542732 8.479309 32,400 303 454 960
2019-07-14 12:29:10 GMT 51.538216 8.490829 32,275 303 453 960
2019-07-14 12:29:07 GMT 51.536026 8.496323 32,300 303 454 960
2019-07-14 12:29:04 GMT 51.532444 8.505402 32,075 299 456 0
2019-07-14 12:29:01 GMT 51.528301 8.515778 32,050 302 453 896
2019-07-14 12:28:58 GMT 51.521484 8.533111 32,000 299 455 0
2019-07-14 12:28:55 GMT 51.521484 8.533111 32,075 299 456 0
2019-07-14 12:28:52 GMT 51.518616 8.540573 32,075 299 455 0
2019-07-14 12:28:49 GMT 51.515869 8.547668 32,000 301 454 768
2019-07-14 12:28:46 GMT 51.512604 8.556271 32,000 299 455 0
2019-07-14 12:28:42 GMT 51.508804 8.566812 32,000 300 455 64
2019-07-14 12:28:39 GMT 51.504684 8.578541 32,000 299 455 0
2019-07-14 12:28:36 GMT 51.501846 8.586855 32,000 299 455 0
2019-07-14 12:28:31 GMT 51.496262 8.603408 32,000 299 455 0
2019-07-14 12:28:27 GMT 51.489487 8.623599 32,000 299 455 -64
2019-07-14 12:28:24 GMT 51.489487 8.623599 32,000 299 455 -64
2019-07-14 12:28:20 GMT 51.485825 8.634363 32,000 299 455 0
2019-07-14 12:28:17 GMT 51.482254 8.645053 32,000 299 455 0
2019-07-14 12:28:14 GMT 51.480698 8.649655 32,000 299 455 0
2019-07-14 12:28:11 GMT 51.477127 8.660270 32,000 299 455 0
2019-07-14 12:28:08 GMT 51.474289 8.668658 32,000 299 455 0
2019-07-14 12:28:05 GMT 51.471226 8.677673 32,000 299 455 0
2019-07-14 12:28:02 GMT 51.467224 8.689575 32,000 299 455 0
2019-07-14 12:27:56 GMT 51.462009 8.704987 32,000 299 455 0
2019-07-14 12:27:53 GMT 51.458176 8.716241 32,000 299 456 64
2019-07-14 12:27:47 GMT 51.453259 8.730850 32,000 299 456 -64
2019-07-14 12:27:44 GMT 51.448975 8.743558 32,000 299 456 0
2019-07-14 12:27:41 GMT 51.447159 8.748856 32,000 299 456 0
2019-07-14 12:27:36 GMT 51.441525 8.765488 32,000 299 456 0
2019-07-14 12:27:33 GMT 51.438950 8.773103 32,000 299 456 0
2019-07-14 12:27:30 GMT 51.436569 8.780006 32,000 299 456 0
2019-07-14 12:27:26 GMT 51.431259 8.795669 32,000 299 456 0
2019-07-14 12:27:23 GMT 51.428307 8.804474 32,000 299 456 0
2019-07-14 12:27:20 GMT 51.424896 8.814376 32,000 299 456 0
2019-07-14 12:27:17 GMT 51.422791 8.820537 32,000 299 456 0
2019-07-14 12:27:14 GMT 51.418762 8.832414 32,000 299 457 0
2019-07-14 12:27:10 GMT 51.415829 8.841095 32,000 299 456 0
2019-07-14 12:27:06 GMT 51.408279 8.863220 32,000 299 456 0
2019-07-14 12:27:03 GMT 51.408279 8.863220 32,000 299 456 0
2019-07-14 12:27:00 GMT 51.405167 8.872499 32,000 299 456 64
2019-07-14 12:26:56 GMT 51.401825 8.882224 32,000 299 456 0
2019-07-14 12:26:52 GMT 51.398209 8.892839 32,000 299 456 64
2019-07-14 12:26:49 GMT 51.395161 8.901749 32,000 299 456 0
2019-07-14 12:26:46 GMT 51.391529 8.912430 32,000 299 456 0
2019-07-14 12:26:43 GMT 51.388687 8.920670 32,000 299 456 0
2019-07-14 12:26:39 GMT 51.383652 8.935448 32,000 299 456 0
2019-07-14 12:26:33 GMT 51.378216 8.951416 32,000 299 456 -64
2019-07-14 12:26:29 GMT 51.374771 8.961503 32,000 299 456 -64
2019-07-14 12:26:26 GMT 51.365982 8.987188 32,000 299 456 -64
2019-07-14 12:26:21 GMT 51.362434 8.997498 32,000 299 456 0
2019-07-14 12:26:18 GMT 51.362434 8.997498 32,000 299 453 0
2019-07-14 12:26:15 GMT 51.360432 9.003448 32,000 299 456 -64
2019-07-14 12:26:11 GMT 51.356277 9.015544 32,000 299 456 -64
2019-07-14 12:26:08 GMT 51.352158 9.027570 32,000 299 456 0
2019-07-14 12:26:02 GMT 51.346573 9.043901 32,000 299 455 0
2019-07-14 12:25:59 GMT 51.343643 9.052363 32,000 299 456 0
2019-07-14 12:25:56 GMT 51.340603 9.061203 32,000 299 456 0
2019-07-14 12:25:53 GMT 51.337601 9.070030 32,000 299 456 0
2019-07-14 12:25:50 GMT 51.332840 9.083912 32,000 299 456 0
2019-07-14 12:25:47 GMT 51.329288 9.094238 32,000 299 456 64
2019-07-14 12:25:40 GMT 51.325333 9.105759 32,000 299 456 0
2019-07-14 12:25:37 GMT 51.322399 9.114227 32,000 299 456 64
2019-07-14 12:25:34 GMT 51.319061 9.123997 32,000 299 453 0
2019-07-14 12:25:30 GMT 51.313797 9.139215 32,000 299 455 0
2019-07-14 12:25:27 GMT 51.312103 9.144262 32,000 299 455 0
2019-07-14 12:25:24 GMT 51.309265 9.152502 32,000 299 455 0
2019-07-14 12:25:20 GMT 51.304779 9.165418 32,000 299 455 -64
2019-07-14 12:25:17 GMT 51.301357 9.175415 32,000 299 455 0
2019-07-14 12:25:14 GMT 51.298691 9.183086 32,000 299 455 0
2019-07-14 12:25:10 GMT 51.293839 9.197190 32,000 299 455 0
2019-07-14 12:25:07 GMT 51.291630 9.203644 32,000 299 455 0
2019-07-14 12:25:04 GMT 51.287476 9.215673 32,000 299 455 0
2019-07-14 12:25:01 GMT 51.285530 9.221268 32,000 299 455 0
2019-07-14 12:24:58 GMT 51.281479 9.232941 32,000 299 454 0
2019-07-14 12:24:55 GMT 51.278458 9.241803 32,000 299 454 0
2019-07-14 12:24:51 GMT 51.274590 9.252930 32,000 299 454 0
2019-07-14 12:24:48 GMT 51.272587 9.258804 32,000 299 454 0
2019-07-14 12:24:42 GMT 51.266491 9.276352 32,000 299 454 0
2019-07-14 12:24:39 GMT 51.259872 9.295399 32,000 299 454 0
2019-07-14 12:24:36 GMT 51.259872 9.295399 32,000 299 454 0
2019-07-14 12:24:30 GMT 51.254711 9.310379 32,000 299 454 0
2019-07-14 12:24:27 GMT 51.251312 9.320118 32,000 299 454 0
2019-07-14 12:24:23 GMT 51.247402 9.331436 32,000 299 454 0
2019-07-14 12:24:20 GMT 51.244354 9.340160 32,000 299 454 0
2019-07-14 12:24:17 GMT 51.241306 9.348984 32,000 300 454 0
2019-07-14 12:24:13 GMT 51.236252 9.363544 32,000 299 453 0
2019-07-14 12:24:10 GMT 51.233780 9.370596 32,000 300 454 0
2019-07-14 12:24:04 GMT 51.227478 9.388657 32,000 299 453 0
2019-07-14 12:24:01 GMT 51.225475 9.394531 32,000 299 453 0
2019-07-14 12:23:58 GMT 51.221008 9.407425 32,000 299 453 0
2019-07-14 12:23:55 GMT 51.217941 9.416174 32,000 300 451 0
2019-07-14 12:23:52 GMT 51.214493 9.426117 32,000 299 453 0
2019-07-14 12:23:49 GMT 51.207554 9.445953 32,000 300 454 0
2019-07-14 12:23:44 GMT 51.207554 9.445953 32,000 299 453 0
2019-07-14 12:23:41 GMT 51.204716 9.454193 32,000 300 454 0
2019-07-14 12:23:38 GMT 51.198616 9.471588 32,000 300 454 0
2019-07-14 12:23:32 GMT 51.195557 9.480310 32,000 300 454 0
2019-07-14 12:23:29 GMT 51.192261 9.489738 32,000 300 453 0
2019-07-14 12:23:25 GMT 51.187820 9.502357 32,000 300 454 0
2019-07-14 12:23:22 GMT 51.183701 9.514234 32,000 300 453 0
2019-07-14 12:23:19 GMT 51.178925 9.527740 32,000 300 453 0
2019-07-14 12:23:16 GMT 51.178925 9.527740 32,000 300 453 0
2019-07-14 12:23:13 GMT 51.175873 9.536504 32,000 300 453 0
2019-07-14 12:23:10 GMT 51.171799 9.548158 32,000 300 453 0
2019-07-14 12:23:07 GMT 51.169941 9.553452 32,000 300 453 0
2019-07-14 12:23:03 GMT 51.166264 9.563828 32,000 300 453 0
2019-07-14 12:23:00 GMT 51.162212 9.575348 32,000 300 451 0
2019-07-14 12:22:57 GMT 51.159279 9.583664 32,000 300 453 0
2019-07-14 12:22:53 GMT 51.152718 9.602203 32,000 300 453 0
2019-07-14 12:22:47 GMT 51.148407 9.614373 32,000 300 452 0
2019-07-14 12:22:43 GMT 51.144287 9.625953 32,000 300 452 0
2019-07-14 12:22:40 GMT 51.141731 9.633255 32,000 300 452 0
2019-07-14 12:22:36 GMT 51.137260 9.645615 32,000 300 451 0
2019-07-14 12:22:33 GMT 51.134605 9.653091 32,000 301 451 0
2019-07-14 12:22:30 GMT 51.132141 9.660034 32,000 297 452 0
2019-07-14 12:22:26 GMT 51.128220 9.670864 32,000 301 451 -64
2019-07-14 12:22:23 GMT 51.125065 9.679642 32,000 301 451 0
2019-07-14 12:22:20 GMT 51.120502 9.692307 32,000 301 451 0
2019-07-14 12:22:17 GMT 51.114899 9.707609 32,000 297 451 64
2019-07-14 12:22:14 GMT 51.114899 9.707609 32,000 300 451 -64
2019-07-14 12:22:11 GMT 51.110912 9.718704 32,000 300 451 -64
2019-07-14 12:22:08 GMT 51.107803 9.727354 32,000 300 452 64
2019-07-14 12:22:05 GMT 51.105835 9.732996 32,000 300 452 64
2019-07-14 12:22:01 GMT 51.101212 9.747026 32,000 297 453 0
2019-07-14 12:21:58 GMT 51.099335 9.752964 32,000 297 452 64
2019-07-14 12:21:55 GMT 51.097046 9.760313 32,000 297 452 0
2019-07-14 12:21:52 GMT 51.093502 9.771500 32,000 297 452 64
2019-07-14 12:21:49 GMT 51.090683 9.780430 32,000 297 452 64
2019-07-14 12:21:46 GMT 51.086929 9.792456 32,000 297 453 0
2019-07-14 12:21:41 GMT 51.080421 9.813080 32,000 297 453 0
2019-07-14 12:21:38 GMT 51.080421 9.813080 32,000 297 453 -64
2019-07-14 12:21:34 GMT 51.076649 9.825134 32,000 297 453 0
2019-07-14 12:21:31 GMT 51.070908 9.843453 32,000 297 453 -64
2019-07-14 12:21:28 GMT 51.067291 9.854889 32,000 297 453 -64
2019-07-14 12:21:25 GMT 51.067291 9.854889 32,000 297 453 0
2019-07-14 12:21:22 GMT 51.065323 9.861269 32,000 297 452 0
2019-07-14 12:21:17 GMT 51.060589 9.876251 32,000 297 452 64
2019-07-14 12:21:14 GMT 51.057983 9.884567 32,000 297 452 0
2019-07-14 12:21:11 GMT 51.054211 9.896469 32,000 297 450 0
2019-07-14 12:21:08 GMT 51.051407 9.905363 32,000 297 453 64
2019-07-14 12:21:05 GMT 51.049530 9.911301 32,000 297 453 0
2019-07-14 12:21:02 GMT 51.046555 9.920803 32,000 297 453 0
2019-07-14 12:20:59 GMT 51.043167 9.931492 32,000 297 453 0
2019-07-14 12:20:56 GMT 51.041084 9.938049 32,000 297 453 0
2019-07-14 12:20:52 GMT 51.037262 9.950199 32,000 297 453 0
2019-07-14 12:20:48 GMT 51.030029 9.972988 32,000 297 453 -64
2019-07-14 12:20:45 GMT 51.030029 9.972988 32,000 297 453 64
2019-07-14 12:20:41 GMT 51.027630 9.980698 32,000 297 453 64
2019-07-14 12:20:37 GMT 51.023113 9.994965 32,000 297 453 0
2019-07-14 12:20:34 GMT 51.020645 10.002606 32,000 297 453 0
2019-07-14 12:20:31 GMT 51.016739 10.015106 32,000 297 453 0
2019-07-14 12:20:28 GMT 51.014828 10.020981 32,000 297 453 0
2019-07-14 12:20:25 GMT 51.011261 10.032225 32,000 297 452 0
2019-07-14 12:20:22 GMT 51.008823 10.039978 32,000 297 452 0
2019-07-14 12:20:16 GMT 51.003754 10.055905 32,000 297 451 -64
2019-07-14 12:20:13 GMT 51.000629 10.065765 32,000 297 452 64
2019-07-14 12:20:10 GMT 50.997929 10.074234 32,000 297 452 0
2019-07-14 12:20:06 GMT 50.994160 10.086060 32,000 297 451 0
2019-07-14 12:20:03 GMT 50.990391 10.097885 32,000 297 451 -64
2019-07-14 12:19:59 GMT 50.987038 10.108490 32,000 297 451 64
2019-07-14 12:19:55 GMT 50.984619 10.116107 32,000 297 450 -64
2019-07-14 12:19:52 GMT 50.980087 10.130285 32,000 297 450 0
2019-07-14 12:19:48 GMT 50.977261 10.139084 32,000 297 450 -64
2019-07-14 12:19:45 GMT 50.974091 10.149140 32,000 297 450 0
2019-07-14 12:19:42 GMT 50.971722 10.156479 32,000 297 450 0
2019-07-14 12:19:39 GMT 50.969021 10.165024 32,000 297 450 0
2019-07-14 12:19:36 GMT 50.965996 10.174408 32,000 297 450 -64
2019-07-14 12:19:33 GMT 50.960361 10.192032 32,000 297 450 0
2019-07-14 12:19:30 GMT 50.960361 10.192032 32,000 297 450 0
2019-07-14 12:19:27 GMT 50.953983 10.212021 32,000 297 450 0
2019-07-14 12:19:24 GMT 50.953983 10.212021 32,000 297 450 0
2019-07-14 12:19:21 GMT 50.952217 10.217590 32,000 297 450 -64
2019-07-14 12:19:18 GMT 50.945744 10.237885 32,000 297 450 0
2019-07-14 12:19:15 GMT 50.945744 10.237885 32,000 297 450 0
2019-07-14 12:19:12 GMT 50.943462 10.244904 32,000 297 450 0
2019-07-14 12:19:07 GMT 50.938950 10.259018 32,000 297 449 0
2019-07-14 12:19:04 GMT 50.932941 10.277786 32,000 297 449 64
2019-07-14 12:19:01 GMT 50.928429 10.291824 32,000 297 449 64
2019-07-14 12:18:57 GMT 50.928429 10.291824 32,000 297 449 0
2019-07-14 12:18:54 GMT 50.926483 10.297975 32,000 297 450 -64
2019-07-14 12:18:51 GMT 50.921307 10.314102 32,000 297 450 -64
2019-07-14 12:18:45 GMT 50.918095 10.324097 32,000 297 450 0
2019-07-14 12:18:39 GMT 50.911484 10.344620 32,000 297 450 -64
2019-07-14 12:18:36 GMT 50.908550 10.353775 32,000 297 450 -64
2019-07-14 12:18:33 GMT 50.906593 10.359879 32,000 297 450 0
2019-07-14 12:18:29 GMT 50.903366 10.369832 32,000 297 449 64
2019-07-14 12:18:25 GMT 50.898682 10.384521 32,000 297 449 64
2019-07-14 12:18:22 GMT 50.896400 10.391541 32,000 297 449 -64
2019-07-14 12:18:19 GMT 50.893570 10.400341 32,000 298 450 0
2019-07-14 12:18:15 GMT 50.886063 10.423724 32,000 297 449 -64
2019-07-14 12:18:12 GMT 50.886063 10.423724 32,000 297 449 -64
2019-07-14 12:18:08 GMT 50.883224 10.432510 32,000 298 450 64
2019-07-14 12:18:05 GMT 50.880199 10.441895 32,000 298 450 64
2019-07-14 12:18:02 GMT 50.874519 10.459442 32,000 298 450 0
2019-07-14 12:17:59 GMT 50.874519 10.459442 32,000 298 450 0
2019-07-14 12:17:55 GMT 50.870377 10.472336 32,000 298 450 -64
2019-07-14 12:17:52 GMT 50.864281 10.491104 32,000 298 450 0
2019-07-14 12:17:49 GMT 50.864281 10.491104 32,000 298 450 0
2019-07-14 12:17:46 GMT 50.861626 10.499268 32,000 298 450 64
2019-07-14 12:17:43 GMT 50.858646 10.508575 32,000 298 450 -64
2019-07-14 12:17:36 GMT 50.852417 10.527797 32,000 298 450 64
2019-07-14 12:17:33 GMT 50.847240 10.543823 32,000 298 450 0
2019-07-14 12:17:27 GMT 50.843422 10.555496 32,000 298 450 -64
2019-07-14 12:17:23 GMT 50.838116 10.571899 32,000 298 450 0
2019-07-14 12:17:16 GMT 50.833008 10.587628 32,000 298 450 0
2019-07-14 12:17:13 GMT 50.830994 10.593872 32,000 298 449 64
2019-07-14 12:17:10 GMT 50.828110 10.602846 32,000 298 449 -64
2019-07-14 12:17:07 GMT 50.820190 10.627120 32,000 298 449 64
2019-07-14 12:17:02 GMT 50.820190 10.627120 32,000 298 449 0
2019-07-14 12:16:59 GMT 50.817902 10.634172 32,000 298 449 0
2019-07-14 12:16:56 GMT 50.815201 10.642486 32,000 298 449 0
2019-07-14 12:16:52 GMT 50.810349 10.657481 32,000 298 449 64
2019-07-14 12:16:46 GMT 50.805359 10.672772 32,000 298 449 -64
2019-07-14 12:16:43 GMT 50.803070 10.679824 32,000 298 449 -64
2019-07-14 12:16:39 GMT 50.798904 10.692592 32,000 298 449 -64
2019-07-14 12:16:36 GMT 50.796032 10.701370 32,000 298 449 -64
2019-07-14 12:16:33 GMT 50.793182 10.710111 32,000 298 449 -64
2019-07-14 12:16:29 GMT 50.789017 10.722953 32,000 298 449 0
2019-07-14 12:16:26 GMT 50.786728 10.729931 32,000 298 449 0
2019-07-14 12:16:23 GMT 50.783558 10.739594 32,000 298 449 64
2019-07-14 12:16:18 GMT 50.777985 10.756580 32,000 298 448 0
2019-07-14 12:16:15 GMT 50.776062 10.762482 32,000 298 448 0
2019-07-14 12:16:12 GMT 50.773270 10.770950 32,000 298 449 -64
2019-07-14 12:16:08 GMT 50.768829 10.784566 32,000 298 449 0
2019-07-14 12:16:04 GMT 50.764843 10.796738 32,000 298 449 0
2019-07-14 12:16:01 GMT 50.762936 10.802536 32,000 298 449 0
2019-07-14 12:15:58 GMT 50.760178 10.811066 32,000 298 449 0
2019-07-14 12:15:55 GMT 50.756332 10.822795 32,000 298 449 0
2019-07-14 12:15:51 GMT 50.753998 10.829847 32,000 298 449 -64
2019-07-14 12:15:48 GMT 50.750977 10.839126 32,000 298 449 0
2019-07-14 12:15:45 GMT 50.747589 10.849444 32,000 298 449 0
2019-07-14 12:15:42 GMT 50.745255 10.856571 32,000 298 449 0
2019-07-14 12:15:39 GMT 50.742031 10.866394 32,000 298 449 0
2019-07-14 12:15:36 GMT 50.739166 10.875054 32,000 298 449 64
2019-07-14 12:15:31 GMT 50.734634 10.889010 32,000 298 449 0
2019-07-14 12:15:28 GMT 50.730789 10.900664 32,000 298 449 0
2019-07-14 12:15:25 GMT 50.728348 10.908203 32,000 298 449 64
2019-07-14 12:15:22 GMT 50.725647 10.916290 32,000 298 449 -64
2019-07-14 12:15:19 GMT 50.721828 10.927963 32,000 298 449 0
2019-07-14 12:15:16 GMT 50.718979 10.936667 32,000 298 449 0
2019-07-14 12:15:13 GMT 50.717640 10.940704 32,000 298 449 0
2019-07-14 12:15:10 GMT 50.713497 10.953217 32,000 298 448 0
2019-07-14 12:15:06 GMT 50.710144 10.963390 32,000 298 449 64
2019-07-14 12:15:03 GMT 50.706886 10.973282 32,000 298 448 0
2019-07-14 12:14:59 GMT 50.703644 10.983136 32,000 298 448 0
2019-07-14 12:14:56 GMT 50.701355 10.990040 32,000 298 448 0
2019-07-14 12:14:53 GMT 50.697922 11.000506 32,000 298 448 0
2019-07-14 12:14:50 GMT 50.694691 11.010284 32,000 298 448 -64
2019-07-14 12:14:47 GMT 50.692200 11.017802 32,000 298 448 -64
2019-07-14 12:14:44 GMT 50.688545 11.028824 32,000 298 448 64
2019-07-14 12:14:41 GMT 50.686634 11.034622 32,000 298 448 -64
2019-07-14 12:14:37 GMT 50.683411 11.044452 32,000 298 448 0
2019-07-14 12:14:34 GMT 50.679977 11.054844 32,000 298 448 0
2019-07-14 12:14:31 GMT 50.676720 11.064682 32,000 298 448 0
2019-07-14 12:14:28 GMT 50.674210 11.072140 32,000 298 448 0
2019-07-14 12:14:25 GMT 50.670776 11.082603 32,000 298 448 0
2019-07-14 12:14:22 GMT 50.667709 11.091927 32,000 298 448 0
2019-07-14 12:14:18 GMT 50.664230 11.102335 32,000 298 449 64
2019-07-14 12:14:15 GMT 50.662308 11.108117 32,000 298 449 64
2019-07-14 12:14:12 GMT 50.659077 11.117941 32,000 298 448 0
2019-07-14 12:14:09 GMT 50.656376 11.126033 32,000 298 448 64
2019-07-14 12:14:06 GMT 50.649487 11.146818 32,000 298 449 -64
2019-07-14 12:14:03 GMT 50.649487 11.146818 32,000 298 448 0
2019-07-14 12:14:00 GMT 50.647205 11.153647 32,000 298 448 0
2019-07-14 12:13:56 GMT 50.642967 11.166415 32,000 298 448 0
2019-07-14 12:13:53 GMT 50.637241 11.183785 32,000 298 448 0
2019-07-14 12:13:50 GMT 50.637241 11.183785 32,000 298 448 0
2019-07-14 12:13:47 GMT 50.635117 11.190153 32,000 298 448 64
2019-07-14 12:13:44 GMT 50.632050 11.199333 32,000 298 446 0
2019-07-14 12:13:41 GMT 50.628983 11.208584 32,000 298 448 64
2019-07-14 12:13:38 GMT 50.626583 11.215853 32,000 298 448 0
2019-07-14 12:13:35 GMT 50.620346 11.234486 32,000 298 448 0
2019-07-14 12:13:32 GMT 50.620346 11.234486 32,000 298 448 0
2019-07-14 12:13:29 GMT 50.617081 11.244290 32,000 298 447 0
2019-07-14 12:13:24 GMT 50.609802 11.266118 32,000 298 447 0
2019-07-14 12:13:21 GMT 50.609802 11.266118 32,000 298 446 0
2019-07-14 12:13:18 GMT 50.607311 11.273606 32,000 298 446 0
2019-07-14 12:13:14 GMT 50.603539 11.284889 32,000 298 446 0
2019-07-14 12:13:11 GMT 50.596977 11.304635 32,000 298 446 0
2019-07-14 12:13:08 GMT 50.596977 11.304635 32,000 298 445 0
2019-07-14 12:13:02 GMT 50.588551 11.329874 32,000 298 445 64
2019-07-14 12:12:59 GMT 50.588551 11.329874 32,000 298 445 64
2019-07-14 12:12:56 GMT 50.585850 11.337816 32,000 298 445 0
2019-07-14 12:12:53 GMT 50.582870 11.346798 32,000 298 445 0
2019-07-14 12:12:50 GMT 50.579132 11.357912 32,000 298 445 0
2019-07-14 12:12:44 GMT 50.573822 11.373741 32,000 298 445 -64
2019-07-14 12:12:41 GMT 50.571899 11.379595 32,000 298 445 0
2019-07-14 12:12:38 GMT 50.568626 11.389259 32,000 298 445 0
2019-07-14 12:12:35 GMT 50.565765 11.397882 32,000 298 445 0
2019-07-14 12:12:31 GMT 50.561966 11.409157 32,000 298 445 0
2019-07-14 12:12:28 GMT 50.559631 11.416096 32,000 298 445 0
2019-07-14 12:12:25 GMT 50.556431 11.425633 32,000 298 445 64
2019-07-14 12:12:22 GMT 50.552353 11.437779 32,000 298 445 64
2019-07-14 12:12:19 GMT 50.546631 11.454837 32,000 298 445 0
2019-07-14 12:12:16 GMT 50.546631 11.454837 32,000 298 445 0
2019-07-14 12:12:13 GMT 50.544708 11.460619 32,000 298 445 64
2019-07-14 12:12:10 GMT 50.541439 11.470395 32,000 298 445 0
2019-07-14 12:12:07 GMT 50.539482 11.476036 32,000 298 445 0
2019-07-14 12:12:04 GMT 50.535667 11.487468 32,000 298 445 64
2019-07-14 12:12:01 GMT 50.530640 11.502314 32,000 298 446 64
2019-07-14 12:11:58 GMT 50.530640 11.502314 32,000 298 446 64
2019-07-14 12:11:54 GMT 50.526867 11.513598 32,000 298 445 64
2019-07-14 12:11:51 GMT 50.523926 11.522345 32,000 298 445 -64
2019-07-14 12:11:48 GMT 50.516968 11.542945 32,000 298 445 64
2019-07-14 12:11:45 GMT 50.516968 11.542945 32,000 298 445 64
2019-07-14 12:11:42 GMT 50.515091 11.548582 32,000 298 445 64
2019-07-14 12:11:39 GMT 50.509087 11.566377 32,000 298 446 64
2019-07-14 12:11:36 GMT 50.509087 11.566377 32,000 298 445 0
2019-07-14 12:11:33 GMT 50.506058 11.575359 32,000 298 446 -64
2019-07-14 12:11:30 GMT 50.503311 11.583524 32,000 298 446 -64
2019-07-14 12:11:27 GMT 50.498108 11.598888 32,000 298 446 64
2019-07-14 12:11:21 GMT 50.494675 11.608935 32,000 298 446 0
2019-07-14 12:11:18 GMT 50.491928 11.617102 32,000 298 445 0
2019-07-14 12:11:14 GMT 50.488083 11.628522 32,000 298 445 0
2019-07-14 12:11:10 GMT 50.483665 11.641648 32,000 298 446 0
2019-07-14 12:11:07 GMT 50.481537 11.647893 32,000 299 445 0
2019-07-14 12:11:04 GMT 50.477474 11.659835 32,000 299 445 0
2019-07-14 12:11:01 GMT 50.475941 11.664437 32,000 299 445 0
2019-07-14 12:10:57 GMT 50.471703 11.676908 32,000 299 445 0
2019-07-14 12:10:54 GMT 50.468678 11.685742 32,000 299 445 0
2019-07-14 12:10:51 GMT 50.465885 11.693981 32,000 299 445 0
2019-07-14 12:10:48 GMT 50.461945 11.705716 32,000 299 445 -64
2019-07-14 12:10:45 GMT 50.459930 11.711643 32,000 299 445 0
2019-07-14 12:10:42 GMT 50.456669 11.721299 32,000 299 445 -64
2019-07-14 12:10:39 GMT 50.449310 11.742900 32,000 299 445 -64
2019-07-14 12:10:35 GMT 50.447777 11.747503 32,000 299 445 -64
2019-07-14 12:10:32 GMT 50.444550 11.756961 32,000 299 445 -64
2019-07-14 12:10:26 GMT 50.441437 11.766068 32,000 299 445 0
2019-07-14 12:10:22 GMT 50.437347 11.778160 32,000 299 445 0
2019-07-14 12:10:18 GMT 50.434799 11.785583 32,000 299 445 0
2019-07-14 12:10:15 GMT 50.427666 11.806517 32,000 299 445 0
2019-07-14 12:10:12 GMT 50.427666 11.806517 32,000 299 444 0
2019-07-14 12:10:09 GMT 50.425140 11.813917 32,000 299 444 0
2019-07-14 12:10:06 GMT 50.422264 11.822403 32,000 299 444 -64
2019-07-14 12:10:02 GMT 50.417404 11.836612 32,000 299 444 0
2019-07-14 12:09:59 GMT 50.414585 11.844895 32,000 299 444 0
2019-07-14 12:09:56 GMT 50.412209 11.851873 32,000 299 444 0
2019-07-14 12:09:53 GMT 50.409882 11.858702 32,000 299 444 64
2019-07-14 12:09:49 GMT 50.406017 11.870059 32,000 299 444 64
2019-07-14 12:09:46 GMT 50.402710 11.879618 32,000 299 444 0
2019-07-14 12:09:42 GMT 50.399826 11.888098 32,000 299 443 -64
2019-07-14 12:09:39 GMT 50.396164 11.898844 32,000 299 443 0
2019-07-14 12:09:35 GMT 50.392471 11.909625 32,000 299 443 64
2019-07-14 12:09:32 GMT 50.389492 11.918310 32,000 299 443 0
2019-07-14 12:09:29 GMT 50.386700 11.926550 32,000 299 442 0
2019-07-14 12:09:25 GMT 50.382046 11.940060 32,000 299 442 0
2019-07-14 12:09:22 GMT 50.378769 11.949656 32,000 299 442 0
2019-07-14 12:09:19 GMT 50.377014 11.954684 32,000 299 442 0
2019-07-14 12:09:16 GMT 50.374146 11.963172 32,000 299 442 0
2019-07-14 12:09:13 GMT 50.372036 11.969382 32,000 299 442 0
2019-07-14 12:09:10 GMT 50.368546 11.979477 32,000 299 442 0
2019-07-14 12:09:07 GMT 50.365265 11.989047 32,000 299 441 64
2019-07-14 12:09:04 GMT 50.359699 12.005310 32,000 299 441 -64
2019-07-14 12:09:01 GMT 50.359699 12.005310 32,000 299 441 0
2019-07-14 12:08:58 GMT 50.356579 12.014292 32,000 299 441 64
2019-07-14 12:08:53 GMT 50.352173 12.027210 32,000 299 441 -64
2019-07-14 12:08:50 GMT 50.348480 12.037824 32,000 299 440 64
2019-07-14 12:08:47 GMT 50.345406 12.046880 32,000 299 440 -64
2019-07-14 12:08:44 GMT 50.343079 12.053561 32,000 299 440 64
2019-07-14 12:08:40 GMT 50.339447 12.064217 32,000 299 439 0
2019-07-14 12:08:37 GMT 50.335968 12.074264 32,000 299 440 64
2019-07-14 12:08:33 GMT 50.332123 12.085467 32,000 299 439 0
2019-07-14 12:08:26 GMT 50.325943 12.103320 32,000 299 439 64
2019-07-14 12:08:23 GMT 50.322968 12.112065 32,000 299 439 64
2019-07-14 12:08:19 GMT 50.319244 12.122893 32,000 299 439 0
2019-07-14 12:08:16 GMT 50.316128 12.131801 32,000 299 439 64
2019-07-14 12:08:13 GMT 50.313427 12.139670 32,000 299 438 -64
2019-07-14 12:08:10 GMT 50.310352 12.148578 32,000 299 439 0
2019-07-14 12:08:07 GMT 50.303650 12.167937 32,000 299 438 0
2019-07-14 12:08:03 GMT 50.303650 12.167937 32,000 299 438 0
2019-07-14 12:08:00 GMT 50.299759 12.179212 32,000 299 438 0
2019-07-14 12:07:57 GMT 50.298435 12.183021 32,000 299 438 -64
2019-07-14 12:07:53 GMT 50.293827 12.196457 32,000 299 438 0
2019-07-14 12:07:50 GMT 50.288799 12.210933 32,000 299 438 -64
2019-07-14 12:07:47 GMT 50.285309 12.220954 32,000 299 438 0
2019-07-14 12:07:44 GMT 50.285309 12.220954 32,000 299 438 -64
2019-07-14 12:07:41 GMT 50.282501 12.229084 32,000 299 438 -64
2019-07-14 12:07:37 GMT 50.278744 12.239883 32,000 299 438 -64
2019-07-14 12:07:33 GMT 50.274136 12.253171 32,000 299 438 64
2019-07-14 12:07:30 GMT 50.272228 12.258812 32,000 299 438 64
2019-07-14 12:07:27 GMT 50.269527 12.266607 32,000 299 438 64
2019-07-14 12:07:22 GMT 50.261799 12.288802 32,000 299 438 -64
2019-07-14 12:07:16 GMT 50.258514 12.298255 32,000 299 439 -64
2019-07-14 12:07:12 GMT 50.254623 12.309386 32,000 299 439 -64
2019-07-14 12:07:09 GMT 50.250954 12.319905 32,000 299 438 64
2019-07-14 12:07:05 GMT 50.248444 12.327166 32,000 299 437 -64
2019-07-14 12:07:02 GMT 50.244854 12.337498 32,000 299 438 0
2019-07-14 12:06:59 GMT 50.242901 12.343140 32,000 299 438 0
2019-07-14 12:06:54 GMT 50.236660 12.361030 32,000 299 438 0
2019-07-14 12:06:49 GMT 50.231308 12.376396 32,000 299 439 -64
2019-07-14 12:06:46 GMT 50.228760 12.383760 32,000 299 438 -64
2019-07-14 12:06:43 GMT 50.225491 12.393024 32,000 299 438 64
2019-07-14 12:06:40 GMT 50.223579 12.398517 32,000 299 438 64
2019-07-14 12:06:36 GMT 50.219296 12.410913 32,000 299 438 0
2019-07-14 12:06:32 GMT 50.213058 12.428655 32,000 299 439 -64
2019-07-14 12:06:29 GMT 50.210541 12.435873 32,000 299 438 0
2019-07-14 12:06:26 GMT 50.206284 12.448160 32,000 299 438 -64
2019-07-14 12:06:22 GMT 50.206284 12.448160 32,000 299 439 0
2019-07-14 12:06:19 GMT 50.202759 12.458207 32,000 299 439 -64
2019-07-14 12:06:13 GMT 50.196945 12.474831 32,000 299 439 -64
2019-07-14 12:06:10 GMT 50.194439 12.482028 32,000 299 439 128
2019-07-14 12:06:07 GMT 50.191498 12.490371 32,000 299 439 -128
2019-07-14 12:06:04 GMT 50.188797 12.498105 32,000 299 439 -64
2019-07-14 12:06:00 GMT 50.184708 12.509790 32,000 299 439 -128
2019-07-14 12:05:57 GMT 50.181171 12.519737 32,000 299 439 -64
2019-07-14 12:05:53 GMT 50.178223 12.528100 32,000 300 436 0
2019-07-14 12:05:50 GMT 50.174934 12.537479 32,000 299 438 64
2019-07-14 12:05:45 GMT 50.169662 12.552386 32,000 299 438 0
2019-07-14 12:05:42 GMT 50.163437 12.570022 32,000 300 436 0
2019-07-14 12:05:38 GMT 50.163437 12.570022 32,000 300 436 0
2019-07-14 12:05:35 GMT 50.159340 12.581573 32,000 299 437 -64
2019-07-14 12:05:32 GMT 50.157166 12.587658 32,000 300 436 0
2019-07-14 12:05:29 GMT 50.149933 12.607925 32,000 300 436 64
2019-07-14 12:05:24 GMT 50.149933 12.607925 32,000 300 436 0
2019-07-14 12:05:21 GMT 50.146816 12.616684 32,000 300 436 -64
2019-07-14 12:05:17 GMT 50.141876 12.630374 32,000 300 436 0
2019-07-14 12:05:14 GMT 50.137413 12.642888 32,000 300 436 0
2019-07-14 12:05:08 GMT 50.133636 12.653359 32,000 299 436 64
2019-07-14 12:05:03 GMT 50.126099 12.674660 32,000 300 435 0
2019-07-14 12:04:57 GMT 50.123352 12.682528 32,000 301 435 -64
2019-07-14 12:04:53 GMT 50.119862 12.692401 32,000 300 435 0
2019-07-14 12:04:50 GMT 50.116974 12.700340 32,000 301 435 -64
2019-07-14 12:04:45 GMT 50.112274 12.712889 32,000 303 434 0
2019-07-14 12:04:42 GMT 50.108131 12.723504 32,000 302 435 64
2019-07-14 12:04:39 GMT 50.105522 12.729962 32,000 303 434 -64
2019-07-14 12:04:35 GMT 50.100357 12.742582 32,000 305 434 0
2019-07-14 12:04:31 GMT 50.095467 12.754088 32,000 305 434 0
2019-07-14 12:04:27 GMT 50.091885 12.762253 32,000 310 432 64
2019-07-14 12:04:24 GMT 50.088207 12.770493 32,000 307 433 64
2019-07-14 12:04:19 GMT 50.083038 12.781479 32,000 308 433 0
2019-07-14 12:04:16 GMT 50.077641 12.792391 32,000 309 432 -64
2019-07-14 12:04:13 GMT 50.075218 12.797142 32,000 310 430 -64
2019-07-14 12:04:10 GMT 50.072433 12.802469 32,000 310 432 0
2019-07-14 12:04:06 GMT 50.066559 12.813696 32,000 310 432 0
2019-07-14 12:04:03 GMT 50.063023 12.820451 32,000 310 432 0
2019-07-14 12:04:00 GMT 50.059483 12.827206 32,000 310 432 -64
2019-07-14 12:03:57 GMT 50.054810 12.836151 32,000 310 432 64
2019-07-14 12:03:52 GMT 50.048676 12.847860 32,000 310 432 0
2019-07-14 12:03:49 GMT 50.046158 12.852631 32,000 310 432 0
2019-07-14 12:03:46 GMT 50.041374 12.861798 32,000 310 431 0
2019-07-14 12:03:43 GMT 50.032810 12.878055 32,000 310 430 -64
2019-07-14 12:03:39 GMT 50.032810 12.878055 32,000 310 430 -64
2019-07-14 12:03:36 GMT 50.023499 12.895781 32,000 310 430 -64
2019-07-14 12:03:33 GMT 50.023499 12.895781 32,000 310 430 -64
2019-07-14 12:03:29 GMT 50.013977 12.913923 32,000 310 427 0
2019-07-14 12:03:25 GMT 50.013977 12.913923 32,000 310 429 0
2019-07-14 12:03:22 GMT 50.008438 12.924403 32,000 310 427 64
2019-07-14 12:03:18 GMT 50.001022 12.938497 32,000 310 429 0
2019-07-14 12:03:14 GMT 50.001022 12.938497 32,000 310 429 -64
2019-07-14 12:03:11 GMT 49.997242 12.945680 32,000 310 429 0
2019-07-14 12:03:06 GMT 49.990860 12.957868 32,000 310 429 -64
2019-07-14 12:03:03 GMT 49.987701 12.963867 32,000 310 429 -64
2019-07-14 12:03:00 GMT 49.979553 12.979307 32,000 310 429 0
2019-07-14 12:02:54 GMT 49.975296 12.987430 32,000 310 429 64
2019-07-14 12:02:51 GMT 49.970856 12.995814 32,000 310 427 64
2019-07-14 12:02:48 GMT 49.968384 13.000512 32,000 310 429 64
2019-07-14 12:02:45 GMT 49.964981 13.006922 32,000 310 429 0
2019-07-14 12:02:42 GMT 49.959732 13.016920 32,000 310 429 0
2019-07-14 12:02:38 GMT 49.955795 13.024364 32,000 310 427 0
2019-07-14 12:02:35 GMT 49.952179 13.031158 32,000 310 428 0
2019-07-14 12:02:32 GMT 49.948456 13.038322 32,000 310 428 0
2019-07-14 12:02:29 GMT 49.938766 13.056600 32,000 310 427 64
2019-07-14 12:02:26 GMT 49.938766 13.056600 32,000 310 427 64
2019-07-14 12:02:23 GMT 49.936157 13.061515 32,000 310 427 64
2019-07-14 12:02:20 GMT 49.928905 13.075215 32,000 310 427 64
2019-07-14 12:02:17 GMT 49.928905 13.075215 32,000 310 427 -64
2019-07-14 12:02:14 GMT 49.925926 13.080857 32,000 310 427 -64
2019-07-14 12:02:11 GMT 49.922150 13.087969 32,000 310 427 0
2019-07-14 12:02:07 GMT 49.917160 13.097438 32,000 310 427 0
2019-07-14 12:02:03 GMT 49.907536 13.115597 32,000 310 427 64
2019-07-14 12:01:59 GMT 49.907536 13.115597 32,000 310 426 0
2019-07-14 12:01:56 GMT 49.903023 13.124134 32,000 310 427 0
2019-07-14 12:01:52 GMT 49.897156 13.135167 32,000 310 427 64
2019-07-14 12:01:48 GMT 49.893265 13.142467 32,000 310 427 64
2019-07-14 12:01:45 GMT 49.889648 13.149334 32,000 310 427 -64
2019-07-14 12:01:41 GMT 49.884914 13.158281 32,000 310 427 0
2019-07-14 12:01:35 GMT 49.873367 13.180031 32,000 310 427 0
2019-07-14 12:01:29 GMT 49.862640 13.200290 32,000 310 427 64
2019-07-14 12:01:24 GMT 49.862640 13.200290 32,000 310 427 0
2019-07-14 12:01:19 GMT 49.856979 13.210911 32,000 310 427 -64
2019-07-14 12:01:13 GMT 49.848324 13.227094 32,000 310 427 64
2019-07-14 12:01:10 GMT 49.845810 13.231845 32,000 310 427 0
2019-07-14 12:01:07 GMT 49.842041 13.238887 32,000 310 425 -64
2019-07-14 12:01:04 GMT 49.837894 13.246691 32,000 310 427 64
2019-07-14 12:01:00 GMT 49.832260 13.257306 32,000 310 427 0
2019-07-14 12:00:56 GMT 49.826981 13.267220 32,000 310 427 -64
2019-07-14 12:00:51 GMT 49.821487 13.277556 32,000 310 427 0
2019-07-14 12:00:48 GMT 49.818714 13.282693 32,000 310 427 0
2019-07-14 12:00:45 GMT 49.814438 13.290710 32,000 310 427 64
2019-07-14 12:00:41 GMT 49.807938 13.302926 32,000 310 423 -192
2019-07-14 12:00:38 GMT 49.804749 13.308897 32,000 310 426 0
2019-07-14 12:00:32 GMT 49.792969 13.330970 32,000 310 426 0
2019-07-14 12:00:28 GMT 49.792969 13.330970 32,000 310 426 64
2019-07-14 12:00:22 GMT 49.784866 13.346076 32,000 310 425 -64
2019-07-14 12:00:19 GMT 49.781387 13.352653 32,000 310 425 -64
2019-07-14 12:00:12 GMT 49.772369 13.369494 32,000 310 425 0
2019-07-14 12:00:07 GMT 49.766670 13.380160 32,000 310 425 0
2019-07-14 12:00:03 GMT 49.761642 13.389513 32,000 310 424 0
2019-07-14 12:00:00 GMT 49.758709 13.395006 32,000 310 424 64
2019-07-14 11:59:56 GMT 49.747879 13.415174 32,000 310 424 0
2019-07-14 11:59:52 GMT 49.747879 13.415174 32,000 310 424 0
2019-07-14 11:59:49 GMT 49.744186 13.422101 32,000 310 424 64
2019-07-14 11:59:46 GMT 49.734642 13.439917 32,000 310 424 -64
2019-07-14 11:59:41 GMT 49.734642 13.439917 32,000 310 424 64
2019-07-14 11:59:37 GMT 49.729889 13.448783 32,000 310 424 64
2019-07-14 11:59:34 GMT 49.724167 13.459440 32,000 310 424 -64
2019-07-14 11:59:31 GMT 49.722382 13.462733 32,000 310 424 0
2019-07-14 11:59:28 GMT 49.718769 13.469535 32,000 310 424 -64
2019-07-14 11:59:25 GMT 49.714417 13.477623 32,000 310 424 -64
2019-07-14 11:59:22 GMT 49.710762 13.484456 32,000 310 424 0
2019-07-14 11:59:16 GMT 49.702194 13.500341 32,000 310 424 64
2019-07-14 11:59:12 GMT 49.698944 13.506389 32,000 310 424 -64
2019-07-14 11:59:08 GMT 49.691723 13.519864 32,000 310 424 0
2019-07-14 11:59:05 GMT 49.689159 13.524541 32,000 310 424 0
2019-07-14 11:59:02 GMT 49.686134 13.530183 32,000 310 424 0
2019-07-14 11:58:59 GMT 49.676880 13.547371 32,000 310 424 0
2019-07-14 11:58:53 GMT 49.674362 13.552069 32,000 310 424 0
2019-07-14 11:58:49 GMT 49.669098 13.561806 32,000 310 424 64
2019-07-14 11:58:45 GMT 49.664383 13.570645 32,000 310 424 -64
2019-07-14 11:58:42 GMT 49.660355 13.578017 32,000 310 424 0
2019-07-14 11:58:35 GMT 49.651592 13.594245 32,000 310 423 0
2019-07-14 11:58:32 GMT 49.648567 13.599887 32,000 310 424 64
2019-07-14 11:58:24 GMT 49.637020 13.621265 32,000 310 424 -64
2019-07-14 11:58:18 GMT 49.630783 13.632804 32,000 310 423 64
2019-07-14 11:58:14 GMT 49.624741 13.644008 32,000 310 423 64
2019-07-14 11:58:11 GMT 49.622223 13.648633 32,000 310 423 64
2019-07-14 11:58:08 GMT 49.617981 13.656525 32,000 310 424 64
2019-07-14 11:58:04 GMT 49.612488 13.666695 32,000 310 423 64
2019-07-14 11:58:00 GMT 49.600754 13.688387 32,000 310 423 -64
2019-07-14 11:57:55 GMT 49.600754 13.688387 32,000 310 423 -64
2019-07-14 11:57:52 GMT 49.597450 13.694458 32,000 310 424 64
2019-07-14 11:57:49 GMT 49.593960 13.700916 32,000 310 424 0
2019-07-14 11:57:43 GMT 49.586468 13.714723 32,000 310 423 64
2019-07-14 11:57:40 GMT 49.579346 13.727862 32,000 310 423 0
2019-07-14 11:57:34 GMT 49.575577 13.734789 32,000 310 423 0
2019-07-14 11:57:29 GMT 49.568825 13.747237 32,000 310 421 64
2019-07-14 11:57:26 GMT 49.564682 13.754955 32,000 310 421 0
2019-07-14 11:57:23 GMT 49.560654 13.762255 32,000 310 421 64
2019-07-14 11:57:20 GMT 49.557083 13.768905 32,000 310 420 0
2019-07-14 11:57:17 GMT 49.554611 13.773458 32,000 311 419 0
2019-07-14 11:57:13 GMT 49.548897 13.783908 32,000 310 420 0
2019-07-14 11:57:10 GMT 49.544586 13.791817 32,000 310 420 -64
2019-07-14 11:57:05 GMT 49.539402 13.801426 32,000 310 420 0
2019-07-14 11:57:02 GMT 49.534374 13.810631 32,000 310 420 64
2019-07-14 11:56:58 GMT 49.529709 13.819283 32,000 310 420 0
2019-07-14 11:56:52 GMT 49.522751 13.832076 32,000 310 420 64
2019-07-14 11:56:49 GMT 49.519638 13.837714 32,000 310 420 64
2019-07-14 11:56:46 GMT 49.515522 13.845297 32,000 310 420 64
2019-07-14 11:56:42 GMT 49.510914 13.853760 32,000 310 420 0
2019-07-14 11:56:38 GMT 49.505219 13.864168 32,000 310 420 64
2019-07-14 11:56:35 GMT 49.501694 13.870673 32,000 310 420 64
2019-07-14 11:56:32 GMT 49.498169 13.877106 32,000 310 420 -64
2019-07-14 11:56:28 GMT 49.492310 13.887875 32,000 310 420 -64
2019-07-14 11:56:22 GMT 49.484470 13.902233 32,000 310 420 0
2019-07-14 11:56:19 GMT 49.482563 13.905722 32,000 310 418 -64
2019-07-14 11:56:15 GMT 49.477203 13.915486 32,000 310 420 64
2019-07-14 11:56:09 GMT 49.469238 13.930158 32,000 311 420 64
2019-07-14 11:56:05 GMT 49.463745 13.940205 32,000 311 420 -64
2019-07-14 11:55:58 GMT 49.456238 13.953865 32,000 310 421 64
2019-07-14 11:55:54 GMT 49.451000 13.963475 32,000 311 420 0
2019-07-14 11:55:51 GMT 49.445972 13.972605 32,000 310 421 0
2019-07-14 11:55:48 GMT 49.442062 13.979731 32,000 310 421 0
2019-07-14 11:55:45 GMT 49.434010 13.994578 32,000 310 420 -64
2019-07-14 11:55:40 GMT 49.430237 14.001425 32,000 310 420 -64
2019-07-14 11:55:37 GMT 49.430237 14.001425 32,000 310 420 0
2019-07-14 11:55:34 GMT 49.425293 14.010456 32,000 310 420 0
2019-07-14 11:55:31 GMT 49.420506 14.019205 32,000 310 420 -64
2019-07-14 11:55:28 GMT 49.417526 14.024626 32,000 310 418 -64
2019-07-14 11:55:25 GMT 49.411102 14.036407 32,000 310 418 64
2019-07-14 11:55:19 GMT 49.407303 14.043344 32,000 310 418 -64
2019-07-14 11:55:16 GMT 49.403561 14.050140 32,000 310 419 64
2019-07-14 11:55:12 GMT 49.397652 14.060982 32,000 311 419 0
2019-07-14 11:55:06 GMT 49.389404 14.076092 32,000 310 419 0
2019-07-14 11:55:03 GMT 49.386665 14.081076 32,000 310 419 -64
2019-07-14 11:55:00 GMT 49.384197 14.085557 32,000 310 419 -64
2019-07-14 11:54:57 GMT 49.375492 14.101603 32,000 310 419 64
2019-07-14 11:54:51 GMT 49.372009 14.107995 32,000 310 420 64
2019-07-14 11:54:48 GMT 49.368275 14.114830 32,000 310 419 64
2019-07-14 11:54:45 GMT 49.364136 14.122432 32,000 310 419 0
2019-07-14 11:54:42 GMT 49.361115 14.128066 32,000 310 419 0
2019-07-14 11:54:39 GMT 49.358139 14.133489 32,000 310 419 -64
2019-07-14 11:54:36 GMT 49.354202 14.140813 32,000 310 420 0
2019-07-14 11:54:33 GMT 49.348957 14.150463 32,000 310 420 0
2019-07-14 11:54:30 GMT 49.345779 14.156306 32,000 311 420 0
2019-07-14 11:54:27 GMT 49.342300 14.162785 32,000 311 420 0
2019-07-14 11:54:24 GMT 49.339554 14.167737 32,000 311 419 0
2019-07-14 11:54:21 GMT 49.334991 14.175905 32,000 311 419 64
2019-07-14 11:54:18 GMT 49.331726 14.181730 32,000 311 419 64
2019-07-14 11:54:15 GMT 49.326473 14.191300 32,000 308 420 -128
2019-07-14 11:54:08 GMT 49.319767 14.203949 32,000 309 420 -128
2019-07-14 11:54:04 GMT 49.313484 14.216453 32,000 307 420 0
2019-07-14 11:53:59 GMT 49.308609 14.226450 32,000 307 420 -64
2019-07-14 11:53:56 GMT 49.305038 14.233915 32,000 306 420 64
2019-07-14 11:53:52 GMT 49.300095 14.244479 32,000 305 420 -64
2019-07-14 11:53:48 GMT 49.291260 14.264479 32,000 303 420 64
2019-07-14 11:53:44 GMT 49.291260 14.264479 32,000 303 420 64
2019-07-14 11:53:40 GMT 49.287140 14.274550 32,000 301 421 0
2019-07-14 11:53:36 GMT 49.279827 14.293502 32,000 301 421 -64
2019-07-14 11:53:33 GMT 49.279827 14.293502 32,000 301 421 -128
2019-07-14 11:53:30 GMT 49.277920 14.298489 32,000 301 421 -64
2019-07-14 11:53:25 GMT 49.272705 14.312005 32,000 301 421 64
2019-07-14 11:53:22 GMT 49.269585 14.320245 32,000 301 421 64
2019-07-14 11:53:19 GMT 49.267410 14.325890 32,000 301 421 64
2019-07-14 11:53:13 GMT 49.260555 14.343663 32,000 301 421 -64
2019-07-14 11:53:09 GMT 49.256969 14.353059 32,000 301 420 0
2019-07-14 11:53:03 GMT 49.251663 14.366878 32,000 301 420 0
2019-07-14 11:53:00 GMT 49.247681 14.377160 32,000 301 420 0
2019-07-14 11:52:57 GMT 49.244354 14.385874 32,000 301 420 0
2019-07-14 11:52:53 GMT 49.238861 14.400185 32,000 301 420 0
2019-07-14 11:52:47 GMT 49.234039 14.412724 32,000 301 420 0
2019-07-14 11:52:43 GMT 49.231365 14.419628 32,000 301 416 0
2019-07-14 11:52:40 GMT 49.227829 14.428807 32,000 301 420 0
2019-07-14 11:52:36 GMT 49.225082 14.435963 32,000 301 420 0
2019-07-14 11:52:32 GMT 49.221359 14.445683 33,975 301 420 -64
2019-07-14 11:52:29 GMT 49.218292 14.453641 32,000 301 420 -64
2019-07-14 11:52:24 GMT 49.213257 14.466609 32,000 301 420 -64
2019-07-14 11:52:20 GMT 49.207764 14.480920 32,000 301 420 0
2019-07-14 11:52:16 GMT 49.204102 14.490403 32,000 301 420 0
2019-07-14 11:52:12 GMT 49.201153 14.498122 32,000 301 419 0
2019-07-14 11:52:09 GMT 49.197739 14.506883 32,000 301 419 -64
2019-07-14 11:52:05 GMT 49.193390 14.518080 32,000 301 419 0
2019-07-14 11:52:02 GMT 49.190865 14.524721 34,000 301 418 64
2019-07-14 11:51:59 GMT 49.187328 14.533828 32,000 301 418 64
2019-07-14 11:51:56 GMT 49.184395 14.541489 32,000 301 416 0
2019-07-14 11:51:53 GMT 49.181416 14.549079 32,000 301 417 0
2019-07-14 11:51:49 GMT 49.178467 14.556673 32,000 301 416 64
2019-07-14 11:51:46 GMT 49.175922 14.563245 32,000 301 416 0
2019-07-14 11:51:42 GMT 49.171829 14.573857 32,000 301 416 0
2019-07-14 11:51:39 GMT 49.168472 14.582471 32,000 301 416 -64
2019-07-14 11:51:36 GMT 49.165867 14.589266 32,000 301 416 64
2019-07-14 11:51:32 GMT 49.161072 14.601625 32,000 301 416 0
2019-07-14 11:51:29 GMT 49.159119 14.606685 32,000 301 416 0
2019-07-14 11:51:26 GMT 49.155998 14.614780 32,000 301 416 64
2019-07-14 11:51:23 GMT 49.152283 14.624352 32,000 301 416 64
2019-07-14 11:51:20 GMT 49.148804 14.633226 32,000 301 416 0
2019-07-14 11:51:13 GMT 49.140308 14.655111 32,000 301 416 0
2019-07-14 11:51:10 GMT 49.134445 14.670217 32,000 301 416 -64
2019-07-14 11:51:04 GMT 49.134445 14.670217 32,000 301 417 -64
2019-07-14 11:51:00 GMT 49.127369 14.688432 32,000 301 416 -128
2019-07-14 11:50:54 GMT 49.123505 14.698261 32,000 301 416 64
2019-07-14 11:50:51 GMT 49.121593 14.703249 32,000 301 416 64
2019-07-14 11:50:48 GMT 49.119129 14.709609 32,000 301 416 64
2019-07-14 11:50:44 GMT 49.114288 14.722032 32,000 301 412 64
2019-07-14 11:50:41 GMT 49.111542 14.729004 32,000 301 412 64
2019-07-14 11:50:38 GMT 49.109165 14.735123 32,000 301 411 64
2019-07-14 11:50:35 GMT 49.106461 14.742103 32,000 301 407 -128
2019-07-14 11:50:30 GMT 49.101254 14.755506 32,000 301 403 64
2019-07-14 11:50:27 GMT 49.097168 14.765836 32,000 301 406 -128
2019-07-14 11:50:24 GMT 49.095062 14.771263 32,000 301 404 -64
2019-07-14 11:50:21 GMT 49.092224 14.778442 32,000 301 404 -64
2019-07-14 11:50:18 GMT 49.089008 14.786730 32,000 301 402 192
2019-07-14 11:50:15 GMT 49.083847 14.799852 32,000 301 399 256
2019-07-14 11:50:12 GMT 49.083847 14.799852 31,950 301 399 512
2019-07-14 11:50:09 GMT 49.080460 14.808655 31,975 301 399 448
2019-07-14 11:50:06 GMT 49.077484 14.816261 31,900 301 396 640
2019-07-14 11:50:02 GMT 49.074829 14.823092 31,900 301 396 640
2019-07-14 11:49:58 GMT 49.071075 14.832599 31,875 301 396 576
2019-07-14 11:49:55 GMT 49.064152 14.850408 31,775 301 394 1216
2019-07-14 11:49:52 GMT 49.064152 14.850408 31,775 301 394 1216
2019-07-14 11:49:48 GMT 49.061916 14.856118 31,675 301 394 1216
2019-07-14 11:49:42 GMT 49.052032 14.881334 31,425 301 394 1216
2019-07-14 11:49:38 GMT 49.052032 14.881334 31,525 301 394 1152
2019-07-14 11:49:35 GMT 49.049103 14.888728 31,450 301 394 1152
2019-07-14 11:49:31 GMT 49.044205 14.901334 31,350 301 394 1152
2019-07-14 11:49:26 GMT 49.040817 14.909856 31,300 301 394 1216
2019-07-14 11:49:22 GMT 49.036358 14.921241 31,175 301 393 1216
2019-07-14 11:49:15 GMT 49.031158 14.934575 31,100 301 393 1216
2019-07-14 11:49:11 GMT 49.025940 14.947885 30,975 301 393 1216
2019-07-14 11:49:06 GMT 49.022186 14.957393 30,900 301 392 1216
2019-07-14 11:48:59 GMT 49.015270 14.975016 29,700 301 391 1216
2019-07-14 11:48:55 GMT 49.011917 14.983472 30,675 301 392 1216
2019-07-14 11:48:51 GMT 49.008568 14.992001 30,450 301 391 1216
2019-07-14 11:48:48 GMT 49.004841 15.001470 30,525 301 391 1216
2019-07-14 11:48:45 GMT 49.001678 15.009507 30,450 301 391 1216
2019-07-14 11:48:39 GMT 48.997021 15.021346 30,350 301 391 1216
2019-07-14 11:48:36 GMT 48.993896 15.029367 30,275 301 391 1216
2019-07-14 11:48:28 GMT 48.986160 15.048946 30,125 301 390 1216
2019-07-14 11:48:23 GMT 48.982544 15.058064 29,900 301 389 1152
2019-07-14 11:48:18 GMT 48.977005 15.072158 29,925 301 389 1216
2019-07-14 11:48:14 GMT 48.974117 15.079530 29,850 301 389 1216
2019-07-14 11:48:11 GMT 48.971092 15.087120 29,850 301 389 1216
2019-07-14 11:48:07 GMT 48.967739 15.095576 29,750 301 388 896
2019-07-14 11:48:04 GMT 48.964436 15.104033 29,675 301 389 960
2019-07-14 11:48:01 GMT 48.961670 15.110990 29,650 301 388 960
2019-07-14 11:47:56 GMT 48.956497 15.124089 29,550 301 388 960
2019-07-14 11:47:52 GMT 48.953522 15.131554 29,450 302 387 960
2019-07-14 11:47:46 GMT 48.948608 15.143931 29,400 301 387 960
2019-07-14 11:47:43 GMT 48.942856 15.158527 29,250 302 386 1344
2019-07-14 11:47:37 GMT 48.938644 15.169228 29,175 302 386 1728
2019-07-14 11:47:34 GMT 48.936996 15.173387 29,025 301 387 1536
2019-07-14 11:47:30 GMT 48.932781 15.183901 29,025 301 387 1280
2019-07-14 11:47:25 GMT 48.929474 15.192357 28,950 302 386 1216
2019-07-14 11:47:21 GMT 48.925007 15.203560 28,825 302 386 1152
2019-07-14 11:47:17 GMT 48.921329 15.212884 28,700 301 384 1216
2019-07-14 11:47:14 GMT 48.917862 15.221628 28,350 302 383 1344
2019-07-14 11:47:09 GMT 48.911087 15.238760 28,550 302 383 1344
2019-07-14 11:47:03 GMT 48.908897 15.244253 28,350 301 382 1408
2019-07-14 11:47:00 GMT 48.905266 15.253505 28,425 301 382 1408
2019-07-14 11:46:57 GMT 48.900146 15.266370 28,275 301 382 1408
2019-07-14 11:46:51 GMT 48.897812 15.272264 28,050 301 382 1408
2019-07-14 11:46:48 GMT 48.895027 15.279236 28,150 301 382 1408
2019-07-14 11:46:45 GMT 48.892838 15.284801 27,975 301 382 1408
2019-07-14 11:46:42 GMT 48.888836 15.294920 27,975 301 382 1408
2019-07-14 11:46:38 GMT 48.885727 15.302687 27,900 301 381 1408
2019-07-14 11:46:35 GMT 48.883575 15.308181 27,800 302 380 1280
2019-07-14 11:46:32 GMT 48.876965 15.324844 27,725 301 379 1216
2019-07-14 11:46:29 GMT 48.876965 15.324844 27,700 301 379 1216
2019-07-14 11:46:25 GMT 48.874355 15.331493 27,575 301 379 1152
2019-07-14 11:46:20 GMT 48.869747 15.343130 27,525 301 377 1280
2019-07-14 11:46:17 GMT 48.866444 15.351514 27,425 301 377 1280
2019-07-14 11:46:13 GMT 48.863022 15.360154 27,300 301 376 1344
2019-07-14 11:46:10 GMT 48.859909 15.368112 27,300 301 375 1344
2019-07-14 11:46:06 GMT 48.856014 15.377968 27,200 301 375 1408
2019-07-14 11:46:03 GMT 48.853821 15.383676 27,150 301 374 1408
2019-07-14 11:45:57 GMT 48.849033 15.395821 27,000 302 373 1472
2019-07-14 11:45:54 GMT 48.846146 15.402977 26,925 302 373 1472
2019-07-14 11:45:51 GMT 48.843475 15.409452 26,825 302 373 1472
2019-07-14 11:45:48 GMT 48.841599 15.414030 26,800 302 372 1472
2019-07-14 11:45:45 GMT 48.837860 15.423215 26,700 301 371 1408
2019-07-14 11:45:42 GMT 48.835190 15.430087 26,650 301 371 1408
2019-07-14 11:45:37 GMT 48.831345 15.439946 26,525 300 370 1536
2019-07-14 11:45:34 GMT 48.828457 15.447645 26,450 300 370 1536
2019-07-14 11:45:31 GMT 48.825394 15.456003 26,350 299 370 1536
2019-07-14 11:45:28 GMT 48.823334 15.461707 26,300 299 370 1472
2019-07-14 11:45:25 GMT 48.821568 15.466726 26,200 298 369 1472
2019-07-14 11:45:22 GMT 48.818726 15.474966 26,200 297 368 1536
2019-07-14 11:45:19 GMT 48.816788 15.481004 26,125 297 369 1536
2019-07-14 11:45:15 GMT 48.814304 15.488916 25,875 295 369 1600
2019-07-14 11:45:11 GMT 48.810627 15.501131 25,850 295 367 1664
2019-07-14 11:45:08 GMT 48.808823 15.507273 25,775 294 368 1664
2019-07-14 11:45:05 GMT 48.807041 15.513418 25,575 295 367 1536
2019-07-14 11:45:02 GMT 48.804295 15.522814 25,575 295 367 1536
2019-07-14 11:44:57 GMT 48.801407 15.532485 25,550 295 366 1408
2019-07-14 11:44:54 GMT 48.798889 15.540865 25,425 295 365 1408
2019-07-14 11:44:51 GMT 48.796600 15.548471 25,350 295 364 1792
2019-07-14 11:44:48 GMT 48.794750 15.554472 25,075 297 364 2240
2019-07-14 11:44:44 GMT 48.791588 15.564447 25,100 296 363 2176
2019-07-14 11:44:41 GMT 48.789772 15.570084 25,125 297 364 2240
2019-07-14 11:44:37 GMT 48.786697 15.578975 24,625 298 364 2304
2019-07-14 11:44:34 GMT 48.783600 15.587628 24,750 300 364 2176
2019-07-14 11:44:31 GMT 48.781265 15.593825 24,650 301 365 2112
2019-07-14 11:44:28 GMT 48.779064 15.599357 24,550 303 364 2176
2019-07-14 11:44:24 GMT 48.774811 15.609389 24,375 305 364 2176
2019-07-14 11:44:20 GMT 48.771523 15.616487 24,250 308 364 1920
2019-07-14 11:44:16 GMT 48.768448 15.622559 24,175 309 364 1856
2019-07-14 11:44:12 GMT 48.763142 15.632316 24,050 311 363 1728
2019-07-14 11:44:09 GMT 48.759514 15.638460 23,950 313 363 1408
2019-07-14 11:44:06 GMT 48.756088 15.643897 23,875 315 362 1472
2019-07-14 11:44:03 GMT 48.752529 15.649374 23,825 315 362 1472
2019-07-14 11:44:00 GMT 48.750366 15.652560 23,775 317 362 1472
2019-07-14 11:43:56 GMT 48.745266 15.659854 23,600 318 361 1408
2019-07-14 11:43:52 GMT 48.740112 15.666997 23,575 318 361 1408
2019-07-14 11:43:45 GMT 48.730820 15.679955 23,400 318 360 1408
2019-07-14 11:43:40 GMT 48.724689 15.688549 23,300 318 360 1472
2019-07-14 11:43:34 GMT 48.716824 15.699463 23,100 318 359 1600
2019-07-14 11:43:31 GMT 48.713699 15.703829 23,050 318 359 1664
2019-07-14 11:43:28 GMT 48.710724 15.707914 22,975 318 359 1664
2019-07-14 11:43:25 GMT 48.706787 15.713337 22,900 318 358 1408
2019-07-14 11:43:22 GMT 48.698456 15.724816 22,800 318 358 1408
2019-07-14 11:43:19 GMT 48.698456 15.724816 22,725 318 358 1408
2019-07-14 11:43:14 GMT 48.694061 15.730873 22,650 318 357 1408
2019-07-14 11:43:11 GMT 48.690430 15.735891 22,600 318 357 1408
2019-07-14 11:43:08 GMT 48.685776 15.742352 22,500 318 356 1344
2019-07-14 11:43:01 GMT 48.678280 15.752949 22,400 317 355 1216
2019-07-14 11:42:58 GMT 48.673370 15.760240 22,275 314 353 1216
2019-07-14 11:42:51 GMT 48.666409 15.772320 22,150 305 351 1280
2019-07-14 11:42:48 GMT 48.663288 15.779258 22,025 302 351 1344
2019-07-14 11:42:42 GMT 48.659042 15.790382 21,950 299 350 1728
2019-07-14 11:42:39 GMT 48.656399 15.797689 21,850 299 350 1728
2019-07-14 11:42:36 GMT 48.654259 15.803761 21,825 299 350 1856
2019-07-14 11:42:32 GMT 48.650391 15.814467 21,600 299 349 1920
2019-07-14 11:42:29 GMT 48.648834 15.818763 21,550 299 349 1856
2019-07-14 11:42:25 GMT 48.646252 15.826022 21,450 299 349 1728
2019-07-14 11:42:22 GMT 48.643982 15.832285 21,375 299 349 1664
2019-07-14 11:42:19 GMT 48.640594 15.841722 21,250 299 348 1600
2019-07-14 11:42:16 GMT 48.638763 15.846792 21,175 299 347 1664
2019-07-14 11:42:13 GMT 48.636383 15.853344 21,150 299 347 1664
2019-07-14 11:42:08 GMT 48.631943 15.865737 20,950 299 346 1600
2019-07-14 11:42:04 GMT 48.629353 15.872931 20,850 299 345 1600
2019-07-14 11:41:57 GMT 48.624138 15.887315 20,675 299 345 1536
2019-07-14 11:41:53 GMT 48.621113 15.895771 20,525 299 344 1600
2019-07-14 11:41:48 GMT 48.615387 15.911600 20,325 299 342 1664
2019-07-14 11:41:42 GMT 48.612312 15.920129 20,250 299 341 1664
2019-07-14 11:41:38 GMT 48.609741 15.927218 20,150 299 340 1664
2019-07-14 11:41:35 GMT 48.607193 15.934368 20,150 299 340 1664
2019-07-14 11:41:31 GMT 48.604168 15.942608 19,950 299 338 1728
2019-07-14 11:41:26 GMT 48.598164 15.959304 19,700 299 339 1920
2019-07-14 11:41:23 GMT 48.598164 15.959304 19,725 299 339 1920
2019-07-14 11:41:19 GMT 48.595043 15.967977 19,575 299 338 1984
2019-07-14 11:41:16 GMT 48.593693 15.971736 19,450 299 338 1984
2019-07-14 11:41:12 GMT 48.590286 15.981093 19,425 299 338 1984
2019-07-14 11:41:08 GMT 48.587410 15.989083 19,250 299 338 2048
2019-07-14 11:41:05 GMT 48.585159 15.995319 19,150 299 338 1984
2019-07-14 11:41:02 GMT 48.576656 16.018934 18,875 299 336 1792
2019-07-14 11:40:54 GMT 48.576656 16.018934 18,800 299 337 1792
2019-07-14 11:40:51 GMT 48.574722 16.024263 18,725 299 337 1856
2019-07-14 11:40:44 GMT 48.568928 16.040400 18,450 299 337 2112
2019-07-14 11:40:40 GMT 48.566483 16.047363 18,325 298 337 2112
2019-07-14 11:40:34 GMT 48.562271 16.059553 18,125 298 338 2048
2019-07-14 11:40:30 GMT 48.559570 16.067505 18,000 297 338 1984
2019-07-14 11:40:23 GMT 48.554729 16.082321 17,775 296 338 1792
2019-07-14 11:40:19 GMT 48.551609 16.092587 17,650 294 338 1600
2019-07-14 11:40:13 GMT 48.547623 16.105886 17,475 296 335 1408
2019-07-14 11:40:09 GMT 48.544693 16.113985 17,400 302 333 1472
2019-07-14 11:40:02 GMT 48.539085 16.127930 17,275 302 331 1600
2019-07-14 11:39:56 GMT 48.534119 16.140114 17,050 302 330 1664
2019-07-14 11:39:53 GMT 48.532562 16.143915 17,000 302 329 1792
2019-07-14 11:39:49 GMT 48.529449 16.151421 16,875 302 328 1856
2019-07-14 11:39:46 GMT 48.527390 16.156382 16,800 303 327 1856
2019-07-14 11:39:43 GMT 48.524330 16.163780 16,650 303 327 1792
2019-07-14 11:39:40 GMT 48.521725 16.169996 16,575 305 326 1472
2019-07-14 11:39:36 GMT 48.515808 16.183144 16,425 306 325 1472
2019-07-14 11:39:33 GMT 48.515808 16.183144 16,400 307 325 1408
2019-07-14 11:39:29 GMT 48.512512 16.189623 16,300 311 324 1472
2019-07-14 11:39:26 GMT 48.505234 16.201454 16,025 315 322 1536
2019-07-14 11:39:22 GMT 48.505234 16.201454 16,125 317 321 1664
2019-07-14 11:39:19 GMT 48.501331 16.206785 16,025 320 320 1920
2019-07-14 11:39:16 GMT 48.498505 16.210327 15,975 322 320 1984
2019-07-14 11:39:12 GMT 48.493423 16.216244 15,800 323 319 2048
2019-07-14 11:39:08 GMT 48.488800 16.221596 15,650 323 319 1920
2019-07-14 11:39:01 GMT 48.481407 16.230059 15,500 323 317 1856
2019-07-14 11:38:55 GMT 48.474609 16.237864 15,275 323 317 2176
2019-07-14 11:38:51 GMT 48.469070 16.244413 14,850 322 318 2368
2019-07-14 11:38:44 GMT 48.460506 16.254490 14,800 322 319 2304
2019-07-14 11:38:38 GMT 48.455154 16.260822 14,625 322 319 2176
2019-07-14 11:38:34 GMT 48.449799 16.267138 14,450 322 319 2304
2019-07-14 11:38:31 GMT 48.445862 16.271809 14,275 322 319 2240
2019-07-14 11:38:28 GMT 48.441933 16.276463 14,200 322 319 2176
2019-07-14 11:38:23 GMT 48.437279 16.281956 14,050 322 319 2304
2019-07-14 11:38:19 GMT 48.427547 16.293520 13,875 311 313 2432
2019-07-14 11:38:15 GMT 48.427547 16.293520 13,750 322 318 2048
2019-07-14 11:38:12 GMT 48.424755 16.296772 13,675 322 318 1920
2019-07-14 11:38:09 GMT 48.420284 16.302120 13,550 322 317 1792
2019-07-14 11:38:05 GMT 48.415421 16.307936 13,425 322 316 1792
2019-07-14 11:38:01 GMT 48.411999 16.312023 13,375 321 315 1792
2019-07-14 11:37:57 GMT 48.407021 16.318312 13,200 320 314 1728
2019-07-14 11:37:52 GMT 48.401276 16.326317 13,025 313 313 2304
2019-07-14 11:37:49 GMT 48.399059 16.329803 12,800 303 280 2304
2019-07-14 11:37:45 GMT 48.394821 16.337515 12,750 306 314 2432
2019-07-14 11:37:42 GMT 48.392075 16.343464 12,625 304 315 2496
2019-07-14 11:37:39 GMT 48.390400 16.347223 12,550 303 315 2624
2019-07-14 11:37:36 GMT 48.387772 16.353502 12,375 303 315 2688
2019-07-14 11:37:33 GMT 48.385574 16.358713 12,250 303 316 2432
2019-07-14 11:37:30 GMT 48.383556 16.363558 12,200 303 315 2048
2019-07-14 11:37:26 GMT 48.380264 16.371319 12,000 303 313 1408
2019-07-14 11:37:23 GMT 48.377922 16.376858 11,975 303 311 1280
2019-07-14 11:37:20 GMT 48.375595 16.382278 11,900 303 308 832
2019-07-14 11:37:17 GMT 48.373268 16.387772 11,875 303 308 832
2019-07-14 11:37:14 GMT 48.370522 16.394203 11,850 303 302 320
2019-07-14 11:37:10 GMT 48.367081 16.402376 11,825 303 301 384
2019-07-14 11:37:06 GMT 48.365021 16.407307 11,800 303 299 448
2019-07-14 11:37:03 GMT 48.363281 16.411531 11,750 303 293 1152
2019-07-14 11:36:59 GMT 48.358883 16.421741 11,675 303 289 1024
2019-07-14 11:36:55 GMT 48.357193 16.425829 11,650 303 284 1664
2019-07-14 11:36:48 GMT 48.351669 16.438871 11,425 303 284 2176
2019-07-14 11:36:45 GMT 48.349388 16.444220 11,325 303 284 2176
2019-07-14 11:36:38 GMT 48.342636 16.460121 11,025 303 281 1920
2019-07-14 11:36:35 GMT 48.342636 16.460121 10,975 303 281 1920
2019-07-14 11:36:30 GMT 48.338726 16.469374 10,775 303 280 2432
2019-07-14 11:36:27 GMT 48.335266 16.477591 10,525 303 279 3008
2019-07-14 11:36:24 GMT 48.335266 16.477591 10,525 303 279 3072
2019-07-14 11:36:19 GMT 48.332199 16.484703 10,250 303 281 2816
2019-07-14 11:36:16 GMT 48.329834 16.490334 10,200 303 281 2816
2019-07-14 11:36:13 GMT 48.327438 16.495972 10,100 303 281 2880
2019-07-14 11:36:06 GMT 48.322723 16.507170 9,700 303 281 2368
2019-07-14 11:36:03 GMT 48.319931 16.513647 9,550 303 281 2304
2019-07-14 11:35:56 GMT 48.315445 16.524282 9,350 303 279 1792
2019-07-14 11:35:53 GMT 48.313248 16.529425 9,250 303 278 2112
2019-07-14 11:35:50 GMT 48.311783 16.532734 9,175 303 277 2048
2019-07-14 11:35:47 GMT 48.307480 16.542875 9,125 303 270 1152
2019-07-14 11:35:44 GMT 48.305161 16.548374 8,975 303 266 1792
2019-07-14 11:35:40 GMT 48.305161 16.548374 8,975 303 266 1792
2019-07-14 11:35:34 GMT 48.300842 16.558649 8,775 303 266 1408
2019-07-14 11:35:31 GMT 48.298321 16.564636 8,675 303 271 1280
2019-07-14 11:35:27 GMT 48.296036 16.569918 8,000 303 272 1344
2019-07-14 11:35:23 GMT 48.293709 16.575405 8,525 303 271 1600
2019-07-14 11:35:19 GMT 48.290497 16.582994 8,375 303 269 2432
2019-07-14 11:35:16 GMT 48.288868 16.586826 8,000 303 266 1600
2019-07-14 11:35:12 GMT 48.286495 16.592390 8,175 303 268 2240
2019-07-14 11:35:09 GMT 48.283562 16.599258 8,000 303 266 1664
2019-07-14 11:35:05 GMT 48.281845 16.603371 7,550 303 262 1152
2019-07-14 11:35:02 GMT 48.279556 16.608934 7,900 303 262 1088
2019-07-14 11:34:59 GMT 48.276997 16.615013 7,825 303 253 640
2019-07-14 11:34:55 GMT 48.275368 16.618845 7,800 303 253 640
2019-07-14 11:34:52 GMT 48.272964 16.624498 7,700 303 243 960
2019-07-14 11:34:47 GMT 48.270309 16.630905 7,650 304 238 1600
2019-07-14 11:34:44 GMT 48.267780 16.636698 7,550 333 231 2304
2019-07-14 11:34:41 GMT 48.266525 16.639444 7,500 306 235 2368
2019-07-14 11:34:35 GMT 48.262428 16.646889 7,250 321 232 2624
2019-07-14 11:34:30 GMT 48.258423 16.651876 7,075 323 231 2560
2019-07-14 11:34:25 GMT 48.253582 16.655924 6,850 337 230 2304
2019-07-14 11:34:22 GMT 48.250992 16.657457 6,750 341 230 2432
2019-07-14 11:34:18 GMT 48.246552 16.659218 6,550 350 229 2624
2019-07-14 11:34:15 GMT 48.243572 16.659756 6,375 3 229 2560
2019-07-14 11:34:12 GMT 48.239944 16.659756 5,825 11 230 2688
2019-07-14 11:34:07 GMT 48.234695 16.658512 6,050 11 230 2688
2019-07-14 11:34:04 GMT 48.226044 16.652948 5,700 24 231 2240
2019-07-14 11:33:58 GMT 48.226044 16.652948 5,125 31 219 1792
2019-07-14 11:33:54 GMT 48.222626 16.649853 5,575 30 227 2432
2019-07-14 11:33:51 GMT 48.218994 16.646528 5,425 31 226 2688
2019-07-14 11:33:47 GMT 48.216480 16.644287 5,300 31 224 2496
2019-07-14 11:33:42 GMT 48.211872 16.640022 5,150 31 223 2368
2019-07-14 11:33:36 GMT 48.206985 16.635542 4,925 31 220 1856
2019-07-14 11:33:31 GMT 48.202332 16.631187 4,825 31 217 1664
2019-07-14 11:33:26 GMT 48.198185 16.627302 4,575 31 212 2368
2019-07-14 11:33:23 GMT 48.192505 16.622169 4,325 29 209 2368
2019-07-14 11:33:16 GMT 48.189240 16.619497 4,150 28 207 2368
2019-07-14 11:33:13 GMT 48.187057 16.617689 4,150 28 207 2368
2019-07-14 11:33:10 GMT 48.183884 16.615131 3,925 28 205 2496
2019-07-14 11:33:03 GMT 48.178619 16.610834 3,725 28 204 2688
2019-07-14 11:32:58 GMT 48.173813 16.606821 3,400 28 202 2496
2019-07-14 11:32:52 GMT 48.169743 16.603594 3,275 28 203 2496
2019-07-14 11:32:47 GMT 48.165691 16.600269 2,975 28 202 3008
2019-07-14 11:32:42 GMT 48.161728 16.596960 2,775 29 204 2560
2019-07-14 11:32:37 GMT 48.156612 16.592594 2,525 30 200 2048
2019-07-14 11:32:32 GMT 48.153496 16.589848 2,400 30 198 1344
2019-07-14 11:32:25 GMT 48.148094 16.585131 2,275 30 191 1088
2019-07-14 11:32:21 GMT 48.145248 16.582558 2,175 30 183 704
2019-07-14 11:32:15 GMT 48.140320 16.578228 2,150 28 174 576
2019-07-14 11:32:11 GMT 48.137695 16.576378 2,125 24 170 640
2019-07-14 11:32:04 GMT 48.131893 16.574284 1,950 3 157 1536
2019-07-14 11:32:00 GMT 48.129986 16.574354 1,900 359 156 1728
2019-07-14 11:31:54 GMT 48.124924 16.575829 1,625 345 152 2560
2019-07-14 11:31:50 GMT 48.121979 16.577101 1,450 344 157 2368
2019-07-14 11:31:42 GMT 48.116997 16.579285 1,150 344 157 2368
2019-07-14 11:31:38 GMT 48.114811 16.580271 1,025 344 166 1216
2019-07-14 11:31:31 GMT 48.109505 16.582455 650 344 166 1216

Making use of Plane Finder data

You are free to use the raw flight data, aircraft information and images provided in this report for your own purposes provided the data is correctly attributed to Plane Finder. We ask that you please credit Plane Finder and link to planefinder.net in close proximity to the content.

Optionally one of the following logos (no smaller then 150x24px) can be used and must link to planefinder.net

Embedding the Plane Finder map

You are welcome to embed the Plane Finder playback map on your website to offer visitors a more interactive experience. We suggest using the following HTML code:

<iframe src="//planefinder.net/data/report/OS463-OE-LWL-7700-squawk-2019-07-14/map" width="800" height="600" seamless="seamless"></iframe>

Where our data comes from

Plane Finder has a global network of data feeds and antenna radars that receive data broadcast directly from aircraft. The primary technologies used are ADS-B and MLAT. We also show feeds from the FAA and a FLARM glider feed.

Click here to find out more about the Plane Finder network.

How we collect our data